<?xml version="1.0" encoding="UTF-8" standalone="no" ?>
<gpx xmlns="http://www.topografix.com/GPX/1/1" xmlns:xsi="http://www.w3.org/2001/XMLSchema-instance" xsi:schemaLocation="http://www.topografix.com/GPX/1/1 http://www.topografix.com/GPX/1/1/gpx.xsd" version="1.1" creator="VisuGPX - https://www.visugpx.com">
  <metadata>
    <name>BRINE38K929M</name>
  </metadata>
  <trk>
    <name><![CDATA[Briançon VTTAE]]></name>
    <trkseg>
      <trkpt lat="44.89649" lon="6.63616">
        <ele>1259.4000244141</ele>
        <time>2020-09-13T08:07:03.000Z</time>
      </trkpt>
      <trkpt lat="44.89649" lon="6.63616">
        <ele>1259.4000244141</ele>
        <time>2020-09-13T08:07:03.000Z</time>
      </trkpt>
      <trkpt lat="44.89649" lon="6.63616">
        <ele>1259.4000244141</ele>
        <time>2020-09-13T08:07:04.000Z</time>
      </trkpt>
      <trkpt lat="44.89649" lon="6.63619">
        <ele>1259.1999511719</ele>
        <time>2020-09-13T08:07:33.000Z</time>
      </trkpt>
      <trkpt lat="44.8964" lon="6.63619">
        <ele>1260</ele>
        <time>2020-09-13T08:10:57.000Z</time>
      </trkpt>
      <trkpt lat="44.89627" lon="6.63611">
        <ele>1259.8000488281</ele>
        <time>2020-09-13T08:11:01.000Z</time>
      </trkpt>
      <trkpt lat="44.8962" lon="6.63603">
        <ele>1258.8000488281</ele>
        <time>2020-09-13T08:11:04.000Z</time>
      </trkpt>
      <trkpt lat="44.89611" lon="6.63617">
        <ele>1256.8000488281</ele>
        <time>2020-09-13T08:11:08.000Z</time>
      </trkpt>
      <trkpt lat="44.89585" lon="6.63646">
        <ele>1255.1999511719</ele>
        <time>2020-09-13T08:11:15.000Z</time>
      </trkpt>
      <trkpt lat="44.89524" lon="6.63678">
        <ele>1252.8000488281</ele>
        <time>2020-09-13T08:11:26.000Z</time>
      </trkpt>
      <trkpt lat="44.89492" lon="6.63688">
        <ele>1252.4000244141</ele>
        <time>2020-09-13T08:11:33.000Z</time>
      </trkpt>
      <trkpt lat="44.89475" lon="6.63716">
        <ele>1252.4000244141</ele>
        <time>2020-09-13T08:11:37.000Z</time>
      </trkpt>
      <trkpt lat="44.8947" lon="6.63722">
        <ele>1252.4000244141</ele>
        <time>2020-09-13T08:11:38.000Z</time>
      </trkpt>
      <trkpt lat="44.89465" lon="6.63726">
        <ele>1252.4000244141</ele>
        <time>2020-09-13T08:11:39.000Z</time>
      </trkpt>
      <trkpt lat="44.8946" lon="6.6373">
        <ele>1252.4000244141</ele>
        <time>2020-09-13T08:11:40.000Z</time>
      </trkpt>
      <trkpt lat="44.89416" lon="6.63758">
        <ele>1253.5999755859</ele>
        <time>2020-09-13T08:11:49.000Z</time>
      </trkpt>
      <trkpt lat="44.89394" lon="6.63762">
        <ele>1256</ele>
        <time>2020-09-13T08:11:53.000Z</time>
      </trkpt>
      <trkpt lat="44.89386" lon="6.63777">
        <ele>1230.9</ele>
      </trkpt>
      <trkpt lat="44.89363" lon="6.63792">
        <ele>1232.7</ele>
      </trkpt>
      <trkpt lat="44.89306" lon="6.6382">
        <ele>1237.3</ele>
      </trkpt>
      <trkpt lat="44.89272" lon="6.63818">
        <ele>1238.6</ele>
      </trkpt>
      <trkpt lat="44.89234" lon="6.63826">
        <ele>1242.5</ele>
      </trkpt>
      <trkpt lat="44.89222" lon="6.63849">
        <ele>1254.4</ele>
      </trkpt>
      <trkpt lat="44.89192" lon="6.63919">
        <ele>1270.6</ele>
      </trkpt>
      <trkpt lat="44.89175" lon="6.63957">
        <ele>1273.9</ele>
      </trkpt>
      <trkpt lat="44.89161" lon="6.64003">
        <ele>1281</ele>
      </trkpt>
      <trkpt lat="44.89158" lon="6.6404">
        <ele>1284.8</ele>
      </trkpt>
      <trkpt lat="44.8916" lon="6.6407">
        <ele>1321.4000244141</ele>
        <time>2020-09-13T08:14:37.000Z</time>
      </trkpt>
      <trkpt lat="44.89166" lon="6.64081">
        <ele>1291.1</ele>
      </trkpt>
      <trkpt lat="44.89173" lon="6.64113">
        <ele>1294.7</ele>
      </trkpt>
      <trkpt lat="44.89187" lon="6.64161">
        <ele>1295.7</ele>
      </trkpt>
      <trkpt lat="44.8919" lon="6.64189">
        <ele>1298.6</ele>
      </trkpt>
      <trkpt lat="44.89187" lon="6.64214">
        <ele>1299.4</ele>
      </trkpt>
      <trkpt lat="44.89169" lon="6.64267">
        <ele>1302.5</ele>
      </trkpt>
      <trkpt lat="44.89159" lon="6.64307">
        <ele>1303.7</ele>
      </trkpt>
      <trkpt lat="44.89134" lon="6.64341">
        <ele>1307.3</ele>
      </trkpt>
      <trkpt lat="44.89116" lon="6.64403">
        <ele>1308.4</ele>
      </trkpt>
      <trkpt lat="44.89108" lon="6.64447">
        <ele>1313.4</ele>
      </trkpt>
      <trkpt lat="44.89114" lon="6.6449">
        <ele>1316</ele>
      </trkpt>
      <trkpt lat="44.89116" lon="6.64535">
        <ele>1323.7</ele>
      </trkpt>
      <trkpt lat="44.89123" lon="6.64588">
        <ele>1332.6</ele>
      </trkpt>
      <trkpt lat="44.89132" lon="6.64638">
        <ele>1334.9</ele>
      </trkpt>
      <trkpt lat="44.89136" lon="6.64698">
        <ele>1343.8</ele>
      </trkpt>
      <trkpt lat="44.89139" lon="6.64754">
        <ele>1352.9</ele>
      </trkpt>
      <trkpt lat="44.89135" lon="6.64819">
        <ele>1356.1</ele>
      </trkpt>
      <trkpt lat="44.89133" lon="6.64874">
        <ele>1363.7</ele>
      </trkpt>
      <trkpt lat="44.89138" lon="6.64912">
        <ele>1365.6</ele>
      </trkpt>
      <trkpt lat="44.89138" lon="6.64944">
        <ele>1374.1</ele>
      </trkpt>
      <trkpt lat="44.89146" lon="6.64967">
        <ele>1375.8</ele>
      </trkpt>
      <trkpt lat="44.89157" lon="6.64983">
        <ele>1376.8</ele>
      </trkpt>
      <trkpt lat="44.89216" lon="6.65008">
        <ele>1385.9</ele>
      </trkpt>
      <trkpt lat="44.89219" lon="6.65025">
        <ele>1386.4</ele>
      </trkpt>
      <trkpt lat="44.89206" lon="6.65045">
        <ele>1386.6</ele>
      </trkpt>
      <trkpt lat="44.89175" lon="6.65064">
        <ele>1387.2</ele>
      </trkpt>
      <trkpt lat="44.89209" lon="6.65063">
        <ele>1387.3</ele>
      </trkpt>
      <trkpt lat="44.89233" lon="6.65052">
        <ele>1387.7</ele>
      </trkpt>
      <trkpt lat="44.8925" lon="6.65036">
        <ele>1387.5</ele>
      </trkpt>
      <trkpt lat="44.89261" lon="6.65012">
        <ele>1397.1</ele>
      </trkpt>
      <trkpt lat="44.89268" lon="6.64987">
        <ele>1398.4</ele>
      </trkpt>
      <trkpt lat="44.89274" lon="6.64983">
        <ele>1400.5</ele>
      </trkpt>
      <trkpt lat="44.89279" lon="6.65002">
        <ele>1402.3</ele>
      </trkpt>
      <trkpt lat="44.89278" lon="6.65024">
        <ele>1428.8000488281</ele>
        <time>2020-09-13T08:20:27.000Z</time>
      </trkpt>
      <trkpt lat="44.89277" lon="6.65086">
        <ele>1430</ele>
        <time>2020-09-13T08:20:39.000Z</time>
      </trkpt>
      <trkpt lat="44.89279" lon="6.65146">
        <ele>1433</ele>
        <time>2020-09-13T08:20:51.000Z</time>
      </trkpt>
      <trkpt lat="44.89278" lon="6.65197">
        <ele>1436</ele>
        <time>2020-09-13T08:21:01.000Z</time>
      </trkpt>
      <trkpt lat="44.89253" lon="6.65254">
        <ele>1439.1999511719</ele>
        <time>2020-09-13T08:21:14.000Z</time>
      </trkpt>
      <trkpt lat="44.89257" lon="6.65297">
        <ele>1441.5999755859</ele>
        <time>2020-09-13T08:21:23.000Z</time>
      </trkpt>
      <trkpt lat="44.89287" lon="6.65321">
        <ele>1445</ele>
        <time>2020-09-13T08:21:32.000Z</time>
      </trkpt>
      <trkpt lat="44.8931" lon="6.65336">
        <ele>1448.1999511719</ele>
        <time>2020-09-13T08:21:39.000Z</time>
      </trkpt>
      <trkpt lat="44.89336" lon="6.65352">
        <ele>1451.5999755859</ele>
        <time>2020-09-13T08:21:47.000Z</time>
      </trkpt>
      <trkpt lat="44.89361" lon="6.65367">
        <ele>1454.5999755859</ele>
        <time>2020-09-13T08:21:55.000Z</time>
      </trkpt>
      <trkpt lat="44.89383" lon="6.6538">
        <ele>1457.8000488281</ele>
        <time>2020-09-13T08:22:02.000Z</time>
      </trkpt>
      <trkpt lat="44.8941" lon="6.65394">
        <ele>1460.8000488281</ele>
        <time>2020-09-13T08:22:10.000Z</time>
      </trkpt>
      <trkpt lat="44.89446" lon="6.65413">
        <ele>1464</ele>
        <time>2020-09-13T08:22:21.000Z</time>
      </trkpt>
      <trkpt lat="44.89475" lon="6.6543">
        <ele>1467</ele>
        <time>2020-09-13T08:22:31.000Z</time>
      </trkpt>
      <trkpt lat="44.89482" lon="6.6547">
        <ele>1468.8000488281</ele>
        <time>2020-09-13T08:22:42.000Z</time>
      </trkpt>
      <trkpt lat="44.8949" lon="6.655">
        <ele>1469</ele>
        <time>2020-09-13T08:22:50.000Z</time>
      </trkpt>
      <trkpt lat="44.89492" lon="6.65528">
        <ele>1469</ele>
        <time>2020-09-13T08:22:54.000Z</time>
      </trkpt>
      <trkpt lat="44.895" lon="6.65566">
        <ele>1466.8000488281</ele>
        <time>2020-09-13T08:23:00.000Z</time>
      </trkpt>
      <trkpt lat="44.89506" lon="6.65583">
        <ele>1466.5999755859</ele>
        <time>2020-09-13T08:23:03.000Z</time>
      </trkpt>
      <trkpt lat="44.89527" lon="6.65631">
        <ele>1467.1999511719</ele>
        <time>2020-09-13T08:23:12.000Z</time>
      </trkpt>
      <trkpt lat="44.89531" lon="6.65659">
        <ele>1468.5999755859</ele>
        <time>2020-09-13T08:23:17.000Z</time>
      </trkpt>
      <trkpt lat="44.89532" lon="6.65682">
        <ele>1470.1999511719</ele>
        <time>2020-09-13T08:23:21.000Z</time>
      </trkpt>
      <trkpt lat="44.89542" lon="6.65713">
        <ele>1473.8000488281</ele>
        <time>2020-09-13T08:23:28.000Z</time>
      </trkpt>
      <trkpt lat="44.89553" lon="6.65728">
        <ele>1476.1999511719</ele>
        <time>2020-09-13T08:23:33.000Z</time>
      </trkpt>
      <trkpt lat="44.89565" lon="6.65736">
        <ele>1476.4000244141</ele>
        <time>2020-09-13T08:23:35.000Z</time>
      </trkpt>
      <trkpt lat="44.89573" lon="6.6574">
        <ele>1476.4000244141</ele>
        <time>2020-09-13T08:23:37.000Z</time>
      </trkpt>
      <trkpt lat="44.89601" lon="6.65743">
        <ele>1476.4000244141</ele>
        <time>2020-09-13T08:23:42.000Z</time>
      </trkpt>
      <trkpt lat="44.89619" lon="6.6574">
        <ele>1476.4000244141</ele>
        <time>2020-09-13T08:23:45.000Z</time>
      </trkpt>
      <trkpt lat="44.89654" lon="6.65751">
        <ele>1476.5999755859</ele>
        <time>2020-09-13T08:23:51.000Z</time>
      </trkpt>
      <trkpt lat="44.89681" lon="6.65774">
        <ele>1477.8000488281</ele>
        <time>2020-09-13T08:23:57.000Z</time>
      </trkpt>
      <trkpt lat="44.89705" lon="6.65789">
        <ele>1480</ele>
        <time>2020-09-13T08:24:03.000Z</time>
      </trkpt>
      <trkpt lat="44.89724" lon="6.65801">
        <ele>1482.1999511719</ele>
        <time>2020-09-13T08:24:07.000Z</time>
      </trkpt>
      <trkpt lat="44.89741" lon="6.65845">
        <ele>1485.8000488281</ele>
        <time>2020-09-13T08:24:15.000Z</time>
      </trkpt>
      <trkpt lat="44.89757" lon="6.65875">
        <ele>1488.5999755859</ele>
        <time>2020-09-13T08:24:21.000Z</time>
      </trkpt>
      <trkpt lat="44.89772" lon="6.65888">
        <ele>1490.4000244141</ele>
        <time>2020-09-13T08:24:25.000Z</time>
      </trkpt>
      <trkpt lat="44.89787" lon="6.65897">
        <ele>1491.8000488281</ele>
        <time>2020-09-13T08:24:28.000Z</time>
      </trkpt>
      <trkpt lat="44.89818" lon="6.65922">
        <ele>1492.8000488281</ele>
        <time>2020-09-13T08:24:37.000Z</time>
      </trkpt>
      <trkpt lat="44.89816" lon="6.65939">
        <ele>1493</ele>
        <time>2020-09-13T08:24:41.000Z</time>
      </trkpt>
      <trkpt lat="44.89807" lon="6.65951">
        <ele>1493</ele>
        <time>2020-09-13T08:24:44.000Z</time>
      </trkpt>
      <trkpt lat="44.89806" lon="6.65962">
        <ele>1492.5999755859</ele>
        <time>2020-09-13T08:24:46.000Z</time>
      </trkpt>
      <trkpt lat="44.89808" lon="6.65982">
        <ele>1491.4000244141</ele>
        <time>2020-09-13T08:24:49.000Z</time>
      </trkpt>
      <trkpt lat="44.89811" lon="6.6601">
        <ele>1489.5999755859</ele>
        <time>2020-09-13T08:24:53.000Z</time>
      </trkpt>
      <trkpt lat="44.89818" lon="6.66031">
        <ele>1488</ele>
        <time>2020-09-13T08:24:57.000Z</time>
      </trkpt>
      <trkpt lat="44.89833" lon="6.66049">
        <ele>1486.5999755859</ele>
        <time>2020-09-13T08:25:01.000Z</time>
      </trkpt>
      <trkpt lat="44.89839" lon="6.66082">
        <ele>1485.5999755859</ele>
        <time>2020-09-13T08:25:06.000Z</time>
      </trkpt>
      <trkpt lat="44.89836" lon="6.66098">
        <ele>1485.4000244141</ele>
        <time>2020-09-13T08:25:08.000Z</time>
      </trkpt>
      <trkpt lat="44.89849" lon="6.66119">
        <ele>1485</ele>
        <time>2020-09-13T08:25:12.000Z</time>
      </trkpt>
      <trkpt lat="44.8986" lon="6.66124">
        <ele>1484.8000488281</ele>
        <time>2020-09-13T08:25:14.000Z</time>
      </trkpt>
      <trkpt lat="44.89873" lon="6.66145">
        <ele>1484.4000244141</ele>
        <time>2020-09-13T08:25:18.000Z</time>
      </trkpt>
      <trkpt lat="44.89876" lon="6.66159">
        <ele>1484.1999511719</ele>
        <time>2020-09-13T08:25:20.000Z</time>
      </trkpt>
      <trkpt lat="44.89885" lon="6.66213">
        <ele>1483.8000488281</ele>
        <time>2020-09-13T08:25:28.000Z</time>
      </trkpt>
      <trkpt lat="44.89888" lon="6.6622">
        <ele>1483.8000488281</ele>
        <time>2020-09-13T08:25:29.000Z</time>
      </trkpt>
      <trkpt lat="44.899" lon="6.66248">
        <ele>1483.4000244141</ele>
        <time>2020-09-13T08:25:33.000Z</time>
      </trkpt>
      <trkpt lat="44.89907" lon="6.66283">
        <ele>1482.5999755859</ele>
        <time>2020-09-13T08:25:38.000Z</time>
      </trkpt>
      <trkpt lat="44.89923" lon="6.66328">
        <ele>1481.5999755859</ele>
        <time>2020-09-13T08:25:47.000Z</time>
      </trkpt>
      <trkpt lat="44.89923" lon="6.66335">
        <ele>1481.5999755859</ele>
        <time>2020-09-13T08:25:48.000Z</time>
      </trkpt>
      <trkpt lat="44.89922" lon="6.66363">
        <ele>1482</ele>
        <time>2020-09-13T08:25:52.000Z</time>
      </trkpt>
      <trkpt lat="44.89929" lon="6.66406">
        <ele>1483</ele>
        <time>2020-09-13T08:26:00.000Z</time>
      </trkpt>
      <trkpt lat="44.89942" lon="6.66415">
        <ele>1482.8000488281</ele>
        <time>2020-09-13T08:26:03.000Z</time>
      </trkpt>
      <trkpt lat="44.89978" lon="6.66447">
        <ele>1482.4000244141</ele>
        <time>2020-09-13T08:26:11.000Z</time>
      </trkpt>
      <trkpt lat="44.8999" lon="6.66501">
        <ele>1482.1999511719</ele>
        <time>2020-09-13T08:26:20.000Z</time>
      </trkpt>
      <trkpt lat="44.89994" lon="6.66529">
        <ele>1482</ele>
        <time>2020-09-13T08:26:24.000Z</time>
      </trkpt>
      <trkpt lat="44.89999" lon="6.66542">
        <ele>1482</ele>
        <time>2020-09-13T08:26:26.000Z</time>
      </trkpt>
      <trkpt lat="44.90021" lon="6.66566">
        <ele>1482</ele>
        <time>2020-09-13T08:26:31.000Z</time>
      </trkpt>
      <trkpt lat="44.90053" lon="6.6659">
        <ele>1481.5999755859</ele>
        <time>2020-09-13T08:26:38.000Z</time>
      </trkpt>
      <trkpt lat="44.90084" lon="6.66621">
        <ele>1481.5999755859</ele>
        <time>2020-09-13T08:26:45.000Z</time>
      </trkpt>
      <trkpt lat="44.90102" lon="6.66631">
        <ele>1481.8000488281</ele>
        <time>2020-09-13T08:26:49.000Z</time>
      </trkpt>
      <trkpt lat="44.90119" lon="6.66635">
        <ele>1481.8000488281</ele>
        <time>2020-09-13T08:26:52.000Z</time>
      </trkpt>
      <trkpt lat="44.9014" lon="6.66644">
        <ele>1481.8000488281</ele>
        <time>2020-09-13T08:26:56.000Z</time>
      </trkpt>
      <trkpt lat="44.90153" lon="6.66648">
        <ele>1481.5999755859</ele>
        <time>2020-09-13T08:26:58.000Z</time>
      </trkpt>
      <trkpt lat="44.90176" lon="6.66649">
        <ele>1481.5999755859</ele>
        <time>2020-09-13T08:27:02.000Z</time>
      </trkpt>
      <trkpt lat="44.90206" lon="6.66656">
        <ele>1480.4000244141</ele>
        <time>2020-09-13T08:27:09.000Z</time>
      </trkpt>
      <trkpt lat="44.90224" lon="6.66662">
        <ele>1480.1999511719</ele>
        <time>2020-09-13T08:27:12.000Z</time>
      </trkpt>
      <trkpt lat="44.90247" lon="6.66663">
        <ele>1480</ele>
        <time>2020-09-13T08:27:16.000Z</time>
      </trkpt>
      <trkpt lat="44.90268" lon="6.66661">
        <ele>1479.5999755859</ele>
        <time>2020-09-13T08:27:20.000Z</time>
      </trkpt>
      <trkpt lat="44.9029" lon="6.66666">
        <ele>1479.5999755859</ele>
        <time>2020-09-13T08:27:24.000Z</time>
      </trkpt>
      <trkpt lat="44.90306" lon="6.66673">
        <ele>1479.5999755859</ele>
        <time>2020-09-13T08:27:27.000Z</time>
      </trkpt>
      <trkpt lat="44.90327" lon="6.66691">
        <ele>1479.5999755859</ele>
        <time>2020-09-13T08:27:31.000Z</time>
      </trkpt>
      <trkpt lat="44.90339" lon="6.66707">
        <ele>1479.8000488281</ele>
        <time>2020-09-13T08:27:34.000Z</time>
      </trkpt>
      <trkpt lat="44.90361" lon="6.66717">
        <ele>1479.8000488281</ele>
        <time>2020-09-13T08:27:39.000Z</time>
      </trkpt>
      <trkpt lat="44.90382" lon="6.66721">
        <ele>1479.4000244141</ele>
        <time>2020-09-13T08:27:42.000Z</time>
      </trkpt>
      <trkpt lat="44.90436" lon="6.6674">
        <ele>1478.8000488281</ele>
        <time>2020-09-13T08:27:51.000Z</time>
      </trkpt>
      <trkpt lat="44.90446" lon="6.66745">
        <ele>1478.5999755859</ele>
        <time>2020-09-13T08:27:53.000Z</time>
      </trkpt>
      <trkpt lat="44.90457" lon="6.6675">
        <ele>1478.4000244141</ele>
        <time>2020-09-13T08:27:55.000Z</time>
      </trkpt>
      <trkpt lat="44.90476" lon="6.66759">
        <ele>1478.1999511719</ele>
        <time>2020-09-13T08:27:59.000Z</time>
      </trkpt>
      <trkpt lat="44.90502" lon="6.6677">
        <ele>1478.1999511719</ele>
        <time>2020-09-13T08:28:04.000Z</time>
      </trkpt>
      <trkpt lat="44.90529" lon="6.66789">
        <ele>1477.8000488281</ele>
        <time>2020-09-13T08:28:10.000Z</time>
      </trkpt>
      <trkpt lat="44.90587" lon="6.66832">
        <ele>1477.8000488281</ele>
        <time>2020-09-13T08:28:22.000Z</time>
      </trkpt>
      <trkpt lat="44.90592" lon="6.66835">
        <ele>1477.8000488281</ele>
        <time>2020-09-13T08:28:23.000Z</time>
      </trkpt>
      <trkpt lat="44.90608" lon="6.66858">
        <ele>1477.8000488281</ele>
        <time>2020-09-13T08:28:27.000Z</time>
      </trkpt>
      <trkpt lat="44.90617" lon="6.66879">
        <ele>1477.5999755859</ele>
        <time>2020-09-13T08:28:30.000Z</time>
      </trkpt>
      <trkpt lat="44.90631" lon="6.6689">
        <ele>1477</ele>
        <time>2020-09-13T08:28:35.000Z</time>
      </trkpt>
      <trkpt lat="44.90638" lon="6.66888">
        <ele>1476.8000488281</ele>
        <time>2020-09-13T08:28:37.000Z</time>
      </trkpt>
      <trkpt lat="44.90652" lon="6.66919">
        <ele>1476.5999755859</ele>
        <time>2020-09-13T08:28:45.000Z</time>
      </trkpt>
      <trkpt lat="44.90654" lon="6.66924">
        <ele>1476.4000244141</ele>
        <time>2020-09-13T08:28:46.000Z</time>
      </trkpt>
      <trkpt lat="44.90661" lon="6.66934">
        <ele>1476</ele>
        <time>2020-09-13T08:28:48.000Z</time>
      </trkpt>
      <trkpt lat="44.90667" lon="6.66946">
        <ele>1475.5999755859</ele>
        <time>2020-09-13T08:28:50.000Z</time>
      </trkpt>
      <trkpt lat="44.90695" lon="6.66966">
        <ele>1473.5999755859</ele>
        <time>2020-09-13T08:28:57.000Z</time>
      </trkpt>
      <trkpt lat="44.90719" lon="6.66993">
        <ele>1472.1999511719</ele>
        <time>2020-09-13T08:29:04.000Z</time>
      </trkpt>
      <trkpt lat="44.90726" lon="6.67008">
        <ele>1471.8000488281</ele>
        <time>2020-09-13T08:29:07.000Z</time>
      </trkpt>
      <trkpt lat="44.90741" lon="6.67013">
        <ele>1471.4000244141</ele>
        <time>2020-09-13T08:29:10.000Z</time>
      </trkpt>
      <trkpt lat="44.90767" lon="6.67037">
        <ele>1471.4000244141</ele>
        <time>2020-09-13T08:29:16.000Z</time>
      </trkpt>
      <trkpt lat="44.90782" lon="6.67067">
        <ele>1471.8000488281</ele>
        <time>2020-09-13T08:29:21.000Z</time>
      </trkpt>
      <trkpt lat="44.90804" lon="6.671">
        <ele>1474</ele>
        <time>2020-09-13T08:29:27.000Z</time>
      </trkpt>
      <trkpt lat="44.90807" lon="6.67122">
        <ele>1474.5999755859</ele>
        <time>2020-09-13T08:29:30.000Z</time>
      </trkpt>
      <trkpt lat="44.9081" lon="6.6716">
        <ele>1475</ele>
        <time>2020-09-13T08:29:35.000Z</time>
      </trkpt>
      <trkpt lat="44.90813" lon="6.67188">
        <ele>1475.1999511719</ele>
        <time>2020-09-13T08:29:39.000Z</time>
      </trkpt>
      <trkpt lat="44.90813" lon="6.67201">
        <ele>1475.1999511719</ele>
        <time>2020-09-13T08:29:41.000Z</time>
      </trkpt>
      <trkpt lat="44.90822" lon="6.67228">
        <ele>1475.4000244141</ele>
        <time>2020-09-13T08:29:45.000Z</time>
      </trkpt>
      <trkpt lat="44.90836" lon="6.67252">
        <ele>1476</ele>
        <time>2020-09-13T08:29:49.000Z</time>
      </trkpt>
      <trkpt lat="44.90867" lon="6.67282">
        <ele>1476.1999511719</ele>
        <time>2020-09-13T08:29:56.000Z</time>
      </trkpt>
      <trkpt lat="44.90876" lon="6.67293">
        <ele>1476.1999511719</ele>
        <time>2020-09-13T08:29:58.000Z</time>
      </trkpt>
      <trkpt lat="44.90918" lon="6.67336">
        <ele>1476.1999511719</ele>
        <time>2020-09-13T08:30:08.000Z</time>
      </trkpt>
      <trkpt lat="44.90922" lon="6.67338">
        <ele>1476.1999511719</ele>
        <time>2020-09-13T08:30:09.000Z</time>
      </trkpt>
      <trkpt lat="44.90937" lon="6.67348">
        <ele>1476.4000244141</ele>
        <time>2020-09-13T08:30:13.000Z</time>
      </trkpt>
      <trkpt lat="44.90944" lon="6.67353">
        <ele>1476.4000244141</ele>
        <time>2020-09-13T08:30:15.000Z</time>
      </trkpt>
      <trkpt lat="44.90951" lon="6.67359">
        <ele>1476.4000244141</ele>
        <time>2020-09-13T08:30:17.000Z</time>
      </trkpt>
      <trkpt lat="44.90963" lon="6.67378">
        <ele>1476.4000244141</ele>
        <time>2020-09-13T08:30:21.000Z</time>
      </trkpt>
      <trkpt lat="44.90972" lon="6.67399">
        <ele>1475.4000244141</ele>
        <time>2020-09-13T08:30:24.000Z</time>
      </trkpt>
      <trkpt lat="44.90982" lon="6.67427">
        <ele>1472.5999755859</ele>
        <time>2020-09-13T08:30:28.000Z</time>
      </trkpt>
      <trkpt lat="44.90995" lon="6.67451">
        <ele>1470.5999755859</ele>
        <time>2020-09-13T08:30:32.000Z</time>
      </trkpt>
      <trkpt lat="44.91001" lon="6.67464">
        <ele>1470.4000244141</ele>
        <time>2020-09-13T08:30:34.000Z</time>
      </trkpt>
      <trkpt lat="44.91037" lon="6.67509">
        <ele>1471.4000244141</ele>
        <time>2020-09-13T08:30:43.000Z</time>
      </trkpt>
      <trkpt lat="44.91045" lon="6.67517">
        <ele>1472.5999755859</ele>
        <time>2020-09-13T08:30:45.000Z</time>
      </trkpt>
      <trkpt lat="44.91064" lon="6.67538">
        <ele>1473.8000488281</ele>
        <time>2020-09-13T08:30:50.000Z</time>
      </trkpt>
      <trkpt lat="44.91083" lon="6.67556">
        <ele>1473.8000488281</ele>
        <time>2020-09-13T08:30:54.000Z</time>
      </trkpt>
      <trkpt lat="44.91098" lon="6.67579">
        <ele>1473.8000488281</ele>
        <time>2020-09-13T08:30:58.000Z</time>
      </trkpt>
      <trkpt lat="44.91108" lon="6.67606">
        <ele>1472</ele>
        <time>2020-09-13T08:31:02.000Z</time>
      </trkpt>
      <trkpt lat="44.9112" lon="6.67626">
        <ele>1471.1999511719</ele>
        <time>2020-09-13T08:31:05.000Z</time>
      </trkpt>
      <trkpt lat="44.91138" lon="6.67669">
        <ele>1468</ele>
        <time>2020-09-13T08:31:14.000Z</time>
      </trkpt>
      <trkpt lat="44.9114" lon="6.67671">
        <ele>1467.5999755859</ele>
        <time>2020-09-13T08:31:15.000Z</time>
      </trkpt>
      <trkpt lat="44.91144" lon="6.67676">
        <ele>1467.1999511719</ele>
        <time>2020-09-13T08:31:17.000Z</time>
      </trkpt>
      <trkpt lat="44.9116" lon="6.67689">
        <ele>1466.5999755859</ele>
        <time>2020-09-13T08:31:22.000Z</time>
      </trkpt>
      <trkpt lat="44.91178" lon="6.67711">
        <ele>1465.4000244141</ele>
        <time>2020-09-13T08:31:28.000Z</time>
      </trkpt>
      <trkpt lat="44.91187" lon="6.67727">
        <ele>1464.5999755859</ele>
        <time>2020-09-13T08:31:31.000Z</time>
      </trkpt>
      <trkpt lat="44.9121" lon="6.67732">
        <ele>1463.5999755859</ele>
        <time>2020-09-13T08:31:36.000Z</time>
      </trkpt>
      <trkpt lat="44.91238" lon="6.6772">
        <ele>1461.1999511719</ele>
        <time>2020-09-13T08:31:42.000Z</time>
      </trkpt>
      <trkpt lat="44.91279" lon="6.67719">
        <ele>1460</ele>
        <time>2020-09-13T08:31:48.000Z</time>
      </trkpt>
      <trkpt lat="44.91292" lon="6.67719">
        <ele>1459.8000488281</ele>
        <time>2020-09-13T08:31:50.000Z</time>
      </trkpt>
      <trkpt lat="44.91342" lon="6.6771">
        <ele>1456.8000488281</ele>
        <time>2020-09-13T08:32:01.000Z</time>
      </trkpt>
      <trkpt lat="44.91388" lon="6.67725">
        <ele>1456.1999511719</ele>
        <time>2020-09-13T08:32:10.000Z</time>
      </trkpt>
      <trkpt lat="44.91417" lon="6.67751">
        <ele>1455.4000244141</ele>
        <time>2020-09-13T08:32:16.000Z</time>
      </trkpt>
      <trkpt lat="44.91428" lon="6.67772">
        <ele>1454.4000244141</ele>
        <time>2020-09-13T08:32:20.000Z</time>
      </trkpt>
      <trkpt lat="44.9144" lon="6.67801">
        <ele>1453.1999511719</ele>
        <time>2020-09-13T08:32:24.000Z</time>
      </trkpt>
      <trkpt lat="44.91453" lon="6.67823">
        <ele>1452.1999511719</ele>
        <time>2020-09-13T08:32:28.000Z</time>
      </trkpt>
      <trkpt lat="44.9147" lon="6.67855">
        <ele>1448.1999511719</ele>
        <time>2020-09-13T08:32:34.000Z</time>
      </trkpt>
      <trkpt lat="44.91482" lon="6.67875">
        <ele>1446.8000488281</ele>
        <time>2020-09-13T08:32:38.000Z</time>
      </trkpt>
      <trkpt lat="44.91489" lon="6.6789">
        <ele>1445.1999511719</ele>
        <time>2020-09-13T08:32:41.000Z</time>
      </trkpt>
      <trkpt lat="44.91496" lon="6.67907">
        <ele>1444.4000244141</ele>
        <time>2020-09-13T08:32:44.000Z</time>
      </trkpt>
      <trkpt lat="44.91497" lon="6.67914">
        <ele>1444.4000244141</ele>
        <time>2020-09-13T08:32:45.000Z</time>
      </trkpt>
      <trkpt lat="44.91505" lon="6.67946">
        <ele>1443.4000244141</ele>
        <time>2020-09-13T08:32:50.000Z</time>
      </trkpt>
      <trkpt lat="44.91525" lon="6.67957">
        <ele>1442.4000244141</ele>
        <time>2020-09-13T08:32:56.000Z</time>
      </trkpt>
      <trkpt lat="44.91534" lon="6.67991">
        <ele>1440</ele>
        <time>2020-09-13T08:33:06.000Z</time>
      </trkpt>
      <trkpt lat="44.91523" lon="6.68019">
        <ele>1440.1999511719</ele>
        <time>2020-09-13T08:33:13.000Z</time>
      </trkpt>
      <trkpt lat="44.9151" lon="6.68042">
        <ele>1443.4000244141</ele>
        <time>2020-09-13T08:33:19.000Z</time>
      </trkpt>
      <trkpt lat="44.91502" lon="6.68044">
        <ele>1444.5999755859</ele>
        <time>2020-09-13T08:33:22.000Z</time>
      </trkpt>
      <trkpt lat="44.91499" lon="6.68042">
        <ele>1445.1999511719</ele>
        <time>2020-09-13T08:33:23.000Z</time>
      </trkpt>
      <trkpt lat="44.91495" lon="6.68039">
        <ele>1446.1999511719</ele>
        <time>2020-09-13T08:33:25.000Z</time>
      </trkpt>
      <trkpt lat="44.91485" lon="6.68056">
        <ele>1448.8000488281</ele>
        <time>2020-09-13T08:33:30.000Z</time>
      </trkpt>
      <trkpt lat="44.91484" lon="6.68066">
        <ele>1450</ele>
        <time>2020-09-13T08:33:32.000Z</time>
      </trkpt>
      <trkpt lat="44.91486" lon="6.68111">
        <ele>1453</ele>
        <time>2020-09-13T08:33:41.000Z</time>
      </trkpt>
      <trkpt lat="44.91472" lon="6.6812">
        <ele>1455.4000244141</ele>
        <time>2020-09-13T08:33:46.000Z</time>
      </trkpt>
      <trkpt lat="44.91462" lon="6.68117">
        <ele>1456.5999755859</ele>
        <time>2020-09-13T08:33:49.000Z</time>
      </trkpt>
      <trkpt lat="44.91446" lon="6.68144">
        <ele>1460.5999755859</ele>
        <time>2020-09-13T08:33:56.000Z</time>
      </trkpt>
      <trkpt lat="44.91456" lon="6.68179">
        <ele>1464.5999755859</ele>
        <time>2020-09-13T08:34:04.000Z</time>
      </trkpt>
      <trkpt lat="44.91477" lon="6.68209">
        <ele>1468</ele>
        <time>2020-09-13T08:34:12.000Z</time>
      </trkpt>
      <trkpt lat="44.91496" lon="6.68237">
        <ele>1471.8000488281</ele>
        <time>2020-09-13T08:34:19.000Z</time>
      </trkpt>
      <trkpt lat="44.91511" lon="6.68264">
        <ele>1475</ele>
        <time>2020-09-13T08:34:26.000Z</time>
      </trkpt>
      <trkpt lat="44.91533" lon="6.68286">
        <ele>1478</ele>
        <time>2020-09-13T08:34:33.000Z</time>
      </trkpt>
      <trkpt lat="44.91563" lon="6.68309">
        <ele>1481.1999511719</ele>
        <time>2020-09-13T08:34:41.000Z</time>
      </trkpt>
      <trkpt lat="44.91576" lon="6.68317">
        <ele>1482.4000244141</ele>
        <time>2020-09-13T08:34:44.000Z</time>
      </trkpt>
      <trkpt lat="44.91583" lon="6.68322">
        <ele>1483.5999755859</ele>
        <time>2020-09-13T08:34:46.000Z</time>
      </trkpt>
      <trkpt lat="44.9161" lon="6.68343">
        <ele>1486.5999755859</ele>
        <time>2020-09-13T08:34:54.000Z</time>
      </trkpt>
      <trkpt lat="44.9162" lon="6.68375">
        <ele>1489.8000488281</ele>
        <time>2020-09-13T08:35:01.000Z</time>
      </trkpt>
      <trkpt lat="44.91628" lon="6.68396">
        <ele>1491.5999755859</ele>
        <time>2020-09-13T08:35:06.000Z</time>
      </trkpt>
      <trkpt lat="44.91658" lon="6.68404">
        <ele>1494.8000488281</ele>
        <time>2020-09-13T08:35:14.000Z</time>
      </trkpt>
      <trkpt lat="44.91674" lon="6.68415">
        <ele>1496.4000244141</ele>
        <time>2020-09-13T08:35:18.000Z</time>
      </trkpt>
      <trkpt lat="44.91699" lon="6.68455">
        <ele>1499.8000488281</ele>
        <time>2020-09-13T08:35:28.000Z</time>
      </trkpt>
      <trkpt lat="44.91704" lon="6.68483">
        <ele>1503.1999511719</ele>
        <time>2020-09-13T08:35:34.000Z</time>
      </trkpt>
      <trkpt lat="44.917" lon="6.68515">
        <ele>1506.4000244141</ele>
        <time>2020-09-13T08:35:40.000Z</time>
      </trkpt>
      <trkpt lat="44.91705" lon="6.68543">
        <ele>1508.1999511719</ele>
        <time>2020-09-13T08:35:45.000Z</time>
      </trkpt>
      <trkpt lat="44.9171" lon="6.6859">
        <ele>1511.5999755859</ele>
        <time>2020-09-13T08:35:54.000Z</time>
      </trkpt>
      <trkpt lat="44.9171" lon="6.68606">
        <ele>1512.8000488281</ele>
        <time>2020-09-13T08:35:57.000Z</time>
      </trkpt>
      <trkpt lat="44.9171" lon="6.6864">
        <ele>1507.7</ele>
      </trkpt>
      <trkpt lat="44.91723" lon="6.68645">
        <ele>1520.1999511719</ele>
        <time>2020-09-13T08:36:42.000Z</time>
      </trkpt>
      <trkpt lat="44.91727" lon="6.68649">
        <ele>1520</ele>
        <time>2020-09-13T08:36:51.000Z</time>
      </trkpt>
      <trkpt lat="44.91735" lon="6.68667">
        <ele>1520.5999755859</ele>
        <time>2020-09-13T08:37:09.000Z</time>
      </trkpt>
      <trkpt lat="44.91735" lon="6.68668">
        <ele>1520.8000488281</ele>
        <time>2020-09-13T08:37:10.000Z</time>
      </trkpt>
      <trkpt lat="44.91738" lon="6.68681">
        <ele>1521.4000244141</ele>
        <time>2020-09-13T08:37:19.000Z</time>
      </trkpt>
      <trkpt lat="44.9174" lon="6.68688">
        <ele>1522.4000244141</ele>
        <time>2020-09-13T08:37:25.000Z</time>
      </trkpt>
      <trkpt lat="44.91748" lon="6.68701">
        <ele>1524</ele>
        <time>2020-09-13T08:37:40.000Z</time>
      </trkpt>
      <trkpt lat="44.91773" lon="6.68709">
        <ele>1525.1999511719</ele>
        <time>2020-09-13T08:37:51.000Z</time>
      </trkpt>
      <trkpt lat="44.91795" lon="6.68686">
        <ele>1527.1999511719</ele>
        <time>2020-09-13T08:38:00.000Z</time>
      </trkpt>
      <trkpt lat="44.91841" lon="6.68673">
        <ele>1529.8000488281</ele>
        <time>2020-09-13T08:38:12.000Z</time>
      </trkpt>
      <trkpt lat="44.91858" lon="6.68673">
        <ele>1533</ele>
        <time>2020-09-13T08:38:17.000Z</time>
      </trkpt>
      <trkpt lat="44.91883" lon="6.68682">
        <ele>1536.5999755859</ele>
        <time>2020-09-13T08:38:23.000Z</time>
      </trkpt>
      <trkpt lat="44.91894" lon="6.68689">
        <ele>1539.8000488281</ele>
        <time>2020-09-13T08:38:28.000Z</time>
      </trkpt>
      <trkpt lat="44.91896" lon="6.68692">
        <ele>1540.4000244141</ele>
        <time>2020-09-13T08:38:29.000Z</time>
      </trkpt>
      <trkpt lat="44.919" lon="6.68715">
        <ele>1544.1999511719</ele>
        <time>2020-09-13T08:38:35.000Z</time>
      </trkpt>
      <trkpt lat="44.919" lon="6.68719">
        <ele>1544.5999755859</ele>
        <time>2020-09-13T08:38:36.000Z</time>
      </trkpt>
      <trkpt lat="44.91915" lon="6.68732">
        <ele>1546.5999755859</ele>
        <time>2020-09-13T08:38:41.000Z</time>
      </trkpt>
      <trkpt lat="44.91911" lon="6.68737">
        <ele>1547.8000488281</ele>
        <time>2020-09-13T08:38:47.000Z</time>
      </trkpt>
      <trkpt lat="44.91894" lon="6.68719">
        <ele>1551.4000244141</ele>
        <time>2020-09-13T08:38:56.000Z</time>
      </trkpt>
      <trkpt lat="44.91892" lon="6.68717">
        <ele>1551.8000488281</ele>
        <time>2020-09-13T08:38:57.000Z</time>
      </trkpt>
      <trkpt lat="44.9189" lon="6.68717">
        <ele>1552</ele>
        <time>2020-09-13T08:38:58.000Z</time>
      </trkpt>
      <trkpt lat="44.91892" lon="6.68737">
        <ele>1554.4000244141</ele>
        <time>2020-09-13T08:39:06.000Z</time>
      </trkpt>
      <trkpt lat="44.91917" lon="6.6877">
        <ele>1557.8000488281</ele>
        <time>2020-09-13T08:39:17.000Z</time>
      </trkpt>
      <trkpt lat="44.91919" lon="6.68774">
        <ele>1558.4000244141</ele>
        <time>2020-09-13T08:39:18.000Z</time>
      </trkpt>
      <trkpt lat="44.91942" lon="6.6878">
        <ele>1562.1999511719</ele>
        <time>2020-09-13T08:39:25.000Z</time>
      </trkpt>
      <trkpt lat="44.91962" lon="6.68789">
        <ele>1565.1999511719</ele>
        <time>2020-09-13T08:39:31.000Z</time>
      </trkpt>
      <trkpt lat="44.91978" lon="6.688">
        <ele>1569.1999511719</ele>
        <time>2020-09-13T08:39:37.000Z</time>
      </trkpt>
      <trkpt lat="44.91992" lon="6.68814">
        <ele>1572.5999755859</ele>
        <time>2020-09-13T08:39:43.000Z</time>
      </trkpt>
      <trkpt lat="44.91995" lon="6.68818">
        <ele>1573</ele>
        <time>2020-09-13T08:39:44.000Z</time>
      </trkpt>
      <trkpt lat="44.92004" lon="6.68849">
        <ele>1577</ele>
        <time>2020-09-13T08:39:51.000Z</time>
      </trkpt>
      <trkpt lat="44.92008" lon="6.68897">
        <ele>1580</ele>
        <time>2020-09-13T08:40:01.000Z</time>
      </trkpt>
      <trkpt lat="44.92008" lon="6.68911">
        <ele>1581.1999511719</ele>
        <time>2020-09-13T08:40:04.000Z</time>
      </trkpt>
      <trkpt lat="44.9203" lon="6.68936">
        <ele>1584.1999511719</ele>
        <time>2020-09-13T08:40:13.000Z</time>
      </trkpt>
      <trkpt lat="44.92053" lon="6.68964">
        <ele>1585.5999755859</ele>
        <time>2020-09-13T08:40:20.000Z</time>
      </trkpt>
      <trkpt lat="44.92059" lon="6.68966">
        <ele>1585.5999755859</ele>
        <time>2020-09-13T08:40:21.000Z</time>
      </trkpt>
      <trkpt lat="44.92097" lon="6.68996">
        <ele>1588.1999511719</ele>
        <time>2020-09-13T08:40:31.000Z</time>
      </trkpt>
      <trkpt lat="44.92106" lon="6.69027">
        <ele>1590.1999511719</ele>
        <time>2020-09-13T08:40:36.000Z</time>
      </trkpt>
      <trkpt lat="44.92136" lon="6.69051">
        <ele>1591</ele>
        <time>2020-09-13T08:40:44.000Z</time>
      </trkpt>
      <trkpt lat="44.92144" lon="6.69057">
        <ele>1591.4000244141</ele>
        <time>2020-09-13T08:40:46.000Z</time>
      </trkpt>
      <trkpt lat="44.92155" lon="6.69066">
        <ele>1591.8000488281</ele>
        <time>2020-09-13T08:40:48.000Z</time>
      </trkpt>
      <trkpt lat="44.9219" lon="6.69094">
        <ele>1593</ele>
        <time>2020-09-13T08:40:56.000Z</time>
      </trkpt>
      <trkpt lat="44.92199" lon="6.69113">
        <ele>1594</ele>
        <time>2020-09-13T08:41:00.000Z</time>
      </trkpt>
      <trkpt lat="44.92201" lon="6.69139">
        <ele>1594.8000488281</ele>
        <time>2020-09-13T08:41:04.000Z</time>
      </trkpt>
      <trkpt lat="44.92203" lon="6.69151">
        <ele>1595.4000244141</ele>
        <time>2020-09-13T08:41:06.000Z</time>
      </trkpt>
      <trkpt lat="44.92206" lon="6.69181">
        <ele>1596.8000488281</ele>
        <time>2020-09-13T08:41:12.000Z</time>
      </trkpt>
      <trkpt lat="44.92193" lon="6.69217">
        <ele>1598.5999755859</ele>
        <time>2020-09-13T08:41:19.000Z</time>
      </trkpt>
      <trkpt lat="44.92202" lon="6.69272">
        <ele>1600.1999511719</ele>
        <time>2020-09-13T08:41:29.000Z</time>
      </trkpt>
      <trkpt lat="44.92199" lon="6.69282">
        <ele>1600.5999755859</ele>
        <time>2020-09-13T08:41:31.000Z</time>
      </trkpt>
      <trkpt lat="44.92197" lon="6.69304">
        <ele>1602.5999755859</ele>
        <time>2020-09-13T08:41:36.000Z</time>
      </trkpt>
      <trkpt lat="44.92193" lon="6.69318">
        <ele>1603.1999511719</ele>
        <time>2020-09-13T08:41:38.000Z</time>
      </trkpt>
      <trkpt lat="44.92187" lon="6.6935">
        <ele>1603.8000488281</ele>
        <time>2020-09-13T08:41:43.000Z</time>
      </trkpt>
      <trkpt lat="44.9218" lon="6.69374">
        <ele>1604.1999511719</ele>
        <time>2020-09-13T08:41:46.000Z</time>
      </trkpt>
      <trkpt lat="44.92171" lon="6.69407">
        <ele>1604.5999755859</ele>
        <time>2020-09-13T08:41:51.000Z</time>
      </trkpt>
      <trkpt lat="44.92172" lon="6.69442">
        <ele>1605.1999511719</ele>
        <time>2020-09-13T08:42:00.000Z</time>
      </trkpt>
      <trkpt lat="44.92172" lon="6.69442">
        <ele>1605.5999755859</ele>
        <time>2020-09-13T08:42:01.000Z</time>
      </trkpt>
      <trkpt lat="44.9218" lon="6.69459">
        <ele>1609.4000244141</ele>
        <time>2020-09-13T08:42:18.000Z</time>
      </trkpt>
      <trkpt lat="44.92193" lon="6.69471">
        <ele>1610.1999511719</ele>
        <time>2020-09-13T08:42:32.000Z</time>
      </trkpt>
      <trkpt lat="44.92223" lon="6.69513">
        <ele>1609.4000244141</ele>
        <time>2020-09-13T08:42:43.000Z</time>
      </trkpt>
      <trkpt lat="44.92241" lon="6.69527">
        <ele>1609.4000244141</ele>
        <time>2020-09-13T08:42:49.000Z</time>
      </trkpt>
      <trkpt lat="44.92274" lon="6.69526">
        <ele>1611.5999755859</ele>
        <time>2020-09-13T08:42:58.000Z</time>
      </trkpt>
      <trkpt lat="44.92291" lon="6.69528">
        <ele>1597.5</ele>
      </trkpt>
      <trkpt lat="44.92323" lon="6.69534">
        <ele>1597.1</ele>
      </trkpt>
      <trkpt lat="44.92333" lon="6.69543">
        <ele>1598.5</ele>
      </trkpt>
      <trkpt lat="44.92344" lon="6.69573">
        <ele>1596.1</ele>
      </trkpt>
      <trkpt lat="44.92342" lon="6.6959">
        <ele>1605.6</ele>
      </trkpt>
      <trkpt lat="44.92334" lon="6.69605">
        <ele>1605.8</ele>
      </trkpt>
      <trkpt lat="44.92313" lon="6.69626">
        <ele>1616.1</ele>
      </trkpt>
      <trkpt lat="44.92302" lon="6.69649">
        <ele>1618.3</ele>
      </trkpt>
      <trkpt lat="44.92361" lon="6.6964">
        <ele>1606.8</ele>
      </trkpt>
      <trkpt lat="44.92377" lon="6.69648">
        <ele>1605.2</ele>
      </trkpt>
      <trkpt lat="44.92416" lon="6.69696">
        <ele>1615.8</ele>
      </trkpt>
      <trkpt lat="44.92421" lon="6.69703">
        <ele>1609.1</ele>
      </trkpt>
      <trkpt lat="44.92444" lon="6.69787">
        <ele>1621.7</ele>
      </trkpt>
      <trkpt lat="44.92447" lon="6.69831">
        <ele>1623.9</ele>
      </trkpt>
      <trkpt lat="44.92449" lon="6.69861">
        <ele>1630.6</ele>
      </trkpt>
      <trkpt lat="44.92455" lon="6.69867">
        <ele>1630.8</ele>
      </trkpt>
      <trkpt lat="44.9247" lon="6.69865">
        <ele>1630.4</ele>
      </trkpt>
      <trkpt lat="44.92492" lon="6.69809">
        <ele>1621.3</ele>
      </trkpt>
      <trkpt lat="44.92517" lon="6.69724">
        <ele>1618.4</ele>
      </trkpt>
      <trkpt lat="44.9252" lon="6.6967">
        <ele>1611.8</ele>
      </trkpt>
      <trkpt lat="44.92529" lon="6.69653">
        <ele>1609.2</ele>
      </trkpt>
      <trkpt lat="44.92534" lon="6.69636">
        <ele>1610.3</ele>
      </trkpt>
      <trkpt lat="44.92545" lon="6.69572">
        <ele>1604.5</ele>
      </trkpt>
      <trkpt lat="44.92555" lon="6.69529">
        <ele>1604.7</ele>
      </trkpt>
      <trkpt lat="44.92556" lon="6.69503">
        <ele>1605.4</ele>
      </trkpt>
      <trkpt lat="44.92548" lon="6.69462">
        <ele>1589.2</ele>
      </trkpt>
      <trkpt lat="44.9255" lon="6.69446">
        <ele>1587.9</ele>
      </trkpt>
      <trkpt lat="44.92575" lon="6.6943">
        <ele>1592.3</ele>
      </trkpt>
      <trkpt lat="44.92602" lon="6.69409">
        <ele>1602.4</ele>
      </trkpt>
      <trkpt lat="44.92626" lon="6.69384">
        <ele>1607.7</ele>
      </trkpt>
      <trkpt lat="44.92631" lon="6.69366">
        <ele>1607.1</ele>
      </trkpt>
      <trkpt lat="44.92629" lon="6.69292">
        <ele>1594.2</ele>
      </trkpt>
      <trkpt lat="44.92627" lon="6.6926">
        <ele>1592.4</ele>
      </trkpt>
      <trkpt lat="44.9262" lon="6.69231">
        <ele>1581.5</ele>
      </trkpt>
      <trkpt lat="44.92622" lon="6.69215">
        <ele>1581.1</ele>
      </trkpt>
      <trkpt lat="44.9264" lon="6.69187">
        <ele>1582.7</ele>
      </trkpt>
      <trkpt lat="44.92663" lon="6.6915">
        <ele>1574.1</ele>
      </trkpt>
      <trkpt lat="44.92682" lon="6.69142">
        <ele>1571.3</ele>
      </trkpt>
      <trkpt lat="44.92696" lon="6.69149">
        <ele>1570.8</ele>
      </trkpt>
      <trkpt lat="44.92717" lon="6.69168">
        <ele>1591.6</ele>
      </trkpt>
      <trkpt lat="44.92762" lon="6.69187">
        <ele>1586.8</ele>
      </trkpt>
      <trkpt lat="44.92827" lon="6.6922">
        <ele>1593.7</ele>
      </trkpt>
      <trkpt lat="44.92852" lon="6.69216">
        <ele>1594.1</ele>
      </trkpt>
      <trkpt lat="44.92875" lon="6.69184">
        <ele>1590.7</ele>
      </trkpt>
      <trkpt lat="44.92883" lon="6.69144">
        <ele>1571</ele>
      </trkpt>
      <trkpt lat="44.92887" lon="6.6908">
        <ele>1551.6</ele>
      </trkpt>
      <trkpt lat="44.92894" lon="6.69049">
        <ele>1548.8</ele>
      </trkpt>
      <trkpt lat="44.92915" lon="6.69039">
        <ele>1549.4</ele>
      </trkpt>
      <trkpt lat="44.92921" lon="6.69023">
        <ele>1554.4</ele>
      </trkpt>
      <trkpt lat="44.92913" lon="6.69014">
        <ele>1547.1</ele>
      </trkpt>
      <trkpt lat="44.92894" lon="6.69007">
        <ele>1545.1</ele>
      </trkpt>
      <trkpt lat="44.92872" lon="6.69015">
        <ele>1541.5</ele>
      </trkpt>
      <trkpt lat="44.92864" lon="6.69042">
        <ele>1543</ele>
      </trkpt>
      <trkpt lat="44.92863" lon="6.69092">
        <ele>1559</ele>
      </trkpt>
      <trkpt lat="44.9285" lon="6.69137">
        <ele>1565.1</ele>
      </trkpt>
      <trkpt lat="44.9284" lon="6.6915">
        <ele>1566.1</ele>
      </trkpt>
      <trkpt lat="44.92823" lon="6.69149">
        <ele>1560</ele>
      </trkpt>
      <trkpt lat="44.92796" lon="6.69134">
        <ele>1556.6</ele>
      </trkpt>
      <trkpt lat="44.92749" lon="6.69089">
        <ele>1544.9</ele>
      </trkpt>
      <trkpt lat="44.92708" lon="6.69063">
        <ele>1535.9</ele>
      </trkpt>
      <trkpt lat="44.92684" lon="6.69034">
        <ele>1531.8</ele>
      </trkpt>
      <trkpt lat="44.92645" lon="6.69023">
        <ele>1529.1</ele>
      </trkpt>
      <trkpt lat="44.92624" lon="6.69027">
        <ele>1529.1</ele>
      </trkpt>
      <trkpt lat="44.92606" lon="6.69034">
        <ele>1528.5</ele>
      </trkpt>
      <trkpt lat="44.92562" lon="6.69018">
        <ele>1510.5</ele>
      </trkpt>
      <trkpt lat="44.92549" lon="6.69009">
        <ele>1508.2</ele>
      </trkpt>
      <trkpt lat="44.92534" lon="6.69016">
        <ele>1505.8</ele>
      </trkpt>
      <trkpt lat="44.92526" lon="6.69039">
        <ele>1507.2</ele>
      </trkpt>
      <trkpt lat="44.92514" lon="6.69096">
        <ele>1516.3</ele>
      </trkpt>
      <trkpt lat="44.92507" lon="6.69101">
        <ele>1515.9</ele>
      </trkpt>
      <trkpt lat="44.92502" lon="6.69092">
        <ele>1510.1</ele>
      </trkpt>
      <trkpt lat="44.92522" lon="6.68999">
        <ele>1489.7</ele>
      </trkpt>
      <trkpt lat="44.92532" lon="6.68985">
        <ele>1489.8</ele>
      </trkpt>
      <trkpt lat="44.92544" lon="6.68981">
        <ele>1491</ele>
      </trkpt>
      <trkpt lat="44.92588" lon="6.68991">
        <ele>1506.4</ele>
      </trkpt>
      <trkpt lat="44.92602" lon="6.6899">
        <ele>1504.1</ele>
      </trkpt>
      <trkpt lat="44.92631" lon="6.68966">
        <ele>1499.9</ele>
      </trkpt>
      <trkpt lat="44.92646" lon="6.68956">
        <ele>1498.1</ele>
      </trkpt>
      <trkpt lat="44.92675" lon="6.68959">
        <ele>1499.4</ele>
      </trkpt>
      <trkpt lat="44.92704" lon="6.68954">
        <ele>1497.1</ele>
      </trkpt>
      <trkpt lat="44.9274" lon="6.68977">
        <ele>1501.7</ele>
      </trkpt>
      <trkpt lat="44.92765" lon="6.68996">
        <ele>1507.5</ele>
      </trkpt>
      <trkpt lat="44.92776" lon="6.68996">
        <ele>1506.9</ele>
      </trkpt>
      <trkpt lat="44.92782" lon="6.68985">
        <ele>1506</ele>
      </trkpt>
      <trkpt lat="44.92781" lon="6.6897">
        <ele>1503.8</ele>
      </trkpt>
      <trkpt lat="44.92777" lon="6.68962">
        <ele>1502</ele>
      </trkpt>
      <trkpt lat="44.92734" lon="6.68942">
        <ele>1491.8</ele>
      </trkpt>
      <trkpt lat="44.92709" lon="6.6892">
        <ele>1491.1</ele>
      </trkpt>
      <trkpt lat="44.92698" lon="6.68916">
        <ele>1471.1</ele>
      </trkpt>
      <trkpt lat="44.92672" lon="6.68913">
        <ele>1478.8</ele>
      </trkpt>
      <trkpt lat="44.92642" lon="6.689">
        <ele>1469.2</ele>
      </trkpt>
      <trkpt lat="44.92632" lon="6.68899">
        <ele>1467.7</ele>
      </trkpt>
      <trkpt lat="44.92603" lon="6.68919">
        <ele>1486.9</ele>
      </trkpt>
      <trkpt lat="44.92582" lon="6.68922">
        <ele>1478.3</ele>
      </trkpt>
      <trkpt lat="44.92558" lon="6.68904">
        <ele>1466.7</ele>
      </trkpt>
      <trkpt lat="44.92535" lon="6.68877">
        <ele>1462.2</ele>
      </trkpt>
      <trkpt lat="44.9252" lon="6.68864">
        <ele>1460.3</ele>
      </trkpt>
      <trkpt lat="44.92503" lon="6.6886">
        <ele>1459.5</ele>
      </trkpt>
      <trkpt lat="44.92469" lon="6.68865">
        <ele>1452.6</ele>
      </trkpt>
      <trkpt lat="44.92458" lon="6.68874">
        <ele>1452.2</ele>
      </trkpt>
      <trkpt lat="44.92451" lon="6.68893">
        <ele>1452.7</ele>
      </trkpt>
      <trkpt lat="44.92445" lon="6.68949">
        <ele>1463.2</ele>
      </trkpt>
      <trkpt lat="44.92441" lon="6.69012">
        <ele>1471.3</ele>
      </trkpt>
      <trkpt lat="44.92434" lon="6.69058">
        <ele>1475.3</ele>
      </trkpt>
      <trkpt lat="44.92429" lon="6.69075">
        <ele>1473.4</ele>
      </trkpt>
      <trkpt lat="44.92408" lon="6.69079">
        <ele>1484.5999755859</ele>
        <time>2020-09-13T08:50:40.000Z</time>
      </trkpt>
      <trkpt lat="44.92406" lon="6.69074">
        <ele>1484.5999755859</ele>
        <time>2020-09-13T08:50:41.000Z</time>
      </trkpt>
      <trkpt lat="44.92391" lon="6.69072">
        <ele>1472</ele>
      </trkpt>
      <trkpt lat="44.92379" lon="6.69053">
        <ele>1472.1</ele>
      </trkpt>
      <trkpt lat="44.92368" lon="6.6903">
        <ele>1470</ele>
      </trkpt>
      <trkpt lat="44.92383" lon="6.69046">
        <ele>1470.7</ele>
      </trkpt>
      <trkpt lat="44.92396" lon="6.69053">
        <ele>1470.2</ele>
      </trkpt>
      <trkpt lat="44.92409" lon="6.6905">
        <ele>1479.8000488281</ele>
        <time>2020-09-13T08:51:11.000Z</time>
      </trkpt>
      <trkpt lat="44.92409" lon="6.69049">
        <ele>1478.4000244141</ele>
        <time>2020-09-13T08:51:16.000Z</time>
      </trkpt>
      <trkpt lat="44.92411" lon="6.69028">
        <ele>1477.8000488281</ele>
        <time>2020-09-13T08:51:23.000Z</time>
      </trkpt>
      <trkpt lat="44.92415" lon="6.69003">
        <ele>1474.5999755859</ele>
        <time>2020-09-13T08:51:32.000Z</time>
      </trkpt>
      <trkpt lat="44.92415" lon="6.69003">
        <ele>1471.5999755859</ele>
        <time>2020-09-13T08:51:41.000Z</time>
      </trkpt>
      <trkpt lat="44.92419" lon="6.69001">
        <ele>1471.5999755859</ele>
        <time>2020-09-13T08:51:47.000Z</time>
      </trkpt>
      <trkpt lat="44.9242" lon="6.68994">
        <ele>1471.4000244141</ele>
        <time>2020-09-13T08:51:57.000Z</time>
      </trkpt>
      <trkpt lat="44.92411" lon="6.68991">
        <ele>1468.5999755859</ele>
        <time>2020-09-13T08:52:28.000Z</time>
      </trkpt>
      <trkpt lat="44.92408" lon="6.68984">
        <ele>1464.4000244141</ele>
        <time>2020-09-13T08:58:46.000Z</time>
      </trkpt>
      <trkpt lat="44.92409" lon="6.68978">
        <ele>1468.5999755859</ele>
        <time>2020-09-13T09:00:00.000Z</time>
      </trkpt>
      <trkpt lat="44.92408" lon="6.68975">
        <ele>1468.5999755859</ele>
        <time>2020-09-13T09:00:01.000Z</time>
      </trkpt>
      <trkpt lat="44.924" lon="6.68963">
        <ele>1468.5999755859</ele>
        <time>2020-09-13T09:00:05.000Z</time>
      </trkpt>
      <trkpt lat="44.92384" lon="6.68921">
        <ele>1466.8000488281</ele>
        <time>2020-09-13T09:00:15.000Z</time>
      </trkpt>
      <trkpt lat="44.9238" lon="6.68887">
        <ele>1462.4000244141</ele>
        <time>2020-09-13T09:00:21.000Z</time>
      </trkpt>
      <trkpt lat="44.92376" lon="6.68868">
        <ele>1457.8000488281</ele>
        <time>2020-09-13T09:00:25.000Z</time>
      </trkpt>
      <trkpt lat="44.92375" lon="6.68862">
        <ele>1457.1999511719</ele>
        <time>2020-09-13T09:00:26.000Z</time>
      </trkpt>
      <trkpt lat="44.92374" lon="6.6883">
        <ele>1455.5999755859</ele>
        <time>2020-09-13T09:00:31.000Z</time>
      </trkpt>
      <trkpt lat="44.92375" lon="6.68809">
        <ele>1452.8000488281</ele>
        <time>2020-09-13T09:00:34.000Z</time>
      </trkpt>
      <trkpt lat="44.92379" lon="6.68789">
        <ele>1449.4000244141</ele>
        <time>2020-09-13T09:00:37.000Z</time>
      </trkpt>
      <trkpt lat="44.92381" lon="6.6876">
        <ele>1445.8000488281</ele>
        <time>2020-09-13T09:00:41.000Z</time>
      </trkpt>
      <trkpt lat="44.92383" lon="6.68748">
        <ele>1444</ele>
        <time>2020-09-13T09:00:43.000Z</time>
      </trkpt>
      <trkpt lat="44.92386" lon="6.68728">
        <ele>1440.4000244141</ele>
        <time>2020-09-13T09:00:47.000Z</time>
      </trkpt>
      <trkpt lat="44.92388" lon="6.68715">
        <ele>1437.4000244141</ele>
        <time>2020-09-13T09:00:50.000Z</time>
      </trkpt>
      <trkpt lat="44.92387" lon="6.68701">
        <ele>1435.1999511719</ele>
        <time>2020-09-13T09:00:53.000Z</time>
      </trkpt>
      <trkpt lat="44.92387" lon="6.6869">
        <ele>1433.8000488281</ele>
        <time>2020-09-13T09:00:55.000Z</time>
      </trkpt>
      <trkpt lat="44.92392" lon="6.68668">
        <ele>1430.5999755859</ele>
        <time>2020-09-13T09:01:00.000Z</time>
      </trkpt>
      <trkpt lat="44.92403" lon="6.68647">
        <ele>1395</ele>
      </trkpt>
      <trkpt lat="44.92389" lon="6.68638">
        <ele>1394.2</ele>
      </trkpt>
      <trkpt lat="44.92372" lon="6.68621">
        <ele>1393.3</ele>
      </trkpt>
      <trkpt lat="44.92349" lon="6.68619">
        <ele>1393.5</ele>
      </trkpt>
      <trkpt lat="44.92334" lon="6.68605">
        <ele>1392.4</ele>
      </trkpt>
      <trkpt lat="44.92328" lon="6.68592">
        <ele>1394.1</ele>
      </trkpt>
      <trkpt lat="44.92338" lon="6.68587">
        <ele>1390.7</ele>
      </trkpt>
      <trkpt lat="44.9235" lon="6.68546">
        <ele>1385.8</ele>
      </trkpt>
      <trkpt lat="44.92354" lon="6.68523">
        <ele>1385.1</ele>
      </trkpt>
      <trkpt lat="44.92362" lon="6.68518">
        <ele>1384.7</ele>
      </trkpt>
      <trkpt lat="44.9238" lon="6.68521">
        <ele>1383.8</ele>
      </trkpt>
      <trkpt lat="44.92396" lon="6.68491">
        <ele>1379.4</ele>
      </trkpt>
      <trkpt lat="44.92407" lon="6.68478">
        <ele>1379</ele>
      </trkpt>
      <trkpt lat="44.92403" lon="6.68435">
        <ele>1377.6</ele>
      </trkpt>
      <trkpt lat="44.92407" lon="6.68416">
        <ele>1374.9</ele>
      </trkpt>
      <trkpt lat="44.92436" lon="6.68356">
        <ele>1371.2</ele>
      </trkpt>
      <trkpt lat="44.92448" lon="6.68298">
        <ele>1368.6</ele>
      </trkpt>
      <trkpt lat="44.9245" lon="6.68264">
        <ele>1368.1</ele>
      </trkpt>
      <trkpt lat="44.92453" lon="6.68223">
        <ele>1366.5</ele>
      </trkpt>
      <trkpt lat="44.92449" lon="6.68208">
        <ele>1366.4</ele>
      </trkpt>
      <trkpt lat="44.92437" lon="6.68199">
        <ele>1366.4</ele>
      </trkpt>
      <trkpt lat="44.92442" lon="6.6812">
        <ele>1364.7</ele>
      </trkpt>
      <trkpt lat="44.92454" lon="6.68051">
        <ele>1363.1</ele>
      </trkpt>
      <trkpt lat="44.92455" lon="6.68008">
        <ele>1362.7</ele>
      </trkpt>
      <trkpt lat="44.92451" lon="6.67982">
        <ele>1361.9</ele>
      </trkpt>
      <trkpt lat="44.92471" lon="6.67994">
        <ele>1361.6</ele>
      </trkpt>
      <trkpt lat="44.92498" lon="6.68018">
        <ele>1362.1</ele>
      </trkpt>
      <trkpt lat="44.92534" lon="6.68013">
        <ele>1362.8</ele>
      </trkpt>
      <trkpt lat="44.92569" lon="6.68025">
        <ele>1363.5</ele>
      </trkpt>
      <trkpt lat="44.92592" lon="6.68029">
        <ele>1364.6</ele>
      </trkpt>
      <trkpt lat="44.92621" lon="6.68033">
        <ele>1364.9</ele>
      </trkpt>
      <trkpt lat="44.9265" lon="6.68021">
        <ele>1365.3</ele>
      </trkpt>
      <trkpt lat="44.92689" lon="6.68007">
        <ele>1367.3</ele>
      </trkpt>
      <trkpt lat="44.92727" lon="6.67997">
        <ele>1368.3</ele>
      </trkpt>
      <trkpt lat="44.9275" lon="6.67987">
        <ele>1368.9</ele>
      </trkpt>
      <trkpt lat="44.92779" lon="6.67973">
        <ele>1369.2</ele>
      </trkpt>
      <trkpt lat="44.92823" lon="6.67955">
        <ele>1368.9</ele>
      </trkpt>
      <trkpt lat="44.92852" lon="6.67941">
        <ele>1369.4</ele>
      </trkpt>
      <trkpt lat="44.92873" lon="6.67941">
        <ele>1369.8</ele>
      </trkpt>
      <trkpt lat="44.92908" lon="6.67943">
        <ele>1370.1</ele>
      </trkpt>
      <trkpt lat="44.9297" lon="6.67958">
        <ele>1371.6</ele>
      </trkpt>
      <trkpt lat="44.9305" lon="6.6797">
        <ele>1373.9</ele>
      </trkpt>
      <trkpt lat="44.93092" lon="6.6803">
        <ele>1372.7</ele>
      </trkpt>
      <trkpt lat="44.93109" lon="6.6806">
        <ele>1372.9</ele>
      </trkpt>
      <trkpt lat="44.93126" lon="6.68082">
        <ele>1372.7</ele>
      </trkpt>
      <trkpt lat="44.93141" lon="6.68092">
        <ele>1374</ele>
      </trkpt>
      <trkpt lat="44.93151" lon="6.68119">
        <ele>1374.5</ele>
      </trkpt>
      <trkpt lat="44.93175" lon="6.68134">
        <ele>1374.4</ele>
      </trkpt>
      <trkpt lat="44.93216" lon="6.68198">
        <ele>1375.3</ele>
      </trkpt>
      <trkpt lat="44.93258" lon="6.68251">
        <ele>1375.6</ele>
      </trkpt>
      <trkpt lat="44.93315" lon="6.68278">
        <ele>1374.7</ele>
      </trkpt>
      <trkpt lat="44.93338" lon="6.68288">
        <ele>1374.1</ele>
      </trkpt>
      <trkpt lat="44.93371" lon="6.68317">
        <ele>1374.2</ele>
      </trkpt>
      <trkpt lat="44.93381" lon="6.68331">
        <ele>1374</ele>
      </trkpt>
      <trkpt lat="44.9341" lon="6.68398">
        <ele>1374.5</ele>
      </trkpt>
      <trkpt lat="44.93431" lon="6.68445">
        <ele>1374.3</ele>
      </trkpt>
      <trkpt lat="44.93461" lon="6.68485">
        <ele>1374.1</ele>
      </trkpt>
      <trkpt lat="44.93469" lon="6.68505">
        <ele>1372.7</ele>
      </trkpt>
      <trkpt lat="44.93476" lon="6.68517">
        <ele>1372.7</ele>
      </trkpt>
      <trkpt lat="44.93477" lon="6.68537">
        <ele>1372.3</ele>
      </trkpt>
      <trkpt lat="44.93502" lon="6.6856">
        <ele>1372.3</ele>
      </trkpt>
      <trkpt lat="44.93521" lon="6.68569">
        <ele>1372.5</ele>
      </trkpt>
      <trkpt lat="44.93544" lon="6.68573">
        <ele>1373.4</ele>
      </trkpt>
      <trkpt lat="44.93569" lon="6.68581">
        <ele>1374.3</ele>
      </trkpt>
      <trkpt lat="44.936" lon="6.68586">
        <ele>1377.5</ele>
      </trkpt>
      <trkpt lat="44.93621" lon="6.68591">
        <ele>1408.4000244141</ele>
        <time>2020-09-13T09:07:54.000Z</time>
      </trkpt>
      <trkpt lat="44.93681" lon="6.68564">
        <ele>1408.1999511719</ele>
        <time>2020-09-13T09:08:05.000Z</time>
      </trkpt>
      <trkpt lat="44.93711" lon="6.68545">
        <ele>1408.4000244141</ele>
        <time>2020-09-13T09:08:11.000Z</time>
      </trkpt>
      <trkpt lat="44.93755" lon="6.68528">
        <ele>1409.4000244141</ele>
        <time>2020-09-13T09:08:20.000Z</time>
      </trkpt>
      <trkpt lat="44.93768" lon="6.68523">
        <ele>1410.1999511719</ele>
        <time>2020-09-13T09:08:23.000Z</time>
      </trkpt>
      <trkpt lat="44.93786" lon="6.68521">
        <ele>1411.4000244141</ele>
        <time>2020-09-13T09:08:27.000Z</time>
      </trkpt>
      <trkpt lat="44.93812" lon="6.68515">
        <ele>1414</ele>
        <time>2020-09-13T09:08:33.000Z</time>
      </trkpt>
      <trkpt lat="44.93839" lon="6.68501">
        <ele>1416.4000244141</ele>
        <time>2020-09-13T09:08:40.000Z</time>
      </trkpt>
      <trkpt lat="44.93847" lon="6.68498">
        <ele>1417.1999511719</ele>
        <time>2020-09-13T09:08:42.000Z</time>
      </trkpt>
      <trkpt lat="44.93861" lon="6.68495">
        <ele>1418.1999511719</ele>
        <time>2020-09-13T09:08:45.000Z</time>
      </trkpt>
      <trkpt lat="44.9387" lon="6.68493">
        <ele>1418.5999755859</ele>
        <time>2020-09-13T09:08:47.000Z</time>
      </trkpt>
      <trkpt lat="44.93884" lon="6.68483">
        <ele>1419.1999511719</ele>
        <time>2020-09-13T09:08:51.000Z</time>
      </trkpt>
      <trkpt lat="44.93907" lon="6.68463">
        <ele>1420.5999755859</ele>
        <time>2020-09-13T09:08:57.000Z</time>
      </trkpt>
      <trkpt lat="44.93914" lon="6.68455">
        <ele>1421</ele>
        <time>2020-09-13T09:08:59.000Z</time>
      </trkpt>
      <trkpt lat="44.93956" lon="6.68407">
        <ele>1421.1999511719</ele>
        <time>2020-09-13T09:09:09.000Z</time>
      </trkpt>
      <trkpt lat="44.93979" lon="6.68379">
        <ele>1419.5999755859</ele>
        <time>2020-09-13T09:09:14.000Z</time>
      </trkpt>
      <trkpt lat="44.9399" lon="6.68355">
        <ele>1417.5999755859</ele>
        <time>2020-09-13T09:09:18.000Z</time>
      </trkpt>
      <trkpt lat="44.93995" lon="6.68342">
        <ele>1416.5999755859</ele>
        <time>2020-09-13T09:09:20.000Z</time>
      </trkpt>
      <trkpt lat="44.93998" lon="6.68334">
        <ele>1416.1999511719</ele>
        <time>2020-09-13T09:09:21.000Z</time>
      </trkpt>
      <trkpt lat="44.94017" lon="6.68307">
        <ele>1415</ele>
        <time>2020-09-13T09:09:27.000Z</time>
      </trkpt>
      <trkpt lat="44.94025" lon="6.68294">
        <ele>1413.4000244141</ele>
        <time>2020-09-13T09:09:30.000Z</time>
      </trkpt>
      <trkpt lat="44.94048" lon="6.68271">
        <ele>1412.8000488281</ele>
        <time>2020-09-13T09:09:36.000Z</time>
      </trkpt>
      <trkpt lat="44.94069" lon="6.68249">
        <ele>1412.4000244141</ele>
        <time>2020-09-13T09:09:43.000Z</time>
      </trkpt>
      <trkpt lat="44.9409" lon="6.68246">
        <ele>1412.1999511719</ele>
        <time>2020-09-13T09:09:47.000Z</time>
      </trkpt>
      <trkpt lat="44.94167" lon="6.6822">
        <ele>1412</ele>
        <time>2020-09-13T09:10:01.000Z</time>
      </trkpt>
      <trkpt lat="44.94196" lon="6.68213">
        <ele>1412</ele>
        <time>2020-09-13T09:10:06.000Z</time>
      </trkpt>
      <trkpt lat="44.94225" lon="6.68213">
        <ele>1412</ele>
        <time>2020-09-13T09:10:11.000Z</time>
      </trkpt>
      <trkpt lat="44.9425" lon="6.68227">
        <ele>1412</ele>
        <time>2020-09-13T09:10:16.000Z</time>
      </trkpt>
      <trkpt lat="44.94274" lon="6.68261">
        <ele>1412.5999755859</ele>
        <time>2020-09-13T09:10:22.000Z</time>
      </trkpt>
      <trkpt lat="44.94283" lon="6.68271">
        <ele>1412.5999755859</ele>
        <time>2020-09-13T09:10:24.000Z</time>
      </trkpt>
      <trkpt lat="44.94291" lon="6.68278">
        <ele>1413.1999511719</ele>
        <time>2020-09-13T09:10:26.000Z</time>
      </trkpt>
      <trkpt lat="44.94305" lon="6.68286">
        <ele>1413.5999755859</ele>
        <time>2020-09-13T09:10:29.000Z</time>
      </trkpt>
      <trkpt lat="44.94334" lon="6.68292">
        <ele>1416.1999511719</ele>
        <time>2020-09-13T09:10:35.000Z</time>
      </trkpt>
      <trkpt lat="44.94343" lon="6.68296">
        <ele>1417</ele>
        <time>2020-09-13T09:10:37.000Z</time>
      </trkpt>
      <trkpt lat="44.94359" lon="6.68305">
        <ele>1418.4000244141</ele>
        <time>2020-09-13T09:10:41.000Z</time>
      </trkpt>
      <trkpt lat="44.94407" lon="6.68312">
        <ele>1421.4000244141</ele>
        <time>2020-09-13T09:10:50.000Z</time>
      </trkpt>
      <trkpt lat="44.9442" lon="6.68313">
        <ele>1422.1999511719</ele>
        <time>2020-09-13T09:10:53.000Z</time>
      </trkpt>
      <trkpt lat="44.9444" lon="6.68315">
        <ele>1422.5999755859</ele>
        <time>2020-09-13T09:10:57.000Z</time>
      </trkpt>
      <trkpt lat="44.94448" lon="6.68313">
        <ele>1422.5999755859</ele>
        <time>2020-09-13T09:10:59.000Z</time>
      </trkpt>
      <trkpt lat="44.94473" lon="6.68279">
        <ele>1422.4000244141</ele>
        <time>2020-09-13T09:11:05.000Z</time>
      </trkpt>
      <trkpt lat="44.94481" lon="6.68266">
        <ele>1422</ele>
        <time>2020-09-13T09:11:07.000Z</time>
      </trkpt>
      <trkpt lat="44.94513" lon="6.6825">
        <ele>1419.1999511719</ele>
        <time>2020-09-13T09:11:13.000Z</time>
      </trkpt>
      <trkpt lat="44.94526" lon="6.68253">
        <ele>1418.5999755859</ele>
        <time>2020-09-13T09:11:15.000Z</time>
      </trkpt>
      <trkpt lat="44.9455" lon="6.68256">
        <ele>1417.5999755859</ele>
        <time>2020-09-13T09:11:19.000Z</time>
      </trkpt>
      <trkpt lat="44.94572" lon="6.68245">
        <ele>1416.8000488281</ele>
        <time>2020-09-13T09:11:23.000Z</time>
      </trkpt>
      <trkpt lat="44.94618" lon="6.68215">
        <ele>1416.1999511719</ele>
        <time>2020-09-13T09:11:31.000Z</time>
      </trkpt>
      <trkpt lat="44.94635" lon="6.68204">
        <ele>1416.1999511719</ele>
        <time>2020-09-13T09:11:34.000Z</time>
      </trkpt>
      <trkpt lat="44.94654" lon="6.68198">
        <ele>1416</ele>
        <time>2020-09-13T09:11:37.000Z</time>
      </trkpt>
      <trkpt lat="44.94697" lon="6.68191">
        <ele>1416</ele>
        <time>2020-09-13T09:11:44.000Z</time>
      </trkpt>
      <trkpt lat="44.94731" lon="6.68168">
        <ele>1416.4000244141</ele>
        <time>2020-09-13T09:11:50.000Z</time>
      </trkpt>
      <trkpt lat="44.94757" lon="6.68136">
        <ele>1416.5999755859</ele>
        <time>2020-09-13T09:11:56.000Z</time>
      </trkpt>
      <trkpt lat="44.94768" lon="6.6812">
        <ele>1416.8000488281</ele>
        <time>2020-09-13T09:11:59.000Z</time>
      </trkpt>
      <trkpt lat="44.94782" lon="6.68075">
        <ele>1417.1999511719</ele>
        <time>2020-09-13T09:12:05.000Z</time>
      </trkpt>
      <trkpt lat="44.94786" lon="6.68068">
        <ele>1417.1999511719</ele>
        <time>2020-09-13T09:12:06.000Z</time>
      </trkpt>
      <trkpt lat="44.94801" lon="6.68042">
        <ele>1417.4000244141</ele>
        <time>2020-09-13T09:12:10.000Z</time>
      </trkpt>
      <trkpt lat="44.9481" lon="6.68031">
        <ele>1417.5999755859</ele>
        <time>2020-09-13T09:12:12.000Z</time>
      </trkpt>
      <trkpt lat="44.94839" lon="6.68006">
        <ele>1418</ele>
        <time>2020-09-13T09:12:18.000Z</time>
      </trkpt>
      <trkpt lat="44.94887" lon="6.68003">
        <ele>1420</ele>
        <time>2020-09-13T09:12:27.000Z</time>
      </trkpt>
      <trkpt lat="44.94897" lon="6.67995">
        <ele>1420</ele>
        <time>2020-09-13T09:12:29.000Z</time>
      </trkpt>
      <trkpt lat="44.94911" lon="6.67978">
        <ele>1420.1999511719</ele>
        <time>2020-09-13T09:12:32.000Z</time>
      </trkpt>
      <trkpt lat="44.94939" lon="6.67954">
        <ele>1420.1999511719</ele>
        <time>2020-09-13T09:12:38.000Z</time>
      </trkpt>
      <trkpt lat="44.94944" lon="6.67913">
        <ele>1420.8000488281</ele>
        <time>2020-09-13T09:12:46.000Z</time>
      </trkpt>
      <trkpt lat="44.94954" lon="6.67903">
        <ele>1421.4000244141</ele>
        <time>2020-09-13T09:12:51.000Z</time>
      </trkpt>
      <trkpt lat="44.95015" lon="6.67918">
        <ele>1421.1999511719</ele>
        <time>2020-09-13T09:13:02.000Z</time>
      </trkpt>
      <trkpt lat="44.95035" lon="6.67919">
        <ele>1421.1999511719</ele>
        <time>2020-09-13T09:13:07.000Z</time>
      </trkpt>
      <trkpt lat="44.95038" lon="6.67944">
        <ele>1422.1999511719</ele>
        <time>2020-09-13T09:13:15.000Z</time>
      </trkpt>
      <trkpt lat="44.95044" lon="6.67954">
        <ele>1425</ele>
        <time>2020-09-13T09:13:21.000Z</time>
      </trkpt>
      <trkpt lat="44.95058" lon="6.67951">
        <ele>1397.5</ele>
      </trkpt>
      <trkpt lat="44.95068" lon="6.67939">
        <ele>1397.6</ele>
      </trkpt>
      <trkpt lat="44.95081" lon="6.67918">
        <ele>1397.9</ele>
      </trkpt>
      <trkpt lat="44.951" lon="6.67905">
        <ele>1399.5</ele>
      </trkpt>
      <trkpt lat="44.95114" lon="6.67891">
        <ele>1400.2</ele>
      </trkpt>
      <trkpt lat="44.95126" lon="6.67878">
        <ele>1400.4</ele>
      </trkpt>
      <trkpt lat="44.95145" lon="6.67861">
        <ele>1400.4</ele>
      </trkpt>
      <trkpt lat="44.9517" lon="6.67842">
        <ele>1401</ele>
      </trkpt>
      <trkpt lat="44.9519" lon="6.67831">
        <ele>1398.4</ele>
      </trkpt>
      <trkpt lat="44.95224" lon="6.67828">
        <ele>1399</ele>
      </trkpt>
      <trkpt lat="44.95248" lon="6.67824">
        <ele>1400.1</ele>
      </trkpt>
      <trkpt lat="44.95269" lon="6.67821">
        <ele>1400.4</ele>
      </trkpt>
      <trkpt lat="44.95292" lon="6.67819">
        <ele>1400.4</ele>
      </trkpt>
      <trkpt lat="44.95312" lon="6.67822">
        <ele>1401</ele>
      </trkpt>
      <trkpt lat="44.95335" lon="6.67838">
        <ele>1404.2</ele>
      </trkpt>
      <trkpt lat="44.95351" lon="6.67842">
        <ele>1406.3</ele>
      </trkpt>
      <trkpt lat="44.95359" lon="6.67841">
        <ele>1406.8</ele>
      </trkpt>
      <trkpt lat="44.9537" lon="6.67833">
        <ele>1401.5</ele>
      </trkpt>
      <trkpt lat="44.95392" lon="6.67834">
        <ele>1406.6</ele>
      </trkpt>
      <trkpt lat="44.954" lon="6.67838">
        <ele>1406.1</ele>
      </trkpt>
      <trkpt lat="44.95413" lon="6.67836">
        <ele>1404.1</ele>
      </trkpt>
      <trkpt lat="44.95435" lon="6.67832">
        <ele>1402.6</ele>
      </trkpt>
      <trkpt lat="44.95467" lon="6.67838">
        <ele>1408.7</ele>
      </trkpt>
      <trkpt lat="44.95498" lon="6.67839">
        <ele>1406.3</ele>
      </trkpt>
      <trkpt lat="44.95518" lon="6.67836">
        <ele>1407.6</ele>
      </trkpt>
      <trkpt lat="44.95529" lon="6.67835">
        <ele>1408.1</ele>
      </trkpt>
      <trkpt lat="44.95536" lon="6.67827">
        <ele>1404.4</ele>
      </trkpt>
      <trkpt lat="44.95545" lon="6.67829">
        <ele>1404.3</ele>
      </trkpt>
      <trkpt lat="44.95572" lon="6.67823">
        <ele>1404.2</ele>
      </trkpt>
      <trkpt lat="44.95594" lon="6.67845">
        <ele>1405.2</ele>
      </trkpt>
      <trkpt lat="44.95635" lon="6.6788">
        <ele>1406.5</ele>
      </trkpt>
      <trkpt lat="44.95656" lon="6.67897">
        <ele>1406.6</ele>
      </trkpt>
      <trkpt lat="44.95668" lon="6.67909">
        <ele>1439.5999755859</ele>
        <time>2020-09-13T09:21:08.000Z</time>
      </trkpt>
      <trkpt lat="44.95674" lon="6.67912">
        <ele>1438.1999511719</ele>
        <time>2020-09-13T09:21:10.000Z</time>
      </trkpt>
      <trkpt lat="44.95678" lon="6.67915">
        <ele>1437.8000488281</ele>
        <time>2020-09-13T09:21:11.000Z</time>
      </trkpt>
      <trkpt lat="44.95682" lon="6.67917">
        <ele>1437.1999511719</ele>
        <time>2020-09-13T09:21:12.000Z</time>
      </trkpt>
      <trkpt lat="44.9569" lon="6.67921">
        <ele>1436.5999755859</ele>
        <time>2020-09-13T09:21:14.000Z</time>
      </trkpt>
      <trkpt lat="44.95731" lon="6.67924">
        <ele>1435.8000488281</ele>
        <time>2020-09-13T09:21:22.000Z</time>
      </trkpt>
      <trkpt lat="44.95741" lon="6.67924">
        <ele>1435.8000488281</ele>
        <time>2020-09-13T09:21:24.000Z</time>
      </trkpt>
      <trkpt lat="44.95766" lon="6.67923">
        <ele>1435.4000244141</ele>
        <time>2020-09-13T09:21:29.000Z</time>
      </trkpt>
      <trkpt lat="44.95797" lon="6.67914">
        <ele>1435</ele>
        <time>2020-09-13T09:21:35.000Z</time>
      </trkpt>
      <trkpt lat="44.95828" lon="6.67901">
        <ele>1435</ele>
        <time>2020-09-13T09:21:41.000Z</time>
      </trkpt>
      <trkpt lat="44.95902" lon="6.67866">
        <ele>1435.1999511719</ele>
        <time>2020-09-13T09:21:56.000Z</time>
      </trkpt>
      <trkpt lat="44.95962" lon="6.67825">
        <ele>1435</ele>
        <time>2020-09-13T09:22:09.000Z</time>
      </trkpt>
      <trkpt lat="44.96028" lon="6.67809">
        <ele>1435.8000488281</ele>
        <time>2020-09-13T09:22:22.000Z</time>
      </trkpt>
      <trkpt lat="44.96048" lon="6.67803">
        <ele>1436.1999511719</ele>
        <time>2020-09-13T09:22:27.000Z</time>
      </trkpt>
      <trkpt lat="44.96097" lon="6.67778">
        <ele>1436.8000488281</ele>
        <time>2020-09-13T09:22:39.000Z</time>
      </trkpt>
      <trkpt lat="44.96128" lon="6.67748">
        <ele>1408.9</ele>
      </trkpt>
      <trkpt lat="44.96169" lon="6.67707">
        <ele>1412.3</ele>
      </trkpt>
      <trkpt lat="44.96199" lon="6.67686">
        <ele>1412.3</ele>
      </trkpt>
      <trkpt lat="44.96232" lon="6.67671">
        <ele>1413.2</ele>
      </trkpt>
      <trkpt lat="44.96259" lon="6.67668">
        <ele>1414.1</ele>
      </trkpt>
      <trkpt lat="44.96292" lon="6.67675">
        <ele>1415.5</ele>
      </trkpt>
      <trkpt lat="44.96329" lon="6.67684">
        <ele>1414.7</ele>
      </trkpt>
      <trkpt lat="44.96357" lon="6.67695">
        <ele>1414.6</ele>
      </trkpt>
      <trkpt lat="44.9639" lon="6.67718">
        <ele>1415.1</ele>
      </trkpt>
      <trkpt lat="44.96415" lon="6.67735">
        <ele>1415.5</ele>
      </trkpt>
      <trkpt lat="44.96435" lon="6.67749">
        <ele>1447</ele>
        <time>2020-09-13T09:25:00.000Z</time>
      </trkpt>
      <trkpt lat="44.96457" lon="6.67746">
        <ele>1446.5999755859</ele>
        <time>2020-09-13T09:25:05.000Z</time>
      </trkpt>
      <trkpt lat="44.96522" lon="6.67705">
        <ele>1445.5999755859</ele>
        <time>2020-09-13T09:25:19.000Z</time>
      </trkpt>
      <trkpt lat="44.96586" lon="6.67651">
        <ele>1448.5999755859</ele>
        <time>2020-09-13T09:25:33.000Z</time>
      </trkpt>
      <trkpt lat="44.9659" lon="6.67646">
        <ele>1448.8000488281</ele>
        <time>2020-09-13T09:25:34.000Z</time>
      </trkpt>
      <trkpt lat="44.96649" lon="6.6756">
        <ele>1451.5999755859</ele>
        <time>2020-09-13T09:25:50.000Z</time>
      </trkpt>
      <trkpt lat="44.96693" lon="6.67484">
        <ele>1454.5999755859</ele>
        <time>2020-09-13T09:26:03.000Z</time>
      </trkpt>
      <trkpt lat="44.96744" lon="6.67398">
        <ele>1458</ele>
        <time>2020-09-13T09:26:18.000Z</time>
      </trkpt>
      <trkpt lat="44.96785" lon="6.6734">
        <ele>1461</ele>
        <time>2020-09-13T09:26:29.000Z</time>
      </trkpt>
      <trkpt lat="44.96849" lon="6.67286">
        <ele>1463.4000244141</ele>
        <time>2020-09-13T09:26:43.000Z</time>
      </trkpt>
      <trkpt lat="44.96871" lon="6.67267">
        <ele>1464.4000244141</ele>
        <time>2020-09-13T09:26:48.000Z</time>
      </trkpt>
      <trkpt lat="44.96918" lon="6.67236">
        <ele>1466.4000244141</ele>
        <time>2020-09-13T09:26:58.000Z</time>
      </trkpt>
      <trkpt lat="44.96995" lon="6.67187">
        <ele>1468.5999755859</ele>
        <time>2020-09-13T09:27:14.000Z</time>
      </trkpt>
      <trkpt lat="44.9703" lon="6.67171">
        <ele>1469.5999755859</ele>
        <time>2020-09-13T09:27:21.000Z</time>
      </trkpt>
      <trkpt lat="44.9705" lon="6.67163">
        <ele>1470.1999511719</ele>
        <time>2020-09-13T09:27:25.000Z</time>
      </trkpt>
      <trkpt lat="44.97076" lon="6.67155">
        <ele>1470.5999755859</ele>
        <time>2020-09-13T09:27:30.000Z</time>
      </trkpt>
      <trkpt lat="44.97128" lon="6.6713">
        <ele>1471</ele>
        <time>2020-09-13T09:27:40.000Z</time>
      </trkpt>
      <trkpt lat="44.97201" lon="6.67098">
        <ele>1471.1999511719</ele>
        <time>2020-09-13T09:27:54.000Z</time>
      </trkpt>
      <trkpt lat="44.9722" lon="6.67088">
        <ele>1471.4000244141</ele>
        <time>2020-09-13T09:27:58.000Z</time>
      </trkpt>
      <trkpt lat="44.97302" lon="6.67026">
        <ele>1471</ele>
        <time>2020-09-13T09:28:14.000Z</time>
      </trkpt>
      <trkpt lat="44.97391" lon="6.66976">
        <ele>1471.4000244141</ele>
        <time>2020-09-13T09:28:31.000Z</time>
      </trkpt>
      <trkpt lat="44.97466" lon="6.66945">
        <ele>1472.1999511719</ele>
        <time>2020-09-13T09:28:46.000Z</time>
      </trkpt>
      <trkpt lat="44.9747" lon="6.66942">
        <ele>1472.4000244141</ele>
        <time>2020-09-13T09:28:47.000Z</time>
      </trkpt>
      <trkpt lat="44.97509" lon="6.66923">
        <ele>1475.4000244141</ele>
        <time>2020-09-13T09:32:03.000Z</time>
      </trkpt>
      <trkpt lat="44.97526" lon="6.66914">
        <ele>1475.4000244141</ele>
        <time>2020-09-13T09:32:07.000Z</time>
      </trkpt>
      <trkpt lat="44.976" lon="6.66892">
        <ele>1474.4000244141</ele>
        <time>2020-09-13T09:32:22.000Z</time>
      </trkpt>
      <trkpt lat="44.97605" lon="6.66891">
        <ele>1474.4000244141</ele>
        <time>2020-09-13T09:32:23.000Z</time>
      </trkpt>
      <trkpt lat="44.9769" lon="6.66886">
        <ele>1475.1999511719</ele>
        <time>2020-09-13T09:32:39.000Z</time>
      </trkpt>
      <trkpt lat="44.97701" lon="6.66886">
        <ele>1475.1999511719</ele>
        <time>2020-09-13T09:32:41.000Z</time>
      </trkpt>
      <trkpt lat="44.97777" lon="6.669">
        <ele>1474.5999755859</ele>
        <time>2020-09-13T09:32:55.000Z</time>
      </trkpt>
      <trkpt lat="44.97851" lon="6.66929">
        <ele>1472.5999755859</ele>
        <time>2020-09-13T09:33:07.000Z</time>
      </trkpt>
      <trkpt lat="44.97892" lon="6.66941">
        <ele>1472.4000244141</ele>
        <time>2020-09-13T09:37:45.000Z</time>
      </trkpt>
      <trkpt lat="44.97958" lon="6.66965">
        <ele>1472.8000488281</ele>
        <time>2020-09-13T09:37:59.000Z</time>
      </trkpt>
      <trkpt lat="44.98028" lon="6.66987">
        <ele>1475</ele>
        <time>2020-09-13T09:38:13.000Z</time>
      </trkpt>
      <trkpt lat="44.98058" lon="6.66999">
        <ele>1475.4000244141</ele>
        <time>2020-09-13T09:38:19.000Z</time>
      </trkpt>
      <trkpt lat="44.9811" lon="6.67038">
        <ele>1475</ele>
        <time>2020-09-13T09:38:29.000Z</time>
      </trkpt>
      <trkpt lat="44.98144" lon="6.67047">
        <ele>1474</ele>
        <time>2020-09-13T09:38:34.000Z</time>
      </trkpt>
      <trkpt lat="44.98173" lon="6.67043">
        <ele>1472.5999755859</ele>
        <time>2020-09-13T09:38:38.000Z</time>
      </trkpt>
      <trkpt lat="44.98219" lon="6.67014">
        <ele>1470.8000488281</ele>
        <time>2020-09-13T09:38:45.000Z</time>
      </trkpt>
      <trkpt lat="44.98291" lon="6.66962">
        <ele>1470.1999511719</ele>
        <time>2020-09-13T09:38:58.000Z</time>
      </trkpt>
      <trkpt lat="44.98392" lon="6.66905">
        <ele>1471.8000488281</ele>
        <time>2020-09-13T09:39:16.000Z</time>
      </trkpt>
      <trkpt lat="44.98453" lon="6.66837">
        <ele>1473.8000488281</ele>
        <time>2020-09-13T09:39:29.000Z</time>
      </trkpt>
      <trkpt lat="44.98507" lon="6.66775">
        <ele>1475</ele>
        <time>2020-09-13T09:39:41.000Z</time>
      </trkpt>
      <trkpt lat="44.98529" lon="6.66751">
        <ele>1475.8000488281</ele>
        <time>2020-09-13T09:39:46.000Z</time>
      </trkpt>
      <trkpt lat="44.98559" lon="6.66729">
        <ele>1477</ele>
        <time>2020-09-13T09:39:52.000Z</time>
      </trkpt>
      <trkpt lat="44.98583" lon="6.66721">
        <ele>1478.4000244141</ele>
        <time>2020-09-13T09:39:56.000Z</time>
      </trkpt>
      <trkpt lat="44.98683" lon="6.66711">
        <ele>1478.1999511719</ele>
        <time>2020-09-13T09:40:12.000Z</time>
      </trkpt>
      <trkpt lat="44.98694" lon="6.66708">
        <ele>1478.1999511719</ele>
        <time>2020-09-13T09:40:14.000Z</time>
      </trkpt>
      <trkpt lat="44.9871" lon="6.66698">
        <ele>1478.1999511719</ele>
        <time>2020-09-13T09:40:18.000Z</time>
      </trkpt>
      <trkpt lat="44.98766" lon="6.66681">
        <ele>1479.1999511719</ele>
        <time>2020-09-13T09:40:28.000Z</time>
      </trkpt>
      <trkpt lat="44.98795" lon="6.66653">
        <ele>1479.4000244141</ele>
        <time>2020-09-13T09:40:37.000Z</time>
      </trkpt>
      <trkpt lat="44.98789" lon="6.66646">
        <ele>1480.1999511719</ele>
        <time>2020-09-13T09:40:41.000Z</time>
      </trkpt>
      <trkpt lat="44.98789" lon="6.66639">
        <ele>1480.4000244141</ele>
        <time>2020-09-13T09:40:44.000Z</time>
      </trkpt>
      <trkpt lat="44.98771" lon="6.66631">
        <ele>1481.4000244141</ele>
        <time>2020-09-13T09:40:50.000Z</time>
      </trkpt>
      <trkpt lat="44.98751" lon="6.66627">
        <ele>1481.4000244141</ele>
        <time>2020-09-13T09:40:55.000Z</time>
      </trkpt>
      <trkpt lat="44.9872" lon="6.66595">
        <ele>1481</ele>
        <time>2020-09-13T09:41:02.000Z</time>
      </trkpt>
      <trkpt lat="44.98693" lon="6.66565">
        <ele>1480.1999511719</ele>
        <time>2020-09-13T09:41:08.000Z</time>
      </trkpt>
      <trkpt lat="44.9865" lon="6.66534">
        <ele>1479.8000488281</ele>
        <time>2020-09-13T09:41:18.000Z</time>
      </trkpt>
      <trkpt lat="44.98641" lon="6.66526">
        <ele>1479.8000488281</ele>
        <time>2020-09-13T09:41:20.000Z</time>
      </trkpt>
      <trkpt lat="44.98623" lon="6.66527">
        <ele>1479.8000488281</ele>
        <time>2020-09-13T09:41:24.000Z</time>
      </trkpt>
      <trkpt lat="44.98598" lon="6.66541">
        <ele>1479</ele>
        <time>2020-09-13T09:41:29.000Z</time>
      </trkpt>
      <trkpt lat="44.9857" lon="6.66553">
        <ele>1478.1999511719</ele>
        <time>2020-09-13T09:41:34.000Z</time>
      </trkpt>
      <trkpt lat="44.98554" lon="6.66564">
        <ele>1477.8000488281</ele>
        <time>2020-09-13T09:41:37.000Z</time>
      </trkpt>
      <trkpt lat="44.98526" lon="6.66585">
        <ele>1477.1999511719</ele>
        <time>2020-09-13T09:41:43.000Z</time>
      </trkpt>
      <trkpt lat="44.98503" lon="6.66605">
        <ele>1477</ele>
        <time>2020-09-13T09:41:47.000Z</time>
      </trkpt>
      <trkpt lat="44.98476" lon="6.66635">
        <ele>1476.8000488281</ele>
        <time>2020-09-13T09:41:55.000Z</time>
      </trkpt>
      <trkpt lat="44.98473" lon="6.66642">
        <ele>1476.8000488281</ele>
        <time>2020-09-13T09:42:01.000Z</time>
      </trkpt>
      <trkpt lat="44.98465" lon="6.66643">
        <ele>1476.5999755859</ele>
        <time>2020-09-13T09:42:12.000Z</time>
      </trkpt>
      <trkpt lat="44.98462" lon="6.66643">
        <ele>1476.4000244141</ele>
        <time>2020-09-13T09:42:18.000Z</time>
      </trkpt>
      <trkpt lat="44.98432" lon="6.6667">
        <ele>1483.1999511719</ele>
        <time>2020-09-13T09:43:47.000Z</time>
      </trkpt>
      <trkpt lat="44.98429" lon="6.66674">
        <ele>1483.5999755859</ele>
        <time>2020-09-13T09:43:52.000Z</time>
      </trkpt>
      <trkpt lat="44.98418" lon="6.66687">
        <ele>1484</ele>
        <time>2020-09-13T09:43:59.000Z</time>
      </trkpt>
      <trkpt lat="44.98404" lon="6.66706">
        <ele>1485.4000244141</ele>
        <time>2020-09-13T09:44:14.000Z</time>
      </trkpt>
      <trkpt lat="44.98402" lon="6.66708">
        <ele>1485.4000244141</ele>
        <time>2020-09-13T09:44:15.000Z</time>
      </trkpt>
      <trkpt lat="44.98393" lon="6.66716">
        <ele>1485.4000244141</ele>
        <time>2020-09-13T09:44:20.000Z</time>
      </trkpt>
      <trkpt lat="44.98379" lon="6.66746">
        <ele>1485.4000244141</ele>
        <time>2020-09-13T09:44:29.000Z</time>
      </trkpt>
      <trkpt lat="44.98368" lon="6.66754">
        <ele>1485.8000488281</ele>
        <time>2020-09-13T09:44:34.000Z</time>
      </trkpt>
      <trkpt lat="44.98359" lon="6.66762">
        <ele>1486.1999511719</ele>
        <time>2020-09-13T09:44:38.000Z</time>
      </trkpt>
      <trkpt lat="44.98347" lon="6.6678">
        <ele>1486.4000244141</ele>
        <time>2020-09-13T09:44:50.000Z</time>
      </trkpt>
      <trkpt lat="44.9834" lon="6.66787">
        <ele>1487.4000244141</ele>
        <time>2020-09-13T09:45:01.000Z</time>
      </trkpt>
      <trkpt lat="44.98338" lon="6.66809">
        <ele>1488.4000244141</ele>
        <time>2020-09-13T09:45:14.000Z</time>
      </trkpt>
      <trkpt lat="44.98336" lon="6.66828">
        <ele>1486.1999511719</ele>
        <time>2020-09-13T09:45:21.000Z</time>
      </trkpt>
      <trkpt lat="44.98333" lon="6.66841">
        <ele>1483.8000488281</ele>
        <time>2020-09-13T09:45:25.000Z</time>
      </trkpt>
      <trkpt lat="44.98318" lon="6.66844">
        <ele>1480</ele>
        <time>2020-09-13T09:45:30.000Z</time>
      </trkpt>
      <trkpt lat="44.9831" lon="6.66842">
        <ele>1478.4000244141</ele>
        <time>2020-09-13T09:45:32.000Z</time>
      </trkpt>
      <trkpt lat="44.98295" lon="6.66846">
        <ele>1474.5999755859</ele>
        <time>2020-09-13T09:45:37.000Z</time>
      </trkpt>
      <trkpt lat="44.98286" lon="6.66845">
        <ele>1474</ele>
        <time>2020-09-13T09:45:40.000Z</time>
      </trkpt>
      <trkpt lat="44.98245" lon="6.66853">
        <ele>1473.5999755859</ele>
        <time>2020-09-13T09:45:49.000Z</time>
      </trkpt>
      <trkpt lat="44.98222" lon="6.66851">
        <ele>1472.5999755859</ele>
        <time>2020-09-13T09:45:56.000Z</time>
      </trkpt>
      <trkpt lat="44.98203" lon="6.66844">
        <ele>1472.4000244141</ele>
        <time>2020-09-13T09:46:03.000Z</time>
      </trkpt>
      <trkpt lat="44.98179" lon="6.66835">
        <ele>1472.1999511719</ele>
        <time>2020-09-13T09:46:12.000Z</time>
      </trkpt>
      <trkpt lat="44.98152" lon="6.66816">
        <ele>1471.1999511719</ele>
        <time>2020-09-13T09:46:19.000Z</time>
      </trkpt>
      <trkpt lat="44.98136" lon="6.66797">
        <ele>1471</ele>
        <time>2020-09-13T09:46:23.000Z</time>
      </trkpt>
      <trkpt lat="44.98131" lon="6.66793">
        <ele>1471</ele>
        <time>2020-09-13T09:46:24.000Z</time>
      </trkpt>
      <trkpt lat="44.98112" lon="6.66785">
        <ele>1470.8000488281</ele>
        <time>2020-09-13T09:46:28.000Z</time>
      </trkpt>
      <trkpt lat="44.98092" lon="6.66782">
        <ele>1470.4000244141</ele>
        <time>2020-09-13T09:46:32.000Z</time>
      </trkpt>
      <trkpt lat="44.98076" lon="6.6677">
        <ele>1469.8000488281</ele>
        <time>2020-09-13T09:46:36.000Z</time>
      </trkpt>
      <trkpt lat="44.98046" lon="6.66752">
        <ele>1469</ele>
        <time>2020-09-13T09:46:42.000Z</time>
      </trkpt>
      <trkpt lat="44.98023" lon="6.66744">
        <ele>1468.5999755859</ele>
        <time>2020-09-13T09:46:47.000Z</time>
      </trkpt>
      <trkpt lat="44.98001" lon="6.66742">
        <ele>1468.4000244141</ele>
        <time>2020-09-13T09:46:51.000Z</time>
      </trkpt>
      <trkpt lat="44.97964" lon="6.66745">
        <ele>1467.5999755859</ele>
        <time>2020-09-13T09:46:58.000Z</time>
      </trkpt>
      <trkpt lat="44.97948" lon="6.6674">
        <ele>1467.4000244141</ele>
        <time>2020-09-13T09:47:02.000Z</time>
      </trkpt>
      <trkpt lat="44.97925" lon="6.66739">
        <ele>1467.4000244141</ele>
        <time>2020-09-13T09:47:08.000Z</time>
      </trkpt>
      <trkpt lat="44.97907" lon="6.66738">
        <ele>1467.4000244141</ele>
        <time>2020-09-13T09:47:12.000Z</time>
      </trkpt>
      <trkpt lat="44.97865" lon="6.66737">
        <ele>1466.5999755859</ele>
        <time>2020-09-13T09:47:20.000Z</time>
      </trkpt>
      <trkpt lat="44.97848" lon="6.66722">
        <ele>1466.4000244141</ele>
        <time>2020-09-13T09:47:24.000Z</time>
      </trkpt>
      <trkpt lat="44.97828" lon="6.66713">
        <ele>1466.1999511719</ele>
        <time>2020-09-13T09:47:29.000Z</time>
      </trkpt>
      <trkpt lat="44.9782" lon="6.66716">
        <ele>1466.1999511719</ele>
        <time>2020-09-13T09:47:31.000Z</time>
      </trkpt>
      <trkpt lat="44.97799" lon="6.66716">
        <ele>1466</ele>
        <time>2020-09-13T09:47:35.000Z</time>
      </trkpt>
      <trkpt lat="44.97767" lon="6.66722">
        <ele>1465.5999755859</ele>
        <time>2020-09-13T09:47:41.000Z</time>
      </trkpt>
      <trkpt lat="44.97742" lon="6.66721">
        <ele>1463.5999755859</ele>
        <time>2020-09-13T09:47:46.000Z</time>
      </trkpt>
      <trkpt lat="44.9767" lon="6.66718">
        <ele>1462.8000488281</ele>
        <time>2020-09-13T09:48:00.000Z</time>
      </trkpt>
      <trkpt lat="44.97626" lon="6.66723">
        <ele>1462.8000488281</ele>
        <time>2020-09-13T09:48:08.000Z</time>
      </trkpt>
      <trkpt lat="44.97562" lon="6.66759">
        <ele>1461.8000488281</ele>
        <time>2020-09-13T09:48:20.000Z</time>
      </trkpt>
      <trkpt lat="44.97553" lon="6.66767">
        <ele>1461.5999755859</ele>
        <time>2020-09-13T09:48:22.000Z</time>
      </trkpt>
      <trkpt lat="44.97539" lon="6.66783">
        <ele>1461.5999755859</ele>
        <time>2020-09-13T09:48:25.000Z</time>
      </trkpt>
      <trkpt lat="44.9751" lon="6.66808">
        <ele>1461</ele>
        <time>2020-09-13T09:48:31.000Z</time>
      </trkpt>
      <trkpt lat="44.97467" lon="6.66821">
        <ele>1461</ele>
        <time>2020-09-13T09:48:42.000Z</time>
      </trkpt>
      <trkpt lat="44.97463" lon="6.66822">
        <ele>1461.1999511719</ele>
        <time>2020-09-13T09:48:43.000Z</time>
      </trkpt>
      <trkpt lat="44.97452" lon="6.66825">
        <ele>1462.4000244141</ele>
        <time>2020-09-13T09:48:45.000Z</time>
      </trkpt>
      <trkpt lat="44.97432" lon="6.66824">
        <ele>1462.8000488281</ele>
        <time>2020-09-13T09:48:49.000Z</time>
      </trkpt>
      <trkpt lat="44.97418" lon="6.66819">
        <ele>1462.8000488281</ele>
        <time>2020-09-13T09:48:52.000Z</time>
      </trkpt>
      <trkpt lat="44.97387" lon="6.66819">
        <ele>1461.8000488281</ele>
        <time>2020-09-13T09:49:00.000Z</time>
      </trkpt>
      <trkpt lat="44.97373" lon="6.66817">
        <ele>1461.5999755859</ele>
        <time>2020-09-13T09:49:04.000Z</time>
      </trkpt>
      <trkpt lat="44.97365" lon="6.66818">
        <ele>1461.4000244141</ele>
        <time>2020-09-13T09:49:06.000Z</time>
      </trkpt>
      <trkpt lat="44.97356" lon="6.66822">
        <ele>1461.4000244141</ele>
        <time>2020-09-13T09:49:08.000Z</time>
      </trkpt>
      <trkpt lat="44.97337" lon="6.66839">
        <ele>1461.1999511719</ele>
        <time>2020-09-13T09:49:12.000Z</time>
      </trkpt>
      <trkpt lat="44.97318" lon="6.6685">
        <ele>1461</ele>
        <time>2020-09-13T09:49:16.000Z</time>
      </trkpt>
      <trkpt lat="44.97308" lon="6.66856">
        <ele>1460.8000488281</ele>
        <time>2020-09-13T09:49:18.000Z</time>
      </trkpt>
      <trkpt lat="44.97293" lon="6.66859">
        <ele>1460.4000244141</ele>
        <time>2020-09-13T09:49:21.000Z</time>
      </trkpt>
      <trkpt lat="44.97281" lon="6.66857">
        <ele>1460.1999511719</ele>
        <time>2020-09-13T09:49:23.000Z</time>
      </trkpt>
      <trkpt lat="44.97249" lon="6.66854">
        <ele>1460.1999511719</ele>
        <time>2020-09-13T09:49:29.000Z</time>
      </trkpt>
      <trkpt lat="44.9721" lon="6.66839">
        <ele>1460.5999755859</ele>
        <time>2020-09-13T09:49:37.000Z</time>
      </trkpt>
      <trkpt lat="44.97186" lon="6.66816">
        <ele>1460.8000488281</ele>
        <time>2020-09-13T09:49:42.000Z</time>
      </trkpt>
      <trkpt lat="44.97166" lon="6.66805">
        <ele>1460.8000488281</ele>
        <time>2020-09-13T09:49:46.000Z</time>
      </trkpt>
      <trkpt lat="44.97142" lon="6.66801">
        <ele>1460.8000488281</ele>
        <time>2020-09-13T09:49:50.000Z</time>
      </trkpt>
      <trkpt lat="44.97114" lon="6.66802">
        <ele>1460</ele>
        <time>2020-09-13T09:49:55.000Z</time>
      </trkpt>
      <trkpt lat="44.97092" lon="6.66809">
        <ele>1459</ele>
        <time>2020-09-13T09:49:58.000Z</time>
      </trkpt>
      <trkpt lat="44.9707" lon="6.66809">
        <ele>1458.4000244141</ele>
        <time>2020-09-13T09:50:01.000Z</time>
      </trkpt>
      <trkpt lat="44.97041" lon="6.66825">
        <ele>1454.1999511719</ele>
        <time>2020-09-13T09:50:06.000Z</time>
      </trkpt>
      <trkpt lat="44.97014" lon="6.66833">
        <ele>1452.8000488281</ele>
        <time>2020-09-13T09:50:11.000Z</time>
      </trkpt>
      <trkpt lat="44.96979" lon="6.66843">
        <ele>1452.5999755859</ele>
        <time>2020-09-13T09:50:17.000Z</time>
      </trkpt>
      <trkpt lat="44.96938" lon="6.66864">
        <ele>1452.1999511719</ele>
        <time>2020-09-13T09:50:24.000Z</time>
      </trkpt>
      <trkpt lat="44.96912" lon="6.6687">
        <ele>1451.8000488281</ele>
        <time>2020-09-13T09:50:28.000Z</time>
      </trkpt>
      <trkpt lat="44.9689" lon="6.66885">
        <ele>1451</ele>
        <time>2020-09-13T09:50:32.000Z</time>
      </trkpt>
      <trkpt lat="44.96868" lon="6.66894">
        <ele>1450.5999755859</ele>
        <time>2020-09-13T09:50:36.000Z</time>
      </trkpt>
      <trkpt lat="44.96799" lon="6.66908">
        <ele>1450.4000244141</ele>
        <time>2020-09-13T09:50:47.000Z</time>
      </trkpt>
      <trkpt lat="44.96781" lon="6.66913">
        <ele>1450.4000244141</ele>
        <time>2020-09-13T09:50:50.000Z</time>
      </trkpt>
      <trkpt lat="44.96759" lon="6.66935">
        <ele>1451.1999511719</ele>
        <time>2020-09-13T09:50:55.000Z</time>
      </trkpt>
      <trkpt lat="44.96758" lon="6.66943">
        <ele>1451.1999511719</ele>
        <time>2020-09-13T09:50:56.000Z</time>
      </trkpt>
      <trkpt lat="44.96756" lon="6.6695">
        <ele>1451.1999511719</ele>
        <time>2020-09-13T09:50:57.000Z</time>
      </trkpt>
      <trkpt lat="44.96737" lon="6.66988">
        <ele>1451.4000244141</ele>
        <time>2020-09-13T09:51:03.000Z</time>
      </trkpt>
      <trkpt lat="44.96717" lon="6.67014">
        <ele>1451.4000244141</ele>
        <time>2020-09-13T09:51:08.000Z</time>
      </trkpt>
      <trkpt lat="44.96702" lon="6.67034">
        <ele>1451.5999755859</ele>
        <time>2020-09-13T09:51:14.000Z</time>
      </trkpt>
      <trkpt lat="44.96686" lon="6.6707">
        <ele>1451.5999755859</ele>
        <time>2020-09-13T09:51:20.000Z</time>
      </trkpt>
      <trkpt lat="44.96677" lon="6.67081">
        <ele>1451.4000244141</ele>
        <time>2020-09-13T09:51:22.000Z</time>
      </trkpt>
      <trkpt lat="44.9665" lon="6.67103">
        <ele>1450.8000488281</ele>
        <time>2020-09-13T09:51:27.000Z</time>
      </trkpt>
      <trkpt lat="44.96629" lon="6.67122">
        <ele>1449.1999511719</ele>
        <time>2020-09-13T09:51:31.000Z</time>
      </trkpt>
      <trkpt lat="44.96603" lon="6.67145">
        <ele>1447.8000488281</ele>
        <time>2020-09-13T09:51:36.000Z</time>
      </trkpt>
      <trkpt lat="44.96556" lon="6.67179">
        <ele>1447</ele>
        <time>2020-09-13T09:51:44.000Z</time>
      </trkpt>
      <trkpt lat="44.96517" lon="6.67197">
        <ele>1446</ele>
        <time>2020-09-13T09:51:50.000Z</time>
      </trkpt>
      <trkpt lat="44.96475" lon="6.67224">
        <ele>1444</ele>
        <time>2020-09-13T09:51:57.000Z</time>
      </trkpt>
      <trkpt lat="44.9639" lon="6.67251">
        <ele>1443</ele>
        <time>2020-09-13T09:52:10.000Z</time>
      </trkpt>
      <trkpt lat="44.96369" lon="6.67274">
        <ele>1442.5999755859</ele>
        <time>2020-09-13T09:52:14.000Z</time>
      </trkpt>
      <trkpt lat="44.96318" lon="6.67341">
        <ele>1441.4000244141</ele>
        <time>2020-09-13T09:52:25.000Z</time>
      </trkpt>
      <trkpt lat="44.96279" lon="6.67363">
        <ele>1441</ele>
        <time>2020-09-13T09:52:32.000Z</time>
      </trkpt>
      <trkpt lat="44.96262" lon="6.67365">
        <ele>1440.8000488281</ele>
        <time>2020-09-13T09:52:35.000Z</time>
      </trkpt>
      <trkpt lat="44.96243" lon="6.67369">
        <ele>1440.8000488281</ele>
        <time>2020-09-13T09:52:39.000Z</time>
      </trkpt>
      <trkpt lat="44.96227" lon="6.67378">
        <ele>1440.8000488281</ele>
        <time>2020-09-13T09:52:44.000Z</time>
      </trkpt>
      <trkpt lat="44.9618" lon="6.67427">
        <ele>1440.8000488281</ele>
        <time>2020-09-13T09:52:55.000Z</time>
      </trkpt>
      <trkpt lat="44.96156" lon="6.67432">
        <ele>1441</ele>
        <time>2020-09-13T09:53:00.000Z</time>
      </trkpt>
      <trkpt lat="44.96131" lon="6.67422">
        <ele>1441.8000488281</ele>
        <time>2020-09-13T09:53:06.000Z</time>
      </trkpt>
      <trkpt lat="44.96096" lon="6.67433">
        <ele>1445.4000244141</ele>
        <time>2020-09-13T09:53:15.000Z</time>
      </trkpt>
      <trkpt lat="44.96062" lon="6.67449">
        <ele>1448.5999755859</ele>
        <time>2020-09-13T09:53:24.000Z</time>
      </trkpt>
      <trkpt lat="44.96015" lon="6.67467">
        <ele>1451.5999755859</ele>
        <time>2020-09-13T09:53:37.000Z</time>
      </trkpt>
      <trkpt lat="44.95965" lon="6.67502">
        <ele>1454.4000244141</ele>
        <time>2020-09-13T09:53:51.000Z</time>
      </trkpt>
      <trkpt lat="44.95952" lon="6.67515">
        <ele>1454.5999755859</ele>
        <time>2020-09-13T09:53:54.000Z</time>
      </trkpt>
      <trkpt lat="44.95924" lon="6.67543">
        <ele>1454.4000244141</ele>
        <time>2020-09-13T09:54:01.000Z</time>
      </trkpt>
      <trkpt lat="44.95855" lon="6.67606">
        <ele>1454</ele>
        <time>2020-09-13T09:54:16.000Z</time>
      </trkpt>
      <trkpt lat="44.95844" lon="6.6762">
        <ele>1454</ele>
        <time>2020-09-13T09:54:19.000Z</time>
      </trkpt>
      <trkpt lat="44.9583" lon="6.67643">
        <ele>1453.8000488281</ele>
        <time>2020-09-13T09:54:23.000Z</time>
      </trkpt>
      <trkpt lat="44.95771" lon="6.67699">
        <ele>1451.8000488281</ele>
        <time>2020-09-13T09:54:33.000Z</time>
      </trkpt>
      <trkpt lat="44.95746" lon="6.67712">
        <ele>1448.5999755859</ele>
        <time>2020-09-13T09:54:37.000Z</time>
      </trkpt>
      <trkpt lat="44.95739" lon="6.67715">
        <ele>1448.1999511719</ele>
        <time>2020-09-13T09:54:38.000Z</time>
      </trkpt>
      <trkpt lat="44.95659" lon="6.67748">
        <ele>1445</ele>
        <time>2020-09-13T09:54:49.000Z</time>
      </trkpt>
      <trkpt lat="44.95652" lon="6.67751">
        <ele>1444.4000244141</ele>
        <time>2020-09-13T09:54:50.000Z</time>
      </trkpt>
      <trkpt lat="44.95644" lon="6.67754">
        <ele>1444</ele>
        <time>2020-09-13T09:54:51.000Z</time>
      </trkpt>
      <trkpt lat="44.95636" lon="6.67756">
        <ele>1443.8000488281</ele>
        <time>2020-09-13T09:54:52.000Z</time>
      </trkpt>
      <trkpt lat="44.95628" lon="6.67758">
        <ele>1443.4000244141</ele>
        <time>2020-09-13T09:54:53.000Z</time>
      </trkpt>
      <trkpt lat="44.9562" lon="6.67759">
        <ele>1443.1999511719</ele>
        <time>2020-09-13T09:54:54.000Z</time>
      </trkpt>
      <trkpt lat="44.95611" lon="6.6776">
        <ele>1443</ele>
        <time>2020-09-13T09:54:55.000Z</time>
      </trkpt>
      <trkpt lat="44.95603" lon="6.67761">
        <ele>1443</ele>
        <time>2020-09-13T09:54:56.000Z</time>
      </trkpt>
      <trkpt lat="44.95595" lon="6.67762">
        <ele>1442.5999755859</ele>
        <time>2020-09-13T09:54:57.000Z</time>
      </trkpt>
      <trkpt lat="44.95588" lon="6.67764">
        <ele>1442</ele>
        <time>2020-09-13T09:54:58.000Z</time>
      </trkpt>
      <trkpt lat="44.95581" lon="6.67764">
        <ele>1441.5999755859</ele>
        <time>2020-09-13T09:54:59.000Z</time>
      </trkpt>
      <trkpt lat="44.95575" lon="6.67764">
        <ele>1441.1999511719</ele>
        <time>2020-09-13T09:55:00.000Z</time>
      </trkpt>
      <trkpt lat="44.95544" lon="6.6776">
        <ele>1438.4000244141</ele>
        <time>2020-09-13T09:55:05.000Z</time>
      </trkpt>
      <trkpt lat="44.95519" lon="6.67754">
        <ele>1402.9</ele>
      </trkpt>
      <trkpt lat="44.95532" lon="6.67708">
        <ele>1408.6</ele>
      </trkpt>
      <trkpt lat="44.95548" lon="6.67637">
        <ele>1417</ele>
      </trkpt>
      <trkpt lat="44.95576" lon="6.67559">
        <ele>1424.6</ele>
      </trkpt>
      <trkpt lat="44.95579" lon="6.67539">
        <ele>1426.3</ele>
      </trkpt>
      <trkpt lat="44.95578" lon="6.67499">
        <ele>1432.5</ele>
      </trkpt>
      <trkpt lat="44.9558" lon="6.67477">
        <ele>1434</ele>
      </trkpt>
      <trkpt lat="44.95584" lon="6.67467">
        <ele>1436.2</ele>
      </trkpt>
      <trkpt lat="44.95585" lon="6.67438">
        <ele>1438.9</ele>
      </trkpt>
      <trkpt lat="44.95592" lon="6.67395">
        <ele>1445.5</ele>
      </trkpt>
      <trkpt lat="44.95589" lon="6.67373">
        <ele>1447.7</ele>
      </trkpt>
      <trkpt lat="44.95592" lon="6.6734">
        <ele>1451.2</ele>
      </trkpt>
      <trkpt lat="44.95592" lon="6.67328">
        <ele>1454.8</ele>
      </trkpt>
      <trkpt lat="44.95605" lon="6.67253">
        <ele>1461.3</ele>
      </trkpt>
      <trkpt lat="44.95601" lon="6.67214">
        <ele>1470.2</ele>
      </trkpt>
      <trkpt lat="44.956" lon="6.67187">
        <ele>1472.7</ele>
      </trkpt>
      <trkpt lat="44.95606" lon="6.67145">
        <ele>1481.3</ele>
      </trkpt>
      <trkpt lat="44.95612" lon="6.67131">
        <ele>1482.6</ele>
      </trkpt>
      <trkpt lat="44.95616" lon="6.6711">
        <ele>1484.3</ele>
      </trkpt>
      <trkpt lat="44.95614" lon="6.67089">
        <ele>1485.4</ele>
      </trkpt>
      <trkpt lat="44.95617" lon="6.67048">
        <ele>1496.1</ele>
      </trkpt>
      <trkpt lat="44.95621" lon="6.67025">
        <ele>1498.2</ele>
      </trkpt>
      <trkpt lat="44.9561" lon="6.67019">
        <ele>1499.6</ele>
      </trkpt>
      <trkpt lat="44.956" lon="6.67036">
        <ele>1498</ele>
      </trkpt>
      <trkpt lat="44.95584" lon="6.67051">
        <ele>1495.9</ele>
      </trkpt>
      <trkpt lat="44.95562" lon="6.67068">
        <ele>1493.8</ele>
      </trkpt>
      <trkpt lat="44.95549" lon="6.67069">
        <ele>1494</ele>
      </trkpt>
      <trkpt lat="44.95523" lon="6.67053">
        <ele>1494.7</ele>
      </trkpt>
      <trkpt lat="44.95513" lon="6.67049">
        <ele>1495</ele>
      </trkpt>
      <trkpt lat="44.95479" lon="6.67055">
        <ele>1488.1</ele>
      </trkpt>
      <trkpt lat="44.95451" lon="6.67053">
        <ele>1486.6</ele>
      </trkpt>
      <trkpt lat="44.95442" lon="6.67054">
        <ele>1485.5</ele>
      </trkpt>
      <trkpt lat="44.95433" lon="6.67049">
        <ele>1485.7</ele>
      </trkpt>
      <trkpt lat="44.95392" lon="6.67045">
        <ele>1488</ele>
      </trkpt>
      <trkpt lat="44.95378" lon="6.67063">
        <ele>1486.1</ele>
      </trkpt>
      <trkpt lat="44.95349" lon="6.67097">
        <ele>1471.2</ele>
      </trkpt>
      <trkpt lat="44.95334" lon="6.6712">
        <ele>1466.6</ele>
      </trkpt>
      <trkpt lat="44.9532" lon="6.67129">
        <ele>1470.2</ele>
      </trkpt>
      <trkpt lat="44.95299" lon="6.67157">
        <ele>1466.9</ele>
      </trkpt>
      <trkpt lat="44.95269" lon="6.67188">
        <ele>1450.7</ele>
      </trkpt>
      <trkpt lat="44.95256" lon="6.67203">
        <ele>1448.6</ele>
      </trkpt>
      <trkpt lat="44.95246" lon="6.67224">
        <ele>1452</ele>
      </trkpt>
      <trkpt lat="44.95219" lon="6.67257">
        <ele>1435</ele>
      </trkpt>
      <trkpt lat="44.95197" lon="6.67284">
        <ele>1433.4</ele>
      </trkpt>
      <trkpt lat="44.95182" lon="6.67299">
        <ele>1431</ele>
      </trkpt>
      <trkpt lat="44.95171" lon="6.67299">
        <ele>1430.7</ele>
      </trkpt>
      <trkpt lat="44.95159" lon="6.67309">
        <ele>1431.4</ele>
      </trkpt>
      <trkpt lat="44.95139" lon="6.67337">
        <ele>1418.3</ele>
      </trkpt>
      <trkpt lat="44.9513" lon="6.67342">
        <ele>1418.4</ele>
      </trkpt>
      <trkpt lat="44.9512" lon="6.67341">
        <ele>1418.7</ele>
      </trkpt>
      <trkpt lat="44.9511" lon="6.67333">
        <ele>1431.6</ele>
      </trkpt>
      <trkpt lat="44.95088" lon="6.67336">
        <ele>1422.6</ele>
      </trkpt>
      <trkpt lat="44.95067" lon="6.67347">
        <ele>1427.8</ele>
      </trkpt>
      <trkpt lat="44.95056" lon="6.67353">
        <ele>1429.4</ele>
      </trkpt>
      <trkpt lat="44.95048" lon="6.67365">
        <ele>1429.9</ele>
      </trkpt>
      <trkpt lat="44.95045" lon="6.67378">
        <ele>1429.3</ele>
      </trkpt>
      <trkpt lat="44.95044" lon="6.67402">
        <ele>1427.3</ele>
      </trkpt>
      <trkpt lat="44.95022" lon="6.67438">
        <ele>1419.9</ele>
      </trkpt>
      <trkpt lat="44.95001" lon="6.67467">
        <ele>1417.1</ele>
      </trkpt>
      <trkpt lat="44.94976" lon="6.67505">
        <ele>1420.5</ele>
      </trkpt>
      <trkpt lat="44.94965" lon="6.67523">
        <ele>1422.6</ele>
      </trkpt>
      <trkpt lat="44.94972" lon="6.67535">
        <ele>1421.1</ele>
      </trkpt>
      <trkpt lat="44.94974" lon="6.67547">
        <ele>1420.3</ele>
      </trkpt>
      <trkpt lat="44.9497" lon="6.67557">
        <ele>1420.1</ele>
      </trkpt>
      <trkpt lat="44.94955" lon="6.67554">
        <ele>1422.1</ele>
      </trkpt>
      <trkpt lat="44.94945" lon="6.67553">
        <ele>1423.2</ele>
      </trkpt>
      <trkpt lat="44.94934" lon="6.67564">
        <ele>1423.5</ele>
      </trkpt>
      <trkpt lat="44.94923" lon="6.67581">
        <ele>1452</ele>
        <time>2020-09-13T09:58:28.000Z</time>
      </trkpt>
      <trkpt lat="44.94896" lon="6.67598">
        <ele>1454.4000244141</ele>
        <time>2020-09-13T09:58:38.000Z</time>
      </trkpt>
      <trkpt lat="44.94882" lon="6.67624">
        <ele>1457.5999755859</ele>
        <time>2020-09-13T09:58:49.000Z</time>
      </trkpt>
      <trkpt lat="44.94869" lon="6.67638">
        <ele>1461.1999511719</ele>
        <time>2020-09-13T09:58:55.000Z</time>
      </trkpt>
      <trkpt lat="44.94868" lon="6.67641">
        <ele>1461.1999511719</ele>
        <time>2020-09-13T09:58:56.000Z</time>
      </trkpt>
      <trkpt lat="44.94852" lon="6.67652">
        <ele>1464.4000244141</ele>
        <time>2020-09-13T09:59:05.000Z</time>
      </trkpt>
      <trkpt lat="44.94819" lon="6.67673">
        <ele>1464.4000244141</ele>
        <time>2020-09-13T09:59:16.000Z</time>
      </trkpt>
      <trkpt lat="44.94801" lon="6.67688">
        <ele>1462.1999511719</ele>
        <time>2020-09-13T09:59:21.000Z</time>
      </trkpt>
      <trkpt lat="44.94779" lon="6.67712">
        <ele>1457.8000488281</ele>
        <time>2020-09-13T09:59:26.000Z</time>
      </trkpt>
      <trkpt lat="44.94771" lon="6.67717">
        <ele>1456.5999755859</ele>
        <time>2020-09-13T09:59:28.000Z</time>
      </trkpt>
      <trkpt lat="44.94757" lon="6.67727">
        <ele>1453.1999511719</ele>
        <time>2020-09-13T09:59:31.000Z</time>
      </trkpt>
      <trkpt lat="44.9473" lon="6.67749">
        <ele>1451</ele>
        <time>2020-09-13T09:59:36.000Z</time>
      </trkpt>
      <trkpt lat="44.94701" lon="6.67763">
        <ele>1447</ele>
        <time>2020-09-13T09:59:41.000Z</time>
      </trkpt>
      <trkpt lat="44.94682" lon="6.67776">
        <ele>1446</ele>
        <time>2020-09-13T09:59:44.000Z</time>
      </trkpt>
      <trkpt lat="44.94662" lon="6.67783">
        <ele>1444.5999755859</ele>
        <time>2020-09-13T09:59:48.000Z</time>
      </trkpt>
      <trkpt lat="44.94628" lon="6.67776">
        <ele>1445</ele>
        <time>2020-09-13T09:59:59.000Z</time>
      </trkpt>
      <trkpt lat="44.94589" lon="6.6777">
        <ele>1447.4000244141</ele>
        <time>2020-09-13T10:00:09.000Z</time>
      </trkpt>
      <trkpt lat="44.9457" lon="6.67768">
        <ele>1447.5999755859</ele>
        <time>2020-09-13T10:00:13.000Z</time>
      </trkpt>
      <trkpt lat="44.94528" lon="6.67744">
        <ele>1447.4000244141</ele>
        <time>2020-09-13T10:00:24.000Z</time>
      </trkpt>
      <trkpt lat="44.94502" lon="6.67734">
        <ele>1449.4000244141</ele>
        <time>2020-09-13T10:00:32.000Z</time>
      </trkpt>
      <trkpt lat="44.94493" lon="6.67735">
        <ele>1449.5999755859</ele>
        <time>2020-09-13T10:00:34.000Z</time>
      </trkpt>
      <trkpt lat="44.94479" lon="6.67741">
        <ele>1449.8000488281</ele>
        <time>2020-09-13T10:00:37.000Z</time>
      </trkpt>
      <trkpt lat="44.94446" lon="6.67783">
        <ele>1449.4000244141</ele>
        <time>2020-09-13T10:00:48.000Z</time>
      </trkpt>
      <trkpt lat="44.94443" lon="6.67787">
        <ele>1449.4000244141</ele>
        <time>2020-09-13T10:00:49.000Z</time>
      </trkpt>
      <trkpt lat="44.94413" lon="6.67817">
        <ele>1449.5999755859</ele>
        <time>2020-09-13T10:00:59.000Z</time>
      </trkpt>
      <trkpt lat="44.94409" lon="6.67821">
        <ele>1449.8000488281</ele>
        <time>2020-09-13T10:01:00.000Z</time>
      </trkpt>
      <trkpt lat="44.944" lon="6.67834">
        <ele>1450</ele>
        <time>2020-09-13T10:01:03.000Z</time>
      </trkpt>
      <trkpt lat="44.94389" lon="6.67842">
        <ele>1450</ele>
        <time>2020-09-13T10:01:05.000Z</time>
      </trkpt>
      <trkpt lat="44.94367" lon="6.67859">
        <ele>1448.4000244141</ele>
        <time>2020-09-13T10:01:12.000Z</time>
      </trkpt>
      <trkpt lat="44.94355" lon="6.67863">
        <ele>1446.8000488281</ele>
        <time>2020-09-13T10:01:22.000Z</time>
      </trkpt>
      <trkpt lat="44.94338" lon="6.67865">
        <ele>1447</ele>
        <time>2020-09-13T10:02:01.000Z</time>
      </trkpt>
      <trkpt lat="44.94323" lon="6.67867">
        <ele>1447</ele>
        <time>2020-09-13T10:02:05.000Z</time>
      </trkpt>
      <trkpt lat="44.94307" lon="6.67869">
        <ele>1447.1999511719</ele>
        <time>2020-09-13T10:02:09.000Z</time>
      </trkpt>
      <trkpt lat="44.94295" lon="6.67857">
        <ele>1447.5999755859</ele>
        <time>2020-09-13T10:02:13.000Z</time>
      </trkpt>
      <trkpt lat="44.94287" lon="6.67847">
        <ele>1448</ele>
        <time>2020-09-13T10:02:17.000Z</time>
      </trkpt>
      <trkpt lat="44.94285" lon="6.67846">
        <ele>1448.1999511719</ele>
        <time>2020-09-13T10:02:18.000Z</time>
      </trkpt>
      <trkpt lat="44.94284" lon="6.67846">
        <ele>1448.5999755859</ele>
        <time>2020-09-13T10:02:22.000Z</time>
      </trkpt>
      <trkpt lat="44.94265" lon="6.6785">
        <ele>1449.1999511719</ele>
        <time>2020-09-13T10:02:29.000Z</time>
      </trkpt>
      <trkpt lat="44.94233" lon="6.67869">
        <ele>1448.5999755859</ele>
        <time>2020-09-13T10:02:36.000Z</time>
      </trkpt>
      <trkpt lat="44.94211" lon="6.67873">
        <ele>1447.8000488281</ele>
        <time>2020-09-13T10:02:40.000Z</time>
      </trkpt>
      <trkpt lat="44.94197" lon="6.67873">
        <ele>1446</ele>
        <time>2020-09-13T10:02:43.000Z</time>
      </trkpt>
      <trkpt lat="44.94175" lon="6.6788">
        <ele>1444.5999755859</ele>
        <time>2020-09-13T10:02:48.000Z</time>
      </trkpt>
      <trkpt lat="44.94145" lon="6.6786">
        <ele>1443.8000488281</ele>
        <time>2020-09-13T10:02:57.000Z</time>
      </trkpt>
      <trkpt lat="44.94115" lon="6.67841">
        <ele>1443.5999755859</ele>
        <time>2020-09-13T10:03:06.000Z</time>
      </trkpt>
      <trkpt lat="44.94097" lon="6.67837">
        <ele>1443.5999755859</ele>
        <time>2020-09-13T10:03:11.000Z</time>
      </trkpt>
      <trkpt lat="44.94104" lon="6.67826">
        <ele>1442.8000488281</ele>
        <time>2020-09-13T10:03:19.000Z</time>
      </trkpt>
      <trkpt lat="44.94111" lon="6.67819">
        <ele>1442.8000488281</ele>
        <time>2020-09-13T10:03:22.000Z</time>
      </trkpt>
      <trkpt lat="44.94135" lon="6.67775">
        <ele>1446.1999511719</ele>
        <time>2020-09-13T10:03:35.000Z</time>
      </trkpt>
      <trkpt lat="44.94135" lon="6.67745">
        <ele>1449.4000244141</ele>
        <time>2020-09-13T10:03:43.000Z</time>
      </trkpt>
      <trkpt lat="44.94134" lon="6.67741">
        <ele>1449.8000488281</ele>
        <time>2020-09-13T10:03:44.000Z</time>
      </trkpt>
      <trkpt lat="44.94099" lon="6.67703">
        <ele>1451.4000244141</ele>
        <time>2020-09-13T10:03:56.000Z</time>
      </trkpt>
      <trkpt lat="44.94083" lon="6.67682">
        <ele>1451.8000488281</ele>
        <time>2020-09-13T10:04:07.000Z</time>
      </trkpt>
      <trkpt lat="44.94083" lon="6.67682">
        <ele>1452</ele>
        <time>2020-09-13T10:04:08.000Z</time>
      </trkpt>
      <trkpt lat="44.94078" lon="6.67678">
        <ele>1452.1999511719</ele>
        <time>2020-09-13T10:04:17.000Z</time>
      </trkpt>
      <trkpt lat="44.94077" lon="6.67677">
        <ele>1452.1999511719</ele>
        <time>2020-09-13T10:04:22.000Z</time>
      </trkpt>
      <trkpt lat="44.94074" lon="6.67668">
        <ele>1452</ele>
        <time>2020-09-13T10:04:28.000Z</time>
      </trkpt>
      <trkpt lat="44.94073" lon="6.67664">
        <ele>1452</ele>
        <time>2020-09-13T10:04:29.000Z</time>
      </trkpt>
      <trkpt lat="44.94071" lon="6.67657">
        <ele>1451.8000488281</ele>
        <time>2020-09-13T10:04:31.000Z</time>
      </trkpt>
      <trkpt lat="44.94057" lon="6.67642">
        <ele>1451.8000488281</ele>
        <time>2020-09-13T10:04:38.000Z</time>
      </trkpt>
      <trkpt lat="44.9405" lon="6.67642">
        <ele>1451.5999755859</ele>
        <time>2020-09-13T10:04:41.000Z</time>
      </trkpt>
      <trkpt lat="44.94032" lon="6.67641">
        <ele>1451</ele>
        <time>2020-09-13T10:04:48.000Z</time>
      </trkpt>
      <trkpt lat="44.94022" lon="6.6764">
        <ele>1450.4000244141</ele>
        <time>2020-09-13T10:04:51.000Z</time>
      </trkpt>
      <trkpt lat="44.93996" lon="6.67639">
        <ele>1447.5999755859</ele>
        <time>2020-09-13T10:04:57.000Z</time>
      </trkpt>
      <trkpt lat="44.93973" lon="6.67645">
        <ele>1444.1999511719</ele>
        <time>2020-09-13T10:05:02.000Z</time>
      </trkpt>
      <trkpt lat="44.93954" lon="6.67654">
        <ele>1442.4000244141</ele>
        <time>2020-09-13T10:05:06.000Z</time>
      </trkpt>
      <trkpt lat="44.9394" lon="6.67667">
        <ele>1441</ele>
        <time>2020-09-13T10:05:09.000Z</time>
      </trkpt>
      <trkpt lat="44.93922" lon="6.67684">
        <ele>1437.4000244141</ele>
        <time>2020-09-13T10:05:13.000Z</time>
      </trkpt>
      <trkpt lat="44.93885" lon="6.67694">
        <ele>1433.8000488281</ele>
        <time>2020-09-13T10:05:21.000Z</time>
      </trkpt>
      <trkpt lat="44.9387" lon="6.67689">
        <ele>1432</ele>
        <time>2020-09-13T10:05:24.000Z</time>
      </trkpt>
      <trkpt lat="44.93851" lon="6.67685">
        <ele>1429.8000488281</ele>
        <time>2020-09-13T10:05:28.000Z</time>
      </trkpt>
      <trkpt lat="44.93833" lon="6.67685">
        <ele>1427.1999511719</ele>
        <time>2020-09-13T10:05:32.000Z</time>
      </trkpt>
      <trkpt lat="44.93813" lon="6.67694">
        <ele>1424.1999511719</ele>
        <time>2020-09-13T10:05:36.000Z</time>
      </trkpt>
      <trkpt lat="44.93791" lon="6.67713">
        <ele>1421.4000244141</ele>
        <time>2020-09-13T10:05:40.000Z</time>
      </trkpt>
      <trkpt lat="44.93774" lon="6.67725">
        <ele>1420</ele>
        <time>2020-09-13T10:05:43.000Z</time>
      </trkpt>
      <trkpt lat="44.93758" lon="6.67727">
        <ele>1418.5999755859</ele>
        <time>2020-09-13T10:05:45.000Z</time>
      </trkpt>
      <trkpt lat="44.93738" lon="6.67731">
        <ele>1417</ele>
        <time>2020-09-13T10:05:48.000Z</time>
      </trkpt>
      <trkpt lat="44.93724" lon="6.6774">
        <ele>1415.5999755859</ele>
        <time>2020-09-13T10:05:51.000Z</time>
      </trkpt>
      <trkpt lat="44.93699" lon="6.67745">
        <ele>1415</ele>
        <time>2020-09-13T10:05:59.000Z</time>
      </trkpt>
      <trkpt lat="44.93689" lon="6.6774">
        <ele>1416.4000244141</ele>
        <time>2020-09-13T10:06:03.000Z</time>
      </trkpt>
      <trkpt lat="44.9367" lon="6.67728">
        <ele>1419.5999755859</ele>
        <time>2020-09-13T10:06:11.000Z</time>
      </trkpt>
      <trkpt lat="44.93653" lon="6.67725">
        <ele>1423.1999511719</ele>
        <time>2020-09-13T10:06:17.000Z</time>
      </trkpt>
      <trkpt lat="44.93619" lon="6.67727">
        <ele>1425.4000244141</ele>
        <time>2020-09-13T10:06:27.000Z</time>
      </trkpt>
      <trkpt lat="44.93615" lon="6.67726">
        <ele>1425.4000244141</ele>
        <time>2020-09-13T10:06:28.000Z</time>
      </trkpt>
      <trkpt lat="44.93582" lon="6.67731">
        <ele>1425.1999511719</ele>
        <time>2020-09-13T10:06:38.000Z</time>
      </trkpt>
      <trkpt lat="44.93537" lon="6.67707">
        <ele>1427.8000488281</ele>
        <time>2020-09-13T10:06:52.000Z</time>
      </trkpt>
      <trkpt lat="44.93518" lon="6.677">
        <ele>1428.4000244141</ele>
        <time>2020-09-13T10:06:57.000Z</time>
      </trkpt>
      <trkpt lat="44.9349" lon="6.67719">
        <ele>1428.4000244141</ele>
        <time>2020-09-13T10:07:03.000Z</time>
      </trkpt>
      <trkpt lat="44.93473" lon="6.67726">
        <ele>1428.1999511719</ele>
        <time>2020-09-13T10:07:06.000Z</time>
      </trkpt>
      <trkpt lat="44.93459" lon="6.67735">
        <ele>1426.8000488281</ele>
        <time>2020-09-13T10:07:09.000Z</time>
      </trkpt>
      <trkpt lat="44.93443" lon="6.67748">
        <ele>1425.8000488281</ele>
        <time>2020-09-13T10:07:13.000Z</time>
      </trkpt>
      <trkpt lat="44.93437" lon="6.67759">
        <ele>1425.4000244141</ele>
        <time>2020-09-13T10:07:15.000Z</time>
      </trkpt>
      <trkpt lat="44.93421" lon="6.67782">
        <ele>1425</ele>
        <time>2020-09-13T10:07:18.000Z</time>
      </trkpt>
      <trkpt lat="44.93395" lon="6.67806">
        <ele>1422.1999511719</ele>
        <time>2020-09-13T10:07:25.000Z</time>
      </trkpt>
      <trkpt lat="44.93373" lon="6.67823">
        <ele>1422</ele>
        <time>2020-09-13T10:07:31.000Z</time>
      </trkpt>
      <trkpt lat="44.93331" lon="6.67826">
        <ele>1422.8000488281</ele>
        <time>2020-09-13T10:07:40.000Z</time>
      </trkpt>
      <trkpt lat="44.93307" lon="6.67836">
        <ele>1422.5999755859</ele>
        <time>2020-09-13T10:07:44.000Z</time>
      </trkpt>
      <trkpt lat="44.93275" lon="6.67852">
        <ele>1421.5999755859</ele>
        <time>2020-09-13T10:07:48.000Z</time>
      </trkpt>
      <trkpt lat="44.93246" lon="6.67861">
        <ele>1418.4000244141</ele>
        <time>2020-09-13T10:07:53.000Z</time>
      </trkpt>
      <trkpt lat="44.93227" lon="6.67863">
        <ele>1418.1999511719</ele>
        <time>2020-09-13T10:07:59.000Z</time>
      </trkpt>
      <trkpt lat="44.93208" lon="6.67873">
        <ele>1420.4000244141</ele>
        <time>2020-09-13T10:08:04.000Z</time>
      </trkpt>
      <trkpt lat="44.93176" lon="6.67886">
        <ele>1420.8000488281</ele>
        <time>2020-09-13T10:08:11.000Z</time>
      </trkpt>
      <trkpt lat="44.93161" lon="6.67887">
        <ele>1421.1999511719</ele>
        <time>2020-09-13T10:08:15.000Z</time>
      </trkpt>
      <trkpt lat="44.93136" lon="6.67867">
        <ele>1422.4000244141</ele>
        <time>2020-09-13T10:08:24.000Z</time>
      </trkpt>
      <trkpt lat="44.93116" lon="6.67855">
        <ele>1426.4000244141</ele>
        <time>2020-09-13T10:08:31.000Z</time>
      </trkpt>
      <trkpt lat="44.93109" lon="6.67852">
        <ele>1427.4000244141</ele>
        <time>2020-09-13T10:08:33.000Z</time>
      </trkpt>
      <trkpt lat="44.93098" lon="6.67848">
        <ele>1427.5999755859</ele>
        <time>2020-09-13T10:08:35.000Z</time>
      </trkpt>
      <trkpt lat="44.93079" lon="6.67849">
        <ele>1427.5999755859</ele>
        <time>2020-09-13T10:08:39.000Z</time>
      </trkpt>
      <trkpt lat="44.93066" lon="6.67848">
        <ele>1427.5999755859</ele>
        <time>2020-09-13T10:08:42.000Z</time>
      </trkpt>
      <trkpt lat="44.93032" lon="6.67836">
        <ele>1427.4000244141</ele>
        <time>2020-09-13T10:08:51.000Z</time>
      </trkpt>
      <trkpt lat="44.93021" lon="6.67831">
        <ele>1427.8000488281</ele>
        <time>2020-09-13T10:08:55.000Z</time>
      </trkpt>
      <trkpt lat="44.93013" lon="6.67825">
        <ele>1428.5999755859</ele>
        <time>2020-09-13T10:08:57.000Z</time>
      </trkpt>
      <trkpt lat="44.93003" lon="6.67821">
        <ele>1429.4000244141</ele>
        <time>2020-09-13T10:08:59.000Z</time>
      </trkpt>
      <trkpt lat="44.92968" lon="6.67814">
        <ele>1430.8000488281</ele>
        <time>2020-09-13T10:09:08.000Z</time>
      </trkpt>
      <trkpt lat="44.92922" lon="6.67786">
        <ele>1431</ele>
        <time>2020-09-13T10:09:18.000Z</time>
      </trkpt>
      <trkpt lat="44.92891" lon="6.6775">
        <ele>1430</ele>
        <time>2020-09-13T10:09:24.000Z</time>
      </trkpt>
      <trkpt lat="44.92881" lon="6.67741">
        <ele>1429.1999511719</ele>
        <time>2020-09-13T10:09:26.000Z</time>
      </trkpt>
      <trkpt lat="44.92867" lon="6.67696">
        <ele>1425</ele>
        <time>2020-09-13T10:09:31.000Z</time>
      </trkpt>
      <trkpt lat="44.92864" lon="6.67686">
        <ele>1423.8000488281</ele>
        <time>2020-09-13T10:09:32.000Z</time>
      </trkpt>
      <trkpt lat="44.92851" lon="6.67658">
        <ele>1422.5999755859</ele>
        <time>2020-09-13T10:09:35.000Z</time>
      </trkpt>
      <trkpt lat="44.92822" lon="6.67658">
        <ele>1418.4000244141</ele>
        <time>2020-09-13T10:09:40.000Z</time>
      </trkpt>
      <trkpt lat="44.92813" lon="6.67653">
        <ele>1417.5999755859</ele>
        <time>2020-09-13T10:09:42.000Z</time>
      </trkpt>
      <trkpt lat="44.92801" lon="6.67645">
        <ele>1417</ele>
        <time>2020-09-13T10:09:44.000Z</time>
      </trkpt>
      <trkpt lat="44.9277" lon="6.67647">
        <ele>1416</ele>
        <time>2020-09-13T10:09:50.000Z</time>
      </trkpt>
      <trkpt lat="44.92754" lon="6.67662">
        <ele>1415.5999755859</ele>
        <time>2020-09-13T10:09:54.000Z</time>
      </trkpt>
      <trkpt lat="44.9273" lon="6.67659">
        <ele>1415.5999755859</ele>
        <time>2020-09-13T10:10:01.000Z</time>
      </trkpt>
      <trkpt lat="44.92703" lon="6.67646">
        <ele>1418.8000488281</ele>
        <time>2020-09-13T10:10:11.000Z</time>
      </trkpt>
      <trkpt lat="44.92677" lon="6.67645">
        <ele>1422.1999511719</ele>
        <time>2020-09-13T10:10:19.000Z</time>
      </trkpt>
      <trkpt lat="44.9264" lon="6.67648">
        <ele>1424.8000488281</ele>
        <time>2020-09-13T10:10:32.000Z</time>
      </trkpt>
      <trkpt lat="44.92619" lon="6.67641">
        <ele>1428</ele>
        <time>2020-09-13T10:10:39.000Z</time>
      </trkpt>
      <trkpt lat="44.9259" lon="6.67619">
        <ele>1430.8000488281</ele>
        <time>2020-09-13T10:10:51.000Z</time>
      </trkpt>
      <trkpt lat="44.92584" lon="6.67616">
        <ele>1431.5999755859</ele>
        <time>2020-09-13T10:10:53.000Z</time>
      </trkpt>
      <trkpt lat="44.92546" lon="6.6763">
        <ele>1432.1999511719</ele>
        <time>2020-09-13T10:11:04.000Z</time>
      </trkpt>
      <trkpt lat="44.92539" lon="6.67635">
        <ele>1432.1999511719</ele>
        <time>2020-09-13T10:11:06.000Z</time>
      </trkpt>
      <trkpt lat="44.92516" lon="6.67637">
        <ele>1431.8000488281</ele>
        <time>2020-09-13T10:11:12.000Z</time>
      </trkpt>
      <trkpt lat="44.92492" lon="6.6763">
        <ele>1431.8000488281</ele>
        <time>2020-09-13T10:11:18.000Z</time>
      </trkpt>
      <trkpt lat="44.92462" lon="6.67625">
        <ele>1431.8000488281</ele>
        <time>2020-09-13T10:11:24.000Z</time>
      </trkpt>
      <trkpt lat="44.92417" lon="6.67635">
        <ele>1429.8000488281</ele>
        <time>2020-09-13T10:11:31.000Z</time>
      </trkpt>
      <trkpt lat="44.92399" lon="6.67632">
        <ele>1427.8000488281</ele>
        <time>2020-09-13T10:11:35.000Z</time>
      </trkpt>
      <trkpt lat="44.92391" lon="6.67628">
        <ele>1427.4000244141</ele>
        <time>2020-09-13T10:11:37.000Z</time>
      </trkpt>
      <trkpt lat="44.92374" lon="6.67617">
        <ele>1426.8000488281</ele>
        <time>2020-09-13T10:11:41.000Z</time>
      </trkpt>
      <trkpt lat="44.92348" lon="6.67611">
        <ele>1426.4000244141</ele>
        <time>2020-09-13T10:11:46.000Z</time>
      </trkpt>
      <trkpt lat="44.92325" lon="6.67601">
        <ele>1426</ele>
        <time>2020-09-13T10:11:52.000Z</time>
      </trkpt>
      <trkpt lat="44.92253" lon="6.67588">
        <ele>1423.4000244141</ele>
        <time>2020-09-13T10:12:04.000Z</time>
      </trkpt>
      <trkpt lat="44.92232" lon="6.67586">
        <ele>1422.4000244141</ele>
        <time>2020-09-13T10:12:07.000Z</time>
      </trkpt>
      <trkpt lat="44.92201" lon="6.67559">
        <ele>1419.4000244141</ele>
        <time>2020-09-13T10:12:13.000Z</time>
      </trkpt>
      <trkpt lat="44.92183" lon="6.67521">
        <ele>1418.8000488281</ele>
        <time>2020-09-13T10:12:18.000Z</time>
      </trkpt>
      <trkpt lat="44.92163" lon="6.67498">
        <ele>1418.5999755859</ele>
        <time>2020-09-13T10:12:22.000Z</time>
      </trkpt>
      <trkpt lat="44.92139" lon="6.6748">
        <ele>1418.1999511719</ele>
        <time>2020-09-13T10:12:26.000Z</time>
      </trkpt>
      <trkpt lat="44.92129" lon="6.6746">
        <ele>1416.5999755859</ele>
        <time>2020-09-13T10:12:29.000Z</time>
      </trkpt>
      <trkpt lat="44.92128" lon="6.67438">
        <ele>1415.4000244141</ele>
        <time>2020-09-13T10:12:32.000Z</time>
      </trkpt>
      <trkpt lat="44.92106" lon="6.67414">
        <ele>1413.8000488281</ele>
        <time>2020-09-13T10:12:37.000Z</time>
      </trkpt>
      <trkpt lat="44.92096" lon="6.67401">
        <ele>1413.4000244141</ele>
        <time>2020-09-13T10:12:39.000Z</time>
      </trkpt>
      <trkpt lat="44.92071" lon="6.67364">
        <ele>1410.4000244141</ele>
        <time>2020-09-13T10:12:46.000Z</time>
      </trkpt>
      <trkpt lat="44.92044" lon="6.67362">
        <ele>1407.5999755859</ele>
        <time>2020-09-13T10:12:51.000Z</time>
      </trkpt>
      <trkpt lat="44.92017" lon="6.6737">
        <ele>1405.8000488281</ele>
        <time>2020-09-13T10:12:55.000Z</time>
      </trkpt>
      <trkpt lat="44.91966" lon="6.67389">
        <ele>1402.1999511719</ele>
        <time>2020-09-13T10:13:01.000Z</time>
      </trkpt>
      <trkpt lat="44.91921" lon="6.67402">
        <ele>1398.5999755859</ele>
        <time>2020-09-13T10:13:06.000Z</time>
      </trkpt>
      <trkpt lat="44.91902" lon="6.67405">
        <ele>1395.4000244141</ele>
        <time>2020-09-13T10:13:10.000Z</time>
      </trkpt>
      <trkpt lat="44.91895" lon="6.67404">
        <ele>1394.5999755859</ele>
        <time>2020-09-13T10:13:12.000Z</time>
      </trkpt>
      <trkpt lat="44.91892" lon="6.67403">
        <ele>1394.5999755859</ele>
        <time>2020-09-13T10:13:13.000Z</time>
      </trkpt>
      <trkpt lat="44.91864" lon="6.67383">
        <ele>1394.1999511719</ele>
        <time>2020-09-13T10:13:19.000Z</time>
      </trkpt>
      <trkpt lat="44.91785" lon="6.6736">
        <ele>1394.4000244141</ele>
        <time>2020-09-13T10:13:33.000Z</time>
      </trkpt>
      <trkpt lat="44.91769" lon="6.67357">
        <ele>1394.4000244141</ele>
        <time>2020-09-13T10:13:36.000Z</time>
      </trkpt>
      <trkpt lat="44.91715" lon="6.67346">
        <ele>1396.5999755859</ele>
        <time>2020-09-13T10:13:47.000Z</time>
      </trkpt>
      <trkpt lat="44.9171" lon="6.67344">
        <ele>1396.5999755859</ele>
        <time>2020-09-13T10:13:48.000Z</time>
      </trkpt>
      <trkpt lat="44.91697" lon="6.6734">
        <ele>1397.4000244141</ele>
        <time>2020-09-13T10:13:51.000Z</time>
      </trkpt>
      <trkpt lat="44.91675" lon="6.67336">
        <ele>1399</ele>
        <time>2020-09-13T10:13:56.000Z</time>
      </trkpt>
      <trkpt lat="44.91671" lon="6.67335">
        <ele>1399</ele>
        <time>2020-09-13T10:13:57.000Z</time>
      </trkpt>
      <trkpt lat="44.91666" lon="6.67334">
        <ele>1399.4000244141</ele>
        <time>2020-09-13T10:13:58.000Z</time>
      </trkpt>
      <trkpt lat="44.91631" lon="6.67338">
        <ele>1400.4000244141</ele>
        <time>2020-09-13T10:14:08.000Z</time>
      </trkpt>
      <trkpt lat="44.9163" lon="6.67339">
        <ele>1400.4000244141</ele>
        <time>2020-09-13T10:14:09.000Z</time>
      </trkpt>
      <trkpt lat="44.91637" lon="6.67361">
        <ele>1400.4000244141</ele>
        <time>2020-09-13T10:14:15.000Z</time>
      </trkpt>
      <trkpt lat="44.91658" lon="6.6738">
        <ele>1400.1999511719</ele>
        <time>2020-09-13T10:14:19.000Z</time>
      </trkpt>
      <trkpt lat="44.91679" lon="6.67407">
        <ele>1398.5999755859</ele>
        <time>2020-09-13T10:14:23.000Z</time>
      </trkpt>
      <trkpt lat="44.91697" lon="6.67437">
        <ele>1396.5999755859</ele>
        <time>2020-09-13T10:14:27.000Z</time>
      </trkpt>
      <trkpt lat="44.917" lon="6.67445">
        <ele>1396</ele>
        <time>2020-09-13T10:14:28.000Z</time>
      </trkpt>
      <trkpt lat="44.91715" lon="6.67488">
        <ele>1393.1999511719</ele>
        <time>2020-09-13T10:14:34.000Z</time>
      </trkpt>
      <trkpt lat="44.91719" lon="6.675">
        <ele>1393.1999511719</ele>
        <time>2020-09-13T10:14:36.000Z</time>
      </trkpt>
      <trkpt lat="44.91728" lon="6.67533">
        <ele>1393.4000244141</ele>
        <time>2020-09-13T10:14:42.000Z</time>
      </trkpt>
      <trkpt lat="44.91731" lon="6.676">
        <ele>1396.4000244141</ele>
        <time>2020-09-13T10:14:54.000Z</time>
      </trkpt>
      <trkpt lat="44.91727" lon="6.67626">
        <ele>1399.4000244141</ele>
        <time>2020-09-13T10:15:00.000Z</time>
      </trkpt>
      <trkpt lat="44.91718" lon="6.67644">
        <ele>1402.5999755859</ele>
        <time>2020-09-13T10:15:06.000Z</time>
      </trkpt>
      <trkpt lat="44.91717" lon="6.67646">
        <ele>1402.8000488281</ele>
        <time>2020-09-13T10:15:07.000Z</time>
      </trkpt>
      <trkpt lat="44.9171" lon="6.67666">
        <ele>1406</ele>
        <time>2020-09-13T10:15:13.000Z</time>
      </trkpt>
      <trkpt lat="44.91702" lon="6.67721">
        <ele>1409</ele>
        <time>2020-09-13T10:15:26.000Z</time>
      </trkpt>
      <trkpt lat="44.91693" lon="6.67761">
        <ele>1412</ele>
        <time>2020-09-13T10:15:37.000Z</time>
      </trkpt>
      <trkpt lat="44.91685" lon="6.67796">
        <ele>1415.1999511719</ele>
        <time>2020-09-13T10:15:47.000Z</time>
      </trkpt>
      <trkpt lat="44.91672" lon="6.67834">
        <ele>1418.4000244141</ele>
        <time>2020-09-13T10:15:59.000Z</time>
      </trkpt>
      <trkpt lat="44.91662" lon="6.67856">
        <ele>1421.4000244141</ele>
        <time>2020-09-13T10:16:07.000Z</time>
      </trkpt>
      <trkpt lat="44.91642" lon="6.67889">
        <ele>1424.5999755859</ele>
        <time>2020-09-13T10:16:20.000Z</time>
      </trkpt>
      <trkpt lat="44.91624" lon="6.67908">
        <ele>1426.8000488281</ele>
        <time>2020-09-13T10:16:30.000Z</time>
      </trkpt>
      <trkpt lat="44.91608" lon="6.67924">
        <ele>1429.8000488281</ele>
        <time>2020-09-13T10:16:39.000Z</time>
      </trkpt>
      <trkpt lat="44.91589" lon="6.67941">
        <ele>1432.5999755859</ele>
        <time>2020-09-13T10:16:50.000Z</time>
      </trkpt>
      <trkpt lat="44.91581" lon="6.67945">
        <ele>1433.5999755859</ele>
        <time>2020-09-13T10:16:54.000Z</time>
      </trkpt>
      <trkpt lat="44.91558" lon="6.67957">
        <ele>1436.4000244141</ele>
        <time>2020-09-13T10:17:04.000Z</time>
      </trkpt>
      <trkpt lat="44.91538" lon="6.67957">
        <ele>1439.8000488281</ele>
        <time>2020-09-13T10:17:13.000Z</time>
      </trkpt>
      <trkpt lat="44.91516" lon="6.67947">
        <ele>1442.4000244141</ele>
        <time>2020-09-13T10:17:22.000Z</time>
      </trkpt>
      <trkpt lat="44.91505" lon="6.67914">
        <ele>1444.1999511719</ele>
        <time>2020-09-13T10:17:32.000Z</time>
      </trkpt>
      <trkpt lat="44.91491" lon="6.67867">
        <ele>1446.1999511719</ele>
        <time>2020-09-13T10:17:43.000Z</time>
      </trkpt>
      <trkpt lat="44.91471" lon="6.67838">
        <ele>1447.1999511719</ele>
        <time>2020-09-13T10:17:51.000Z</time>
      </trkpt>
      <trkpt lat="44.91458" lon="6.67815">
        <ele>1448.1999511719</ele>
        <time>2020-09-13T10:17:59.000Z</time>
      </trkpt>
      <trkpt lat="44.91443" lon="6.67778">
        <ele>1451.4000244141</ele>
        <time>2020-09-13T10:18:10.000Z</time>
      </trkpt>
      <trkpt lat="44.91427" lon="6.67747">
        <ele>1453</ele>
        <time>2020-09-13T10:18:20.000Z</time>
      </trkpt>
      <trkpt lat="44.91403" lon="6.67726">
        <ele>1456</ele>
        <time>2020-09-13T10:18:30.000Z</time>
      </trkpt>
      <trkpt lat="44.91373" lon="6.67714">
        <ele>1457.5999755859</ele>
        <time>2020-09-13T10:18:40.000Z</time>
      </trkpt>
      <trkpt lat="44.91351" lon="6.67707">
        <ele>1458.1999511719</ele>
        <time>2020-09-13T10:18:47.000Z</time>
      </trkpt>
      <trkpt lat="44.91339" lon="6.67709">
        <ele>1458.8000488281</ele>
        <time>2020-09-13T10:18:51.000Z</time>
      </trkpt>
      <trkpt lat="44.91319" lon="6.67715">
        <ele>1459.5999755859</ele>
        <time>2020-09-13T10:18:57.000Z</time>
      </trkpt>
      <trkpt lat="44.91282" lon="6.67718">
        <ele>1459.8000488281</ele>
        <time>2020-09-13T10:19:06.000Z</time>
      </trkpt>
      <trkpt lat="44.91231" lon="6.67724">
        <ele>1459.8000488281</ele>
        <time>2020-09-13T10:19:19.000Z</time>
      </trkpt>
      <trkpt lat="44.91224" lon="6.67728">
        <ele>1460.1999511719</ele>
        <time>2020-09-13T10:19:21.000Z</time>
      </trkpt>
      <trkpt lat="44.91196" lon="6.67723">
        <ele>1462.5999755859</ele>
        <time>2020-09-13T10:19:29.000Z</time>
      </trkpt>
      <trkpt lat="44.91154" lon="6.67679">
        <ele>1465.8000488281</ele>
        <time>2020-09-13T10:19:44.000Z</time>
      </trkpt>
      <trkpt lat="44.91129" lon="6.67641">
        <ele>1467.1999511719</ele>
        <time>2020-09-13T10:19:55.000Z</time>
      </trkpt>
      <trkpt lat="44.91104" lon="6.67595">
        <ele>1470</ele>
        <time>2020-09-13T10:20:07.000Z</time>
      </trkpt>
      <trkpt lat="44.91081" lon="6.67549">
        <ele>1473.1999511719</ele>
        <time>2020-09-13T10:20:19.000Z</time>
      </trkpt>
      <trkpt lat="44.91045" lon="6.67511">
        <ele>1475.8000488281</ele>
        <time>2020-09-13T10:20:34.000Z</time>
      </trkpt>
      <trkpt lat="44.91035" lon="6.67499">
        <ele>1477</ele>
        <time>2020-09-13T10:20:38.000Z</time>
      </trkpt>
      <trkpt lat="44.91017" lon="6.67474">
        <ele>1477.4000244141</ele>
        <time>2020-09-13T10:20:44.000Z</time>
      </trkpt>
      <trkpt lat="44.91009" lon="6.67467">
        <ele>1477.4000244141</ele>
        <time>2020-09-13T10:20:46.000Z</time>
      </trkpt>
      <trkpt lat="44.90998" lon="6.67446">
        <ele>1477</ele>
        <time>2020-09-13T10:20:50.000Z</time>
      </trkpt>
      <trkpt lat="44.90988" lon="6.67426">
        <ele>1476.5999755859</ele>
        <time>2020-09-13T10:20:53.000Z</time>
      </trkpt>
      <trkpt lat="44.90968" lon="6.67376">
        <ele>1473.4000244141</ele>
        <time>2020-09-13T10:21:01.000Z</time>
      </trkpt>
      <trkpt lat="44.90938" lon="6.67341">
        <ele>1473.8000488281</ele>
        <time>2020-09-13T10:21:13.000Z</time>
      </trkpt>
      <trkpt lat="44.9092" lon="6.67328">
        <ele>1477.1999511719</ele>
        <time>2020-09-13T10:21:20.000Z</time>
      </trkpt>
      <trkpt lat="44.90904" lon="6.67313">
        <ele>1479</ele>
        <time>2020-09-13T10:21:26.000Z</time>
      </trkpt>
      <trkpt lat="44.90892" lon="6.67298">
        <ele>1479</ele>
        <time>2020-09-13T10:21:30.000Z</time>
      </trkpt>
      <trkpt lat="44.90869" lon="6.67265">
        <ele>1478.8000488281</ele>
        <time>2020-09-13T10:21:43.000Z</time>
      </trkpt>
      <trkpt lat="44.90869" lon="6.67265">
        <ele>1478.8000488281</ele>
        <time>2020-09-13T10:21:45.000Z</time>
      </trkpt>
      <trkpt lat="44.90863" lon="6.67265">
        <ele>1479.8000488281</ele>
        <time>2020-09-13T10:25:46.000Z</time>
      </trkpt>
      <trkpt lat="44.90859" lon="6.67262">
        <ele>1479.8000488281</ele>
        <time>2020-09-13T10:25:48.000Z</time>
      </trkpt>
      <trkpt lat="44.90829" lon="6.67219">
        <ele>1479</ele>
        <time>2020-09-13T10:26:01.000Z</time>
      </trkpt>
      <trkpt lat="44.90821" lon="6.67182">
        <ele>1479</ele>
        <time>2020-09-13T10:26:08.000Z</time>
      </trkpt>
      <trkpt lat="44.9082" lon="6.67157">
        <ele>1479</ele>
        <time>2020-09-13T10:26:12.000Z</time>
      </trkpt>
      <trkpt lat="44.90821" lon="6.67137">
        <ele>1478.8000488281</ele>
        <time>2020-09-13T10:26:15.000Z</time>
      </trkpt>
      <trkpt lat="44.90818" lon="6.67114">
        <ele>1478.8000488281</ele>
        <time>2020-09-13T10:26:19.000Z</time>
      </trkpt>
      <trkpt lat="44.90809" lon="6.67083">
        <ele>1478.8000488281</ele>
        <time>2020-09-13T10:26:24.000Z</time>
      </trkpt>
      <trkpt lat="44.90803" lon="6.67072">
        <ele>1478.5999755859</ele>
        <time>2020-09-13T10:26:26.000Z</time>
      </trkpt>
      <trkpt lat="44.90787" lon="6.67057">
        <ele>1478.4000244141</ele>
        <time>2020-09-13T10:26:30.000Z</time>
      </trkpt>
      <trkpt lat="44.90774" lon="6.6703">
        <ele>1478</ele>
        <time>2020-09-13T10:26:35.000Z</time>
      </trkpt>
      <trkpt lat="44.90734" lon="6.66993">
        <ele>1476.1999511719</ele>
        <time>2020-09-13T10:26:45.000Z</time>
      </trkpt>
      <trkpt lat="44.90723" lon="6.66979">
        <ele>1475</ele>
        <time>2020-09-13T10:26:48.000Z</time>
      </trkpt>
      <trkpt lat="44.90708" lon="6.66968">
        <ele>1474.1999511719</ele>
        <time>2020-09-13T10:26:52.000Z</time>
      </trkpt>
      <trkpt lat="44.90686" lon="6.66952">
        <ele>1474.1999511719</ele>
        <time>2020-09-13T10:26:58.000Z</time>
      </trkpt>
      <trkpt lat="44.90659" lon="6.66921">
        <ele>1475.1999511719</ele>
        <time>2020-09-13T10:27:09.000Z</time>
      </trkpt>
      <trkpt lat="44.90657" lon="6.66917">
        <ele>1475.1999511719</ele>
        <time>2020-09-13T10:27:10.000Z</time>
      </trkpt>
      <trkpt lat="44.90658" lon="6.66898">
        <ele>1476</ele>
        <time>2020-09-13T10:27:16.000Z</time>
      </trkpt>
      <trkpt lat="44.90669" lon="6.66872">
        <ele>1475.4000244141</ele>
        <time>2020-09-13T10:27:25.000Z</time>
      </trkpt>
      <trkpt lat="44.90669" lon="6.66868">
        <ele>1475.1999511719</ele>
        <time>2020-09-13T10:27:26.000Z</time>
      </trkpt>
      <trkpt lat="44.90665" lon="6.66856">
        <ele>1472.8000488281</ele>
        <time>2020-09-13T10:27:30.000Z</time>
      </trkpt>
      <trkpt lat="44.90653" lon="6.66836">
        <ele>1469.4000244141</ele>
        <time>2020-09-13T10:27:37.000Z</time>
      </trkpt>
      <trkpt lat="44.9065" lon="6.66829">
        <ele>1468.5999755859</ele>
        <time>2020-09-13T10:27:39.000Z</time>
      </trkpt>
      <trkpt lat="44.90649" lon="6.66793">
        <ele>1464.5999755859</ele>
        <time>2020-09-13T10:27:47.000Z</time>
      </trkpt>
      <trkpt lat="44.90647" lon="6.66777">
        <ele>1462</ele>
        <time>2020-09-13T10:27:51.000Z</time>
      </trkpt>
      <trkpt lat="44.90636" lon="6.6676">
        <ele>1458.1999511719</ele>
        <time>2020-09-13T10:27:56.000Z</time>
      </trkpt>
      <trkpt lat="44.90633" lon="6.66755">
        <ele>1457.5999755859</ele>
        <time>2020-09-13T10:27:57.000Z</time>
      </trkpt>
      <trkpt lat="44.90622" lon="6.66741">
        <ele>1455.1999511719</ele>
        <time>2020-09-13T10:28:02.000Z</time>
      </trkpt>
      <trkpt lat="44.90615" lon="6.66725">
        <ele>1451.5999755859</ele>
        <time>2020-09-13T10:28:09.000Z</time>
      </trkpt>
      <trkpt lat="44.90617" lon="6.66723">
        <ele>1451.1999511719</ele>
        <time>2020-09-13T10:28:10.000Z</time>
      </trkpt>
      <trkpt lat="44.90633" lon="6.66718">
        <ele>1446.4000244141</ele>
        <time>2020-09-13T10:28:18.000Z</time>
      </trkpt>
      <trkpt lat="44.90632" lon="6.66701">
        <ele>1442.4000244141</ele>
        <time>2020-09-13T10:28:25.000Z</time>
      </trkpt>
      <trkpt lat="44.90631" lon="6.66698">
        <ele>1441.8000488281</ele>
        <time>2020-09-13T10:28:26.000Z</time>
      </trkpt>
      <trkpt lat="44.90628" lon="6.66689">
        <ele>1440.5999755859</ele>
        <time>2020-09-13T10:28:29.000Z</time>
      </trkpt>
      <trkpt lat="44.90618" lon="6.66676">
        <ele>1438</ele>
        <time>2020-09-13T10:28:35.000Z</time>
      </trkpt>
      <trkpt lat="44.90606" lon="6.66665">
        <ele>1434.4000244141</ele>
        <time>2020-09-13T10:28:41.000Z</time>
      </trkpt>
      <trkpt lat="44.90584" lon="6.66653">
        <ele>1430.5999755859</ele>
        <time>2020-09-13T10:28:47.000Z</time>
      </trkpt>
      <trkpt lat="44.90581" lon="6.6665">
        <ele>1430</ele>
        <time>2020-09-13T10:28:48.000Z</time>
      </trkpt>
      <trkpt lat="44.90575" lon="6.66641">
        <ele>1428.4000244141</ele>
        <time>2020-09-13T10:28:50.000Z</time>
      </trkpt>
      <trkpt lat="44.9055" lon="6.6661">
        <ele>1424.1999511719</ele>
        <time>2020-09-13T10:28:57.000Z</time>
      </trkpt>
      <trkpt lat="44.90548" lon="6.66606">
        <ele>1423.5999755859</ele>
        <time>2020-09-13T10:28:58.000Z</time>
      </trkpt>
      <trkpt lat="44.9053" lon="6.66581">
        <ele>1419.1999511719</ele>
        <time>2020-09-13T10:29:04.000Z</time>
      </trkpt>
      <trkpt lat="44.90514" lon="6.66568">
        <ele>1416</ele>
        <time>2020-09-13T10:29:08.000Z</time>
      </trkpt>
      <trkpt lat="44.90512" lon="6.66563">
        <ele>1415.1999511719</ele>
        <time>2020-09-13T10:29:09.000Z</time>
      </trkpt>
      <trkpt lat="44.9051" lon="6.66538">
        <ele>1413.8000488281</ele>
        <time>2020-09-13T10:29:12.000Z</time>
      </trkpt>
      <trkpt lat="44.90501" lon="6.66513">
        <ele>1411.1999511719</ele>
        <time>2020-09-13T10:29:16.000Z</time>
      </trkpt>
      <trkpt lat="44.90485" lon="6.66479">
        <ele>1408</ele>
        <time>2020-09-13T10:29:22.000Z</time>
      </trkpt>
      <trkpt lat="44.90472" lon="6.6647">
        <ele>1406</ele>
        <time>2020-09-13T10:29:27.000Z</time>
      </trkpt>
      <trkpt lat="44.90448" lon="6.66446">
        <ele>1403.1999511719</ele>
        <time>2020-09-13T10:29:37.000Z</time>
      </trkpt>
      <trkpt lat="44.9042" lon="6.66443">
        <ele>1399.4000244141</ele>
        <time>2020-09-13T10:29:45.000Z</time>
      </trkpt>
      <trkpt lat="44.90401" lon="6.6644">
        <ele>1397.5999755859</ele>
        <time>2020-09-13T10:29:49.000Z</time>
      </trkpt>
      <trkpt lat="44.90382" lon="6.66427">
        <ele>1394.1999511719</ele>
        <time>2020-09-13T10:29:55.000Z</time>
      </trkpt>
      <trkpt lat="44.90378" lon="6.66427">
        <ele>1393.8000488281</ele>
        <time>2020-09-13T10:29:56.000Z</time>
      </trkpt>
      <trkpt lat="44.90361" lon="6.66437">
        <ele>1392</ele>
        <time>2020-09-13T10:30:04.000Z</time>
      </trkpt>
      <trkpt lat="44.90356" lon="6.66438">
        <ele>1389.8000488281</ele>
        <time>2020-09-13T10:30:12.000Z</time>
      </trkpt>
      <trkpt lat="44.90349" lon="6.66444">
        <ele>1389.1999511719</ele>
        <time>2020-09-13T10:30:22.000Z</time>
      </trkpt>
      <trkpt lat="44.90326" lon="6.66441">
        <ele>1388.1999511719</ele>
        <time>2020-09-13T10:30:31.000Z</time>
      </trkpt>
      <trkpt lat="44.90318" lon="6.66426">
        <ele>1387</ele>
        <time>2020-09-13T10:30:34.000Z</time>
      </trkpt>
      <trkpt lat="44.9031" lon="6.66396">
        <ele>1385.4000244141</ele>
        <time>2020-09-13T10:30:39.000Z</time>
      </trkpt>
      <trkpt lat="44.9029" lon="6.66313">
        <ele>1382.4000244141</ele>
        <time>2020-09-13T10:30:49.000Z</time>
      </trkpt>
      <trkpt lat="44.90289" lon="6.66306">
        <ele>1381.8000488281</ele>
        <time>2020-09-13T10:30:50.000Z</time>
      </trkpt>
      <trkpt lat="44.90286" lon="6.66285">
        <ele>1379.8000488281</ele>
        <time>2020-09-13T10:30:54.000Z</time>
      </trkpt>
      <trkpt lat="44.90289" lon="6.66249">
        <ele>1379</ele>
        <time>2020-09-13T10:31:00.000Z</time>
      </trkpt>
      <trkpt lat="44.90288" lon="6.66226">
        <ele>1378.4000244141</ele>
        <time>2020-09-13T10:31:04.000Z</time>
      </trkpt>
      <trkpt lat="44.90279" lon="6.6619">
        <ele>1374.5999755859</ele>
        <time>2020-09-13T10:31:11.000Z</time>
      </trkpt>
      <trkpt lat="44.90275" lon="6.66167">
        <ele>1372.8000488281</ele>
        <time>2020-09-13T10:31:15.000Z</time>
      </trkpt>
      <trkpt lat="44.90268" lon="6.66124">
        <ele>1370</ele>
        <time>2020-09-13T10:31:22.000Z</time>
      </trkpt>
      <trkpt lat="44.90267" lon="6.66107">
        <ele>1368</ele>
        <time>2020-09-13T10:31:25.000Z</time>
      </trkpt>
      <trkpt lat="44.90261" lon="6.66085">
        <ele>1365.8000488281</ele>
        <time>2020-09-13T10:31:29.000Z</time>
      </trkpt>
      <trkpt lat="44.90257" lon="6.66069">
        <ele>1364.4000244141</ele>
        <time>2020-09-13T10:31:32.000Z</time>
      </trkpt>
      <trkpt lat="44.90254" lon="6.66036">
        <ele>1360.8000488281</ele>
        <time>2020-09-13T10:31:37.000Z</time>
      </trkpt>
      <trkpt lat="44.90251" lon="6.66008">
        <ele>1358.5999755859</ele>
        <time>2020-09-13T10:31:41.000Z</time>
      </trkpt>
      <trkpt lat="44.90249" lon="6.66001">
        <ele>1358</ele>
        <time>2020-09-13T10:31:42.000Z</time>
      </trkpt>
      <trkpt lat="44.90247" lon="6.65996">
        <ele>1357.5999755859</ele>
        <time>2020-09-13T10:31:43.000Z</time>
      </trkpt>
      <trkpt lat="44.90244" lon="6.65991">
        <ele>1357</ele>
        <time>2020-09-13T10:31:44.000Z</time>
      </trkpt>
      <trkpt lat="44.90241" lon="6.65985">
        <ele>1356.5999755859</ele>
        <time>2020-09-13T10:31:45.000Z</time>
      </trkpt>
      <trkpt lat="44.90238" lon="6.6598">
        <ele>1356</ele>
        <time>2020-09-13T10:31:46.000Z</time>
      </trkpt>
      <trkpt lat="44.90232" lon="6.65964">
        <ele>1354.4000244141</ele>
        <time>2020-09-13T10:31:49.000Z</time>
      </trkpt>
      <trkpt lat="44.90231" lon="6.65958">
        <ele>1354</ele>
        <time>2020-09-13T10:31:50.000Z</time>
      </trkpt>
      <trkpt lat="44.90225" lon="6.65929">
        <ele>1352.1999511719</ele>
        <time>2020-09-13T10:31:56.000Z</time>
      </trkpt>
      <trkpt lat="44.90217" lon="6.65922">
        <ele>1350.4000244141</ele>
        <time>2020-09-13T10:31:58.000Z</time>
      </trkpt>
      <trkpt lat="44.9021" lon="6.65895">
        <ele>1346.5999755859</ele>
        <time>2020-09-13T10:32:04.000Z</time>
      </trkpt>
      <trkpt lat="44.90211" lon="6.65892">
        <ele>1342.1999511719</ele>
        <time>2020-09-13T10:32:10.000Z</time>
      </trkpt>
      <trkpt lat="44.90206" lon="6.65881">
        <ele>1340.4000244141</ele>
        <time>2020-09-13T10:32:14.000Z</time>
      </trkpt>
      <trkpt lat="44.90204" lon="6.65878">
        <ele>1340.1999511719</ele>
        <time>2020-09-13T10:32:15.000Z</time>
      </trkpt>
      <trkpt lat="44.90202" lon="6.65875">
        <ele>1340</ele>
        <time>2020-09-13T10:32:16.000Z</time>
      </trkpt>
      <trkpt lat="44.90195" lon="6.65864">
        <ele>1340</ele>
        <time>2020-09-13T10:32:19.000Z</time>
      </trkpt>
      <trkpt lat="44.90169" lon="6.65821">
        <ele>1340</ele>
        <time>2020-09-13T10:32:27.000Z</time>
      </trkpt>
      <trkpt lat="44.90162" lon="6.65807">
        <ele>1340</ele>
        <time>2020-09-13T10:32:29.000Z</time>
      </trkpt>
      <trkpt lat="44.90149" lon="6.65774">
        <ele>1339.5999755859</ele>
        <time>2020-09-13T10:32:35.000Z</time>
      </trkpt>
      <trkpt lat="44.90143" lon="6.65764">
        <ele>1339</ele>
        <time>2020-09-13T10:32:37.000Z</time>
      </trkpt>
      <trkpt lat="44.90141" lon="6.65758">
        <ele>1338.8000488281</ele>
        <time>2020-09-13T10:32:38.000Z</time>
      </trkpt>
      <trkpt lat="44.90138" lon="6.65698">
        <ele>1337.8000488281</ele>
        <time>2020-09-13T10:32:46.000Z</time>
      </trkpt>
      <trkpt lat="44.90146" lon="6.65641">
        <ele>1335.4000244141</ele>
        <time>2020-09-13T10:32:52.000Z</time>
      </trkpt>
      <trkpt lat="44.9015" lon="6.65582">
        <ele>1331.4000244141</ele>
        <time>2020-09-13T10:32:59.000Z</time>
      </trkpt>
      <trkpt lat="44.9015" lon="6.65536">
        <ele>1330.8000488281</ele>
        <time>2020-09-13T10:33:04.000Z</time>
      </trkpt>
      <trkpt lat="44.90151" lon="6.65512">
        <ele>1330.1999511719</ele>
        <time>2020-09-13T10:33:07.000Z</time>
      </trkpt>
      <trkpt lat="44.90149" lon="6.65492">
        <ele>1329</ele>
        <time>2020-09-13T10:33:10.000Z</time>
      </trkpt>
      <trkpt lat="44.90137" lon="6.6546">
        <ele>1328</ele>
        <time>2020-09-13T10:33:15.000Z</time>
      </trkpt>
      <trkpt lat="44.90134" lon="6.65448">
        <ele>1327.8000488281</ele>
        <time>2020-09-13T10:33:17.000Z</time>
      </trkpt>
      <trkpt lat="44.90134" lon="6.65441">
        <ele>1327.5999755859</ele>
        <time>2020-09-13T10:33:18.000Z</time>
      </trkpt>
      <trkpt lat="44.90134" lon="6.65428">
        <ele>1327.4000244141</ele>
        <time>2020-09-13T10:33:20.000Z</time>
      </trkpt>
      <trkpt lat="44.90136" lon="6.6541">
        <ele>1327</ele>
        <time>2020-09-13T10:33:23.000Z</time>
      </trkpt>
      <trkpt lat="44.90137" lon="6.65404">
        <ele>1327</ele>
        <time>2020-09-13T10:33:24.000Z</time>
      </trkpt>
      <trkpt lat="44.90142" lon="6.65388">
        <ele>1327</ele>
        <time>2020-09-13T10:33:27.000Z</time>
      </trkpt>
      <trkpt lat="44.90126" lon="6.65354">
        <ele>1327.5999755859</ele>
        <time>2020-09-13T10:33:35.000Z</time>
      </trkpt>
      <trkpt lat="44.90119" lon="6.6534">
        <ele>1328.8000488281</ele>
        <time>2020-09-13T10:33:38.000Z</time>
      </trkpt>
      <trkpt lat="44.90112" lon="6.65321">
        <ele>1329.1999511719</ele>
        <time>2020-09-13T10:33:42.000Z</time>
      </trkpt>
      <trkpt lat="44.90107" lon="6.65312">
        <ele>1329.4000244141</ele>
        <time>2020-09-13T10:33:44.000Z</time>
      </trkpt>
      <trkpt lat="44.90087" lon="6.65292">
        <ele>1329.8000488281</ele>
        <time>2020-09-13T10:33:49.000Z</time>
      </trkpt>
      <trkpt lat="44.90076" lon="6.6528">
        <ele>1330</ele>
        <time>2020-09-13T10:33:52.000Z</time>
      </trkpt>
      <trkpt lat="44.90042" lon="6.6526">
        <ele>1330.4000244141</ele>
        <time>2020-09-13T10:34:01.000Z</time>
      </trkpt>
      <trkpt lat="44.90038" lon="6.65285">
        <ele>1331.8000488281</ele>
        <time>2020-09-13T10:34:08.000Z</time>
      </trkpt>
      <trkpt lat="44.90054" lon="6.65332">
        <ele>1335.4000244141</ele>
        <time>2020-09-13T10:34:18.000Z</time>
      </trkpt>
      <trkpt lat="44.90053" lon="6.65359">
        <ele>1338.5999755859</ele>
        <time>2020-09-13T10:34:24.000Z</time>
      </trkpt>
      <trkpt lat="44.9005" lon="6.65388">
        <ele>1341.8000488281</ele>
        <time>2020-09-13T10:34:30.000Z</time>
      </trkpt>
      <trkpt lat="44.90049" lon="6.65393">
        <ele>1342.1999511719</ele>
        <time>2020-09-13T10:34:31.000Z</time>
      </trkpt>
      <trkpt lat="44.90036" lon="6.65423">
        <ele>1345.1999511719</ele>
        <time>2020-09-13T10:34:39.000Z</time>
      </trkpt>
      <trkpt lat="44.90034" lon="6.65426">
        <ele>1345.5999755859</ele>
        <time>2020-09-13T10:34:40.000Z</time>
      </trkpt>
      <trkpt lat="44.90031" lon="6.65444">
        <ele>1346.1999511719</ele>
        <time>2020-09-13T10:34:44.000Z</time>
      </trkpt>
      <trkpt lat="44.90033" lon="6.65485">
        <ele>1349.8000488281</ele>
        <time>2020-09-13T10:34:53.000Z</time>
      </trkpt>
      <trkpt lat="44.9003" lon="6.65512">
        <ele>1353</ele>
        <time>2020-09-13T10:34:59.000Z</time>
      </trkpt>
      <trkpt lat="44.90029" lon="6.65548">
        <ele>1356.4000244141</ele>
        <time>2020-09-13T10:35:07.000Z</time>
      </trkpt>
      <trkpt lat="44.90029" lon="6.65576">
        <ele>1359.5999755859</ele>
        <time>2020-09-13T10:35:13.000Z</time>
      </trkpt>
      <trkpt lat="44.9003" lon="6.65599">
        <ele>1361.5999755859</ele>
        <time>2020-09-13T10:35:18.000Z</time>
      </trkpt>
      <trkpt lat="44.90027" lon="6.65647">
        <ele>1364.5999755859</ele>
        <time>2020-09-13T10:35:29.000Z</time>
      </trkpt>
      <trkpt lat="44.90022" lon="6.65682">
        <ele>1368.1999511719</ele>
        <time>2020-09-13T10:35:37.000Z</time>
      </trkpt>
      <trkpt lat="44.90021" lon="6.65686">
        <ele>1368.5999755859</ele>
        <time>2020-09-13T10:35:38.000Z</time>
      </trkpt>
      <trkpt lat="44.90026" lon="6.6571">
        <ele>1370.8000488281</ele>
        <time>2020-09-13T10:35:44.000Z</time>
      </trkpt>
      <trkpt lat="44.90021" lon="6.6574">
        <ele>1374.5999755859</ele>
        <time>2020-09-13T10:35:51.000Z</time>
      </trkpt>
      <trkpt lat="44.90021" lon="6.65763">
        <ele>1377</ele>
        <time>2020-09-13T10:35:56.000Z</time>
      </trkpt>
      <trkpt lat="44.90023" lon="6.65793">
        <ele>1380.5999755859</ele>
        <time>2020-09-13T10:36:02.000Z</time>
      </trkpt>
      <trkpt lat="44.90021" lon="6.6581">
        <ele>1382.1999511719</ele>
        <time>2020-09-13T10:36:06.000Z</time>
      </trkpt>
      <trkpt lat="44.90009" lon="6.65809">
        <ele>1385.4000244141</ele>
        <time>2020-09-13T10:36:13.000Z</time>
      </trkpt>
      <trkpt lat="44.90008" lon="6.65787">
        <ele>1387.8000488281</ele>
        <time>2020-09-13T10:36:18.000Z</time>
      </trkpt>
      <trkpt lat="44.90005" lon="6.65776">
        <ele>1389</ele>
        <time>2020-09-13T10:36:21.000Z</time>
      </trkpt>
      <trkpt lat="44.89998" lon="6.65755">
        <ele>1391.1999511719</ele>
        <time>2020-09-13T10:36:26.000Z</time>
      </trkpt>
      <trkpt lat="44.89979" lon="6.65708">
        <ele>1393.8000488281</ele>
        <time>2020-09-13T10:36:37.000Z</time>
      </trkpt>
      <trkpt lat="44.89964" lon="6.65666">
        <ele>1396.8000488281</ele>
        <time>2020-09-13T10:36:47.000Z</time>
      </trkpt>
      <trkpt lat="44.89955" lon="6.65641">
        <ele>1399.8000488281</ele>
        <time>2020-09-13T10:36:54.000Z</time>
      </trkpt>
      <trkpt lat="44.89945" lon="6.65612">
        <ele>1403</ele>
        <time>2020-09-13T10:37:00.000Z</time>
      </trkpt>
      <trkpt lat="44.89934" lon="6.65569">
        <ele>1406</ele>
        <time>2020-09-13T10:37:09.000Z</time>
      </trkpt>
      <trkpt lat="44.89912" lon="6.65531">
        <ele>1409.1999511719</ele>
        <time>2020-09-13T10:37:19.000Z</time>
      </trkpt>
      <trkpt lat="44.89902" lon="6.65521">
        <ele>1410</ele>
        <time>2020-09-13T10:37:22.000Z</time>
      </trkpt>
      <trkpt lat="44.89897" lon="6.65513">
        <ele>1410.4000244141</ele>
        <time>2020-09-13T10:37:24.000Z</time>
      </trkpt>
      <trkpt lat="44.89891" lon="6.65506">
        <ele>1410.5999755859</ele>
        <time>2020-09-13T10:37:26.000Z</time>
      </trkpt>
      <trkpt lat="44.89871" lon="6.65494">
        <ele>1410.8000488281</ele>
        <time>2020-09-13T10:37:31.000Z</time>
      </trkpt>
      <trkpt lat="44.89858" lon="6.65493">
        <ele>1411</ele>
        <time>2020-09-13T10:37:34.000Z</time>
      </trkpt>
      <trkpt lat="44.89838" lon="6.65485">
        <ele>1411.4000244141</ele>
        <time>2020-09-13T10:37:39.000Z</time>
      </trkpt>
      <trkpt lat="44.89799" lon="6.65485">
        <ele>1414.8000488281</ele>
        <time>2020-09-13T10:37:49.000Z</time>
      </trkpt>
      <trkpt lat="44.89787" lon="6.65487">
        <ele>1416.4000244141</ele>
        <time>2020-09-13T10:37:52.000Z</time>
      </trkpt>
      <trkpt lat="44.8977" lon="6.65476">
        <ele>1418.8000488281</ele>
        <time>2020-09-13T10:37:57.000Z</time>
      </trkpt>
      <trkpt lat="44.89756" lon="6.65462">
        <ele>1421</ele>
        <time>2020-09-13T10:38:02.000Z</time>
      </trkpt>
      <trkpt lat="44.89747" lon="6.65459">
        <ele>1422.1999511719</ele>
        <time>2020-09-13T10:38:05.000Z</time>
      </trkpt>
      <trkpt lat="44.89728" lon="6.65464">
        <ele>1425.1999511719</ele>
        <time>2020-09-13T10:38:11.000Z</time>
      </trkpt>
      <trkpt lat="44.89704" lon="6.65463">
        <ele>1428.5999755859</ele>
        <time>2020-09-13T10:38:18.000Z</time>
      </trkpt>
      <trkpt lat="44.89683" lon="6.65466">
        <ele>1432</ele>
        <time>2020-09-13T10:38:25.000Z</time>
      </trkpt>
      <trkpt lat="44.89679" lon="6.65466">
        <ele>1432</ele>
        <time>2020-09-13T10:38:26.000Z</time>
      </trkpt>
      <trkpt lat="44.89663" lon="6.65475">
        <ele>1435.1999511719</ele>
        <time>2020-09-13T10:38:32.000Z</time>
      </trkpt>
      <trkpt lat="44.8965" lon="6.65485">
        <ele>1438.1999511719</ele>
        <time>2020-09-13T10:38:38.000Z</time>
      </trkpt>
      <trkpt lat="44.89635" lon="6.65495">
        <ele>1441.1999511719</ele>
        <time>2020-09-13T10:38:44.000Z</time>
      </trkpt>
      <trkpt lat="44.89622" lon="6.65505">
        <ele>1444.1999511719</ele>
        <time>2020-09-13T10:38:49.000Z</time>
      </trkpt>
      <trkpt lat="44.89619" lon="6.65508">
        <ele>1444.1999511719</ele>
        <time>2020-09-13T10:38:50.000Z</time>
      </trkpt>
      <trkpt lat="44.89604" lon="6.65523">
        <ele>1447.5999755859</ele>
        <time>2020-09-13T10:38:56.000Z</time>
      </trkpt>
      <trkpt lat="44.89589" lon="6.65535">
        <ele>1450.5999755859</ele>
        <time>2020-09-13T10:39:02.000Z</time>
      </trkpt>
      <trkpt lat="44.89568" lon="6.65541">
        <ele>1454.1999511719</ele>
        <time>2020-09-13T10:39:09.000Z</time>
      </trkpt>
      <trkpt lat="44.8955" lon="6.65535">
        <ele>1457.5999755859</ele>
        <time>2020-09-13T10:39:15.000Z</time>
      </trkpt>
      <trkpt lat="44.89525" lon="6.65528">
        <ele>1460.8000488281</ele>
        <time>2020-09-13T10:39:24.000Z</time>
      </trkpt>
      <trkpt lat="44.89503" lon="6.65531">
        <ele>1464.1999511719</ele>
        <time>2020-09-13T10:39:32.000Z</time>
      </trkpt>
      <trkpt lat="44.89501" lon="6.65531">
        <ele>1464.4000244141</ele>
        <time>2020-09-13T10:39:33.000Z</time>
      </trkpt>
      <trkpt lat="44.89494" lon="6.65501">
        <ele>1467.4000244141</ele>
        <time>2020-09-13T10:39:41.000Z</time>
      </trkpt>
      <trkpt lat="44.89501" lon="6.65447">
        <ele>1470.5999755859</ele>
        <time>2020-09-13T10:39:55.000Z</time>
      </trkpt>
      <trkpt lat="44.8952" lon="6.6541">
        <ele>1471.5999755859</ele>
        <time>2020-09-13T10:40:05.000Z</time>
      </trkpt>
      <trkpt lat="44.89563" lon="6.65368">
        <ele>1470.8000488281</ele>
        <time>2020-09-13T10:40:21.000Z</time>
      </trkpt>
      <trkpt lat="44.89611" lon="6.6534">
        <ele>1469.8000488281</ele>
        <time>2020-09-13T10:40:34.000Z</time>
      </trkpt>
      <trkpt lat="44.89669" lon="6.6531">
        <ele>1467.1999511719</ele>
        <time>2020-09-13T10:40:44.000Z</time>
      </trkpt>
      <trkpt lat="44.89686" lon="6.65304">
        <ele>1466.1999511719</ele>
        <time>2020-09-13T10:40:47.000Z</time>
      </trkpt>
      <trkpt lat="44.89725" lon="6.65282">
        <ele>1464</ele>
        <time>2020-09-13T10:40:53.000Z</time>
      </trkpt>
      <trkpt lat="44.89779" lon="6.65264">
        <ele>1459.8000488281</ele>
        <time>2020-09-13T10:41:01.000Z</time>
      </trkpt>
      <trkpt lat="44.89785" lon="6.65263">
        <ele>1459.1999511719</ele>
        <time>2020-09-13T10:41:02.000Z</time>
      </trkpt>
      <trkpt lat="44.89801" lon="6.65262">
        <ele>1458.5999755859</ele>
        <time>2020-09-13T10:41:05.000Z</time>
      </trkpt>
      <trkpt lat="44.89815" lon="6.65258">
        <ele>1458.1999511719</ele>
        <time>2020-09-13T10:41:08.000Z</time>
      </trkpt>
      <trkpt lat="44.89823" lon="6.65251">
        <ele>1458.1999511719</ele>
        <time>2020-09-13T10:41:10.000Z</time>
      </trkpt>
      <trkpt lat="44.89858" lon="6.65221">
        <ele>1457</ele>
        <time>2020-09-13T10:41:19.000Z</time>
      </trkpt>
      <trkpt lat="44.89855" lon="6.65203">
        <ele>1456.4000244141</ele>
        <time>2020-09-13T10:41:22.000Z</time>
      </trkpt>
      <trkpt lat="44.89839" lon="6.65169">
        <ele>1453.5999755859</ele>
        <time>2020-09-13T10:41:33.000Z</time>
      </trkpt>
      <trkpt lat="44.89839" lon="6.65169">
        <ele>1453.5999755859</ele>
        <time>2020-09-13T10:41:34.000Z</time>
      </trkpt>
      <trkpt lat="44.89836" lon="6.65165">
        <ele>1453.5999755859</ele>
        <time>2020-09-13T10:41:56.000Z</time>
      </trkpt>
      <trkpt lat="44.89822" lon="6.65124">
        <ele>1453.5999755859</ele>
        <time>2020-09-13T10:42:05.000Z</time>
      </trkpt>
      <trkpt lat="44.89809" lon="6.65099">
        <ele>1452.8000488281</ele>
        <time>2020-09-13T10:42:11.000Z</time>
      </trkpt>
      <trkpt lat="44.89798" lon="6.65092">
        <ele>1452.5999755859</ele>
        <time>2020-09-13T10:42:14.000Z</time>
      </trkpt>
      <trkpt lat="44.89775" lon="6.6509">
        <ele>1452.4000244141</ele>
        <time>2020-09-13T10:42:19.000Z</time>
      </trkpt>
      <trkpt lat="44.89711" lon="6.65068">
        <ele>1451.5999755859</ele>
        <time>2020-09-13T10:42:33.000Z</time>
      </trkpt>
      <trkpt lat="44.89708" lon="6.65065">
        <ele>1451.5999755859</ele>
        <time>2020-09-13T10:42:34.000Z</time>
      </trkpt>
      <trkpt lat="44.89675" lon="6.65034">
        <ele>1451.5999755859</ele>
        <time>2020-09-13T10:42:42.000Z</time>
      </trkpt>
      <trkpt lat="44.89656" lon="6.65001">
        <ele>1451.5999755859</ele>
        <time>2020-09-13T10:42:48.000Z</time>
      </trkpt>
      <trkpt lat="44.89651" lon="6.64987">
        <ele>1451.4000244141</ele>
        <time>2020-09-13T10:42:50.000Z</time>
      </trkpt>
      <trkpt lat="44.89614" lon="6.64913">
        <ele>1448</ele>
        <time>2020-09-13T10:43:01.000Z</time>
      </trkpt>
      <trkpt lat="44.89611" lon="6.64907">
        <ele>1447.5999755859</ele>
        <time>2020-09-13T10:43:02.000Z</time>
      </trkpt>
      <trkpt lat="44.89616" lon="6.64899">
        <ele>1443.5999755859</ele>
        <time>2020-09-13T10:43:08.000Z</time>
      </trkpt>
      <trkpt lat="44.89624" lon="6.64915">
        <ele>1441.4000244141</ele>
        <time>2020-09-13T10:43:11.000Z</time>
      </trkpt>
      <trkpt lat="44.89641" lon="6.64935">
        <ele>1440.4000244141</ele>
        <time>2020-09-13T10:43:15.000Z</time>
      </trkpt>
      <trkpt lat="44.89659" lon="6.64957">
        <ele>1438</ele>
        <time>2020-09-13T10:43:19.000Z</time>
      </trkpt>
      <trkpt lat="44.89683" lon="6.64988">
        <ele>1433.1999511719</ele>
        <time>2020-09-13T10:43:25.000Z</time>
      </trkpt>
      <trkpt lat="44.89692" lon="6.64996">
        <ele>1431.5999755859</ele>
        <time>2020-09-13T10:43:27.000Z</time>
      </trkpt>
      <trkpt lat="44.89723" lon="6.65012">
        <ele>1427.4000244141</ele>
        <time>2020-09-13T10:43:32.000Z</time>
      </trkpt>
      <trkpt lat="44.8975" lon="6.65014">
        <ele>1424</ele>
        <time>2020-09-13T10:43:36.000Z</time>
      </trkpt>
      <trkpt lat="44.89778" lon="6.65015">
        <ele>1421.1999511719</ele>
        <time>2020-09-13T10:43:40.000Z</time>
      </trkpt>
      <trkpt lat="44.89796" lon="6.65013">
        <ele>1416.4000244141</ele>
        <time>2020-09-13T10:43:44.000Z</time>
      </trkpt>
      <trkpt lat="44.89794" lon="6.65004">
        <ele>1413</ele>
        <time>2020-09-13T10:43:48.000Z</time>
      </trkpt>
      <trkpt lat="44.89768" lon="6.64989">
        <ele>1411.1999511719</ele>
        <time>2020-09-13T10:43:54.000Z</time>
      </trkpt>
      <trkpt lat="44.8974" lon="6.6495">
        <ele>1408</ele>
        <time>2020-09-13T10:44:01.000Z</time>
      </trkpt>
      <trkpt lat="44.89732" lon="6.64931">
        <ele>1406</ele>
        <time>2020-09-13T10:44:04.000Z</time>
      </trkpt>
      <trkpt lat="44.89723" lon="6.64907">
        <ele>1402.5999755859</ele>
        <time>2020-09-13T10:44:08.000Z</time>
      </trkpt>
      <trkpt lat="44.8972" lon="6.64899">
        <ele>1401</ele>
        <time>2020-09-13T10:44:09.000Z</time>
      </trkpt>
      <trkpt lat="44.89715" lon="6.64883">
        <ele>1398.8000488281</ele>
        <time>2020-09-13T10:44:11.000Z</time>
      </trkpt>
      <trkpt lat="44.89704" lon="6.64851">
        <ele>1395.5999755859</ele>
        <time>2020-09-13T10:44:15.000Z</time>
      </trkpt>
      <trkpt lat="44.89697" lon="6.64839">
        <ele>1394.1999511719</ele>
        <time>2020-09-13T10:44:17.000Z</time>
      </trkpt>
      <trkpt lat="44.89691" lon="6.6483">
        <ele>1392.5999755859</ele>
        <time>2020-09-13T10:44:19.000Z</time>
      </trkpt>
      <trkpt lat="44.89692" lon="6.6482">
        <ele>1388.5999755859</ele>
        <time>2020-09-13T10:44:23.000Z</time>
      </trkpt>
      <trkpt lat="44.89713" lon="6.64845">
        <ele>1385.5999755859</ele>
        <time>2020-09-13T10:44:29.000Z</time>
      </trkpt>
      <trkpt lat="44.89723" lon="6.6485">
        <ele>1384.5999755859</ele>
        <time>2020-09-13T10:44:31.000Z</time>
      </trkpt>
      <trkpt lat="44.89733" lon="6.64852">
        <ele>1383.4000244141</ele>
        <time>2020-09-13T10:44:33.000Z</time>
      </trkpt>
      <trkpt lat="44.89759" lon="6.64852">
        <ele>1378.8000488281</ele>
        <time>2020-09-13T10:44:38.000Z</time>
      </trkpt>
      <trkpt lat="44.89781" lon="6.64844">
        <ele>1375.8000488281</ele>
        <time>2020-09-13T10:44:42.000Z</time>
      </trkpt>
      <trkpt lat="44.89797" lon="6.64836">
        <ele>1373</ele>
        <time>2020-09-13T10:44:45.000Z</time>
      </trkpt>
      <trkpt lat="44.89823" lon="6.64844">
        <ele>1369.4000244141</ele>
        <time>2020-09-13T10:44:50.000Z</time>
      </trkpt>
      <trkpt lat="44.89832" lon="6.6485">
        <ele>1367.8000488281</ele>
        <time>2020-09-13T10:44:52.000Z</time>
      </trkpt>
      <trkpt lat="44.89847" lon="6.64846">
        <ele>1364.4000244141</ele>
        <time>2020-09-13T10:44:56.000Z</time>
      </trkpt>
      <trkpt lat="44.89844" lon="6.64834">
        <ele>1361.1999511719</ele>
        <time>2020-09-13T10:44:59.000Z</time>
      </trkpt>
      <trkpt lat="44.89839" lon="6.64829">
        <ele>1359.8000488281</ele>
        <time>2020-09-13T10:45:01.000Z</time>
      </trkpt>
      <trkpt lat="44.89818" lon="6.64799">
        <ele>1358.4000244141</ele>
        <time>2020-09-13T10:45:07.000Z</time>
      </trkpt>
      <trkpt lat="44.89799" lon="6.64786">
        <ele>1355.1999511719</ele>
        <time>2020-09-13T10:45:12.000Z</time>
      </trkpt>
      <trkpt lat="44.89808" lon="6.64775">
        <ele>1350.5999755859</ele>
        <time>2020-09-13T10:45:18.000Z</time>
      </trkpt>
      <trkpt lat="44.89813" lon="6.64779">
        <ele>1349.1999511719</ele>
        <time>2020-09-13T10:45:20.000Z</time>
      </trkpt>
      <trkpt lat="44.89833" lon="6.64792">
        <ele>1347.1999511719</ele>
        <time>2020-09-13T10:45:26.000Z</time>
      </trkpt>
      <trkpt lat="44.89844" lon="6.6479">
        <ele>1345.5999755859</ele>
        <time>2020-09-13T10:45:29.000Z</time>
      </trkpt>
      <trkpt lat="44.89859" lon="6.64776">
        <ele>1343.1999511719</ele>
        <time>2020-09-13T10:45:33.000Z</time>
      </trkpt>
      <trkpt lat="44.89872" lon="6.64756">
        <ele>1341.1999511719</ele>
        <time>2020-09-13T10:45:36.000Z</time>
      </trkpt>
      <trkpt lat="44.8989" lon="6.64717">
        <ele>1336.5999755859</ele>
        <time>2020-09-13T10:45:43.000Z</time>
      </trkpt>
      <trkpt lat="44.89882" lon="6.64673">
        <ele>1335.4000244141</ele>
        <time>2020-09-13T10:45:50.000Z</time>
      </trkpt>
      <trkpt lat="44.89849" lon="6.64642">
        <ele>1337.5999755859</ele>
        <time>2020-09-13T10:46:02.000Z</time>
      </trkpt>
      <trkpt lat="44.89839" lon="6.64634">
        <ele>1340.8000488281</ele>
        <time>2020-09-13T10:46:06.000Z</time>
      </trkpt>
      <trkpt lat="44.89837" lon="6.64631">
        <ele>1340.8000488281</ele>
        <time>2020-09-13T10:46:07.000Z</time>
      </trkpt>
      <trkpt lat="44.89827" lon="6.64614">
        <ele>1344</ele>
        <time>2020-09-13T10:46:12.000Z</time>
      </trkpt>
      <trkpt lat="44.8981" lon="6.64608">
        <ele>1347</ele>
        <time>2020-09-13T10:46:19.000Z</time>
      </trkpt>
      <trkpt lat="44.89791" lon="6.64603">
        <ele>1350</ele>
        <time>2020-09-13T10:46:25.000Z</time>
      </trkpt>
      <trkpt lat="44.89789" lon="6.646">
        <ele>1350.5999755859</ele>
        <time>2020-09-13T10:46:26.000Z</time>
      </trkpt>
      <trkpt lat="44.89803" lon="6.64587">
        <ele>1353.5999755859</ele>
        <time>2020-09-13T10:46:34.000Z</time>
      </trkpt>
      <trkpt lat="44.89805" lon="6.6459">
        <ele>1354</ele>
        <time>2020-09-13T10:46:35.000Z</time>
      </trkpt>
      <trkpt lat="44.89814" lon="6.64581">
        <ele>1356.1999511719</ele>
        <time>2020-09-13T10:46:41.000Z</time>
      </trkpt>
      <trkpt lat="44.89804" lon="6.64571">
        <ele>1357.5999755859</ele>
        <time>2020-09-13T10:46:45.000Z</time>
      </trkpt>
      <trkpt lat="44.89797" lon="6.64562">
        <ele>1358.4000244141</ele>
        <time>2020-09-13T10:46:48.000Z</time>
      </trkpt>
      <trkpt lat="44.89777" lon="6.64545">
        <ele>1361</ele>
        <time>2020-09-13T10:46:57.000Z</time>
      </trkpt>
      <trkpt lat="44.89777" lon="6.64532">
        <ele>1363</ele>
        <time>2020-09-13T10:47:01.000Z</time>
      </trkpt>
      <trkpt lat="44.89779" lon="6.64524">
        <ele>1363.5999755859</ele>
        <time>2020-09-13T10:47:03.000Z</time>
      </trkpt>
      <trkpt lat="44.8979" lon="6.64505">
        <ele>1363.8000488281</ele>
        <time>2020-09-13T10:47:07.000Z</time>
      </trkpt>
      <trkpt lat="44.89798" lon="6.64477">
        <ele>1363.8000488281</ele>
        <time>2020-09-13T10:47:11.000Z</time>
      </trkpt>
      <trkpt lat="44.89802" lon="6.64469">
        <ele>1363.8000488281</ele>
        <time>2020-09-13T10:47:12.000Z</time>
      </trkpt>
      <trkpt lat="44.89806" lon="6.64461">
        <ele>1363.5999755859</ele>
        <time>2020-09-13T10:47:13.000Z</time>
      </trkpt>
      <trkpt lat="44.89815" lon="6.64443">
        <ele>1363</ele>
        <time>2020-09-13T10:47:16.000Z</time>
      </trkpt>
      <trkpt lat="44.89814" lon="6.64438">
        <ele>1362.5999755859</ele>
        <time>2020-09-13T10:47:17.000Z</time>
      </trkpt>
      <trkpt lat="44.89811" lon="6.64438">
        <ele>1362</ele>
        <time>2020-09-13T10:47:18.000Z</time>
      </trkpt>
      <trkpt lat="44.89805" lon="6.64447">
        <ele>1360.5999755859</ele>
        <time>2020-09-13T10:47:20.000Z</time>
      </trkpt>
      <trkpt lat="44.89803" lon="6.64454">
        <ele>1359.5999755859</ele>
        <time>2020-09-13T10:47:21.000Z</time>
      </trkpt>
      <trkpt lat="44.89801" lon="6.64459">
        <ele>1358.8000488281</ele>
        <time>2020-09-13T10:47:22.000Z</time>
      </trkpt>
      <trkpt lat="44.89797" lon="6.64462">
        <ele>1357.5999755859</ele>
        <time>2020-09-13T10:47:23.000Z</time>
      </trkpt>
      <trkpt lat="44.89793" lon="6.64464">
        <ele>1298.9</ele>
      </trkpt>
      <trkpt lat="44.89789" lon="6.6446">
        <ele>1357.1999511719</ele>
        <time>2020-09-13T10:47:25.000Z</time>
      </trkpt>
      <trkpt lat="44.89778" lon="6.64442">
        <ele>1355.4000244141</ele>
        <time>2020-09-13T10:47:29.000Z</time>
      </trkpt>
      <trkpt lat="44.8978" lon="6.64435">
        <ele>1354.8000488281</ele>
        <time>2020-09-13T10:47:30.000Z</time>
      </trkpt>
      <trkpt lat="44.89781" lon="6.64428">
        <ele>1354.4000244141</ele>
        <time>2020-09-13T10:47:31.000Z</time>
      </trkpt>
      <trkpt lat="44.89783" lon="6.64421">
        <ele>1354.1999511719</ele>
        <time>2020-09-13T10:47:32.000Z</time>
      </trkpt>
      <trkpt lat="44.89787" lon="6.64399">
        <ele>1352.5999755859</ele>
        <time>2020-09-13T10:47:35.000Z</time>
      </trkpt>
      <trkpt lat="44.8979" lon="6.64392">
        <ele>1352.1999511719</ele>
        <time>2020-09-13T10:47:36.000Z</time>
      </trkpt>
      <trkpt lat="44.89793" lon="6.64386">
        <ele>1351.5999755859</ele>
        <time>2020-09-13T10:47:37.000Z</time>
      </trkpt>
      <trkpt lat="44.89799" lon="6.64373">
        <ele>1350</ele>
        <time>2020-09-13T10:47:39.000Z</time>
      </trkpt>
      <trkpt lat="44.898" lon="6.64365">
        <ele>1349.4000244141</ele>
        <time>2020-09-13T10:47:40.000Z</time>
      </trkpt>
      <trkpt lat="44.89804" lon="6.64349">
        <ele>1348.4000244141</ele>
        <time>2020-09-13T10:47:42.000Z</time>
      </trkpt>
      <trkpt lat="44.89807" lon="6.64342">
        <ele>1348</ele>
        <time>2020-09-13T10:47:43.000Z</time>
      </trkpt>
      <trkpt lat="44.8981" lon="6.64335">
        <ele>1347.5999755859</ele>
        <time>2020-09-13T10:47:44.000Z</time>
      </trkpt>
      <trkpt lat="44.89813" lon="6.64328">
        <ele>1347</ele>
        <time>2020-09-13T10:47:45.000Z</time>
      </trkpt>
      <trkpt lat="44.89814" lon="6.6432">
        <ele>1346.4000244141</ele>
        <time>2020-09-13T10:47:46.000Z</time>
      </trkpt>
      <trkpt lat="44.89813" lon="6.64293">
        <ele>1343.4000244141</ele>
        <time>2020-09-13T10:47:50.000Z</time>
      </trkpt>
      <trkpt lat="44.89814" lon="6.6428">
        <ele>1342.5999755859</ele>
        <time>2020-09-13T10:47:52.000Z</time>
      </trkpt>
      <trkpt lat="44.89822" lon="6.64258">
        <ele>1341</ele>
        <time>2020-09-13T10:48:01.000Z</time>
      </trkpt>
      <trkpt lat="44.89822" lon="6.64258">
        <ele>1340.5999755859</ele>
        <time>2020-09-13T10:48:02.000Z</time>
      </trkpt>
      <trkpt lat="44.89827" lon="6.6425">
        <ele>1340.1999511719</ele>
        <time>2020-09-13T10:48:27.000Z</time>
      </trkpt>
      <trkpt lat="44.89834" lon="6.64247">
        <ele>1340.1999511719</ele>
        <time>2020-09-13T10:48:29.000Z</time>
      </trkpt>
      <trkpt lat="44.89861" lon="6.64241">
        <ele>1340</ele>
        <time>2020-09-13T10:48:35.000Z</time>
      </trkpt>
      <trkpt lat="44.89878" lon="6.64244">
        <ele>1338.8000488281</ele>
        <time>2020-09-13T10:48:39.000Z</time>
      </trkpt>
      <trkpt lat="44.89885" lon="6.64228">
        <ele>1337.1999511719</ele>
        <time>2020-09-13T10:48:44.000Z</time>
      </trkpt>
      <trkpt lat="44.89886" lon="6.6418">
        <ele>1336</ele>
        <time>2020-09-13T10:48:50.000Z</time>
      </trkpt>
      <trkpt lat="44.89899" lon="6.64147">
        <ele>1331</ele>
        <time>2020-09-13T10:48:58.000Z</time>
      </trkpt>
      <trkpt lat="44.89901" lon="6.64146">
        <ele>1331</ele>
        <time>2020-09-13T10:48:59.000Z</time>
      </trkpt>
      <trkpt lat="44.89912" lon="6.64145">
        <ele>1329.8000488281</ele>
        <time>2020-09-13T10:49:02.000Z</time>
      </trkpt>
      <trkpt lat="44.89921" lon="6.64135">
        <ele>1329.4000244141</ele>
        <time>2020-09-13T10:49:09.000Z</time>
      </trkpt>
      <trkpt lat="44.89921" lon="6.64135">
        <ele>1329.1999511719</ele>
        <time>2020-09-13T10:49:11.000Z</time>
      </trkpt>
      <trkpt lat="44.89914" lon="6.64117">
        <ele>1328.8000488281</ele>
        <time>2020-09-13T10:49:33.000Z</time>
      </trkpt>
      <trkpt lat="44.89902" lon="6.64093">
        <ele>1328.8000488281</ele>
        <time>2020-09-13T10:49:36.000Z</time>
      </trkpt>
      <trkpt lat="44.89872" lon="6.64018">
        <ele>1326.4000244141</ele>
        <time>2020-09-13T10:49:43.000Z</time>
      </trkpt>
      <trkpt lat="44.8986" lon="6.63986">
        <ele>1323</ele>
        <time>2020-09-13T10:49:46.000Z</time>
      </trkpt>
      <trkpt lat="44.89851" lon="6.63964">
        <ele>1319.1999511719</ele>
        <time>2020-09-13T10:49:48.000Z</time>
      </trkpt>
      <trkpt lat="44.89833" lon="6.63915">
        <ele>1315.8000488281</ele>
        <time>2020-09-13T10:49:52.000Z</time>
      </trkpt>
      <trkpt lat="44.8982" lon="6.63881">
        <ele>1311.5999755859</ele>
        <time>2020-09-13T10:49:55.000Z</time>
      </trkpt>
      <trkpt lat="44.89816" lon="6.6387">
        <ele>1311.5999755859</ele>
        <time>2020-09-13T10:49:56.000Z</time>
      </trkpt>
      <trkpt lat="44.89803" lon="6.63837">
        <ele>1308.4000244141</ele>
        <time>2020-09-13T10:49:59.000Z</time>
      </trkpt>
      <trkpt lat="44.89791" lon="6.63806">
        <ele>1304.1999511719</ele>
        <time>2020-09-13T10:50:02.000Z</time>
      </trkpt>
      <trkpt lat="44.89787" lon="6.63796">
        <ele>1304.1999511719</ele>
        <time>2020-09-13T10:50:03.000Z</time>
      </trkpt>
      <trkpt lat="44.89777" lon="6.63768">
        <ele>1300.8000488281</ele>
        <time>2020-09-13T10:50:06.000Z</time>
      </trkpt>
      <trkpt lat="44.89764" lon="6.63734">
        <ele>1297.5999755859</ele>
        <time>2020-09-13T10:50:10.000Z</time>
      </trkpt>
      <trkpt lat="44.89753" lon="6.63707">
        <ele>1293.5999755859</ele>
        <time>2020-09-13T10:50:13.000Z</time>
      </trkpt>
      <trkpt lat="44.89744" lon="6.63682">
        <ele>1291.5999755859</ele>
        <time>2020-09-13T10:50:16.000Z</time>
      </trkpt>
      <trkpt lat="44.8966" lon="6.63608">
        <ele>1266.4000244141</ele>
        <time>2020-09-13T10:54:46.000Z</time>
      </trkpt>
      <trkpt lat="44.8966" lon="6.63607">
        <ele>1266.4000244141</ele>
        <time>2020-09-13T10:54:47.000Z</time>
      </trkpt>
    </trkseg>
  </trk>
</gpx>